Cuivre River (Missouri), Troy (05514500)

StateMissouriLatestPoor (127 cfs)
RiverCuivre RiverRatingObservedEstimated
Updated2020-08-06 10:30 (9 minutes ago)Flood - The river is flooding. Obstacles can be treacherous or deadly. The river should be avoided at this stage for casual trips and definitely for the inexperienced. Trips should be attempted only with protective gear and equipment.Flood(none)2644
Discharge127 cfs (median: 46 cfs)High - The river is high and potentially dangerous, especially for the young and / or inexperienced. Normal stream obstacles are sometimes difficult to navigate. Extended distances can be attempted, but canoe travel may not be advisable.High(none)675
Height(none)Good - Conditions are ideal for a canoe or kayak. Boats typically will drag on fewer than one-quarter of riffles, if at all, and portages are unnecessary or rare. Normal float lengths can be attempted without a problem.Good(none)205
TrendSteady (falling over 24 hours)Low - River is low but can still be floated. Some riffles are okay but most come with significant dragging and might need a portage. Float lengths should be reduced to accommodate low flow, dragging, and portages.Low(none)129
USGSExternal icon USGS Site (External icon Google Maps)Poor - River is too low to float comfortably. Most or all riffles will drag or must be portaged and some obstacles (such as slick shelf rock) cause undue problems. Avoid the river at this stage for casual paddling trips.Poor(none)31

Trending Data

Plot Image

Trips for Cuivre River (Missouri), Troy (05514500)

DateStartEndDistanceConditionDischargeHeightFishingDetails

A total of 0 rows are displayed.

Condition Descriptions

Fishing Conditions

Fish Species

Notes

Classic Trip List

The classic River Trips application is still available for use. It is updated with the new system using a data retrofit. It is no longer maintained. The original River Trips application is no longer updated (as of 1 Dec 2016) but can be checked for errors or for the condition of the data before it was converted to the new system.

Gauge Data Table

ObservationHeightDischargeMaximum
Discharge
Minimum
Discharge
Mean
Discharge
P05P10P20P25P50
(Median)
P75P80P90P95
2020-08-06 10:30 127 14400 (1923) 0 (1934) 464 0 5 8 11 46 108 214 920 2380
2020-08-06 10:00 6.02 127 14400 (1923) 0 (1934) 464 0 5 8 11 46 108 214 920 2380
2020-08-06 09:30 6.02 127 14400 (1923) 0 (1934) 464 0 5 8 11 46 108 214 920 2380
2020-08-06 09:00 6.03 129 14400 (1923) 0 (1934) 464 0 5 8 11 46 108 214 920 2380
2020-08-06 08:30 6.03 129 14400 (1923) 0 (1934) 464 0 5 8 11 46 108 214 920 2380
2020-08-06 08:00 6.04 132 14400 (1923) 0 (1934) 464 0 5 8 11 46 108 214 920 2380
2020-08-06 07:30 6.04 132 14400 (1923) 0 (1934) 464 0 5 8 11 46 108 214 920 2380
2020-08-06 07:00 6.04 132 14400 (1923) 0 (1934) 464 0 5 8 11 46 108 214 920 2380
2020-08-06 06:30 6.05 134 14400 (1923) 0 (1934) 464 0 5 8 11 46 108 214 920 2380
2020-08-06 06:00 6.05 134 14400 (1923) 0 (1934) 464 0 5 8 11 46 108 214 920 2380
2020-08-06 05:30 6.05 134 14400 (1923) 0 (1934) 464 0 5 8 11 46 108 214 920 2380
2020-08-06 05:00 6.06 136 14400 (1923) 0 (1934) 464 0 5 8 11 46 108 214 920 2380
2020-08-06 04:30 6.06 136 14400 (1923) 0 (1934) 464 0 5 8 11 46 108 214 920 2380
2020-08-06 04:00 6.07 138 14400 (1923) 0 (1934) 464 0 5 8 11 46 108 214 920 2380
2020-08-06 03:30 6.07 138 14400 (1923) 0 (1934) 464 0 5 8 11 46 108 214 920 2380
2020-08-06 03:00 6.07 138 14400 (1923) 0 (1934) 464 0 5 8 11 46 108 214 920 2380
2020-08-06 02:30 6.08 141 14400 (1923) 0 (1934) 464 0 5 8 11 46 108 214 920 2380
2020-08-06 02:00 6.08 141 14400 (1923) 0 (1934) 464 0 5 8 11 46 108 214 920 2380
2020-08-06 01:30 6.08 141 14400 (1923) 0 (1934) 464 0 5 8 11 46 108 214 920 2380
2020-08-06 01:00 6.09 143 14400 (1923) 0 (1934) 464 0 5 8 11 46 108 214 920 2380
2020-08-06 00:30 6.09 143 14400 (1923) 0 (1934) 464 0 5 8 11 46 108 214 920 2380
2020-08-06 00:00 6.10 146 14400 (1923) 0 (1934) 464 0 5 8 11 46 108 214 920 2380
2020-08-05 23:30 6.10 146 4510 (2016) 0 (1954) 215 0 5 8 10 41 132 167 417 1320
2020-08-05 23:00 6.10 146 4510 (2016) 0 (1954) 215 0 5 8 10 41 132 167 417 1320
2020-08-05 22:30 6.11 148 4510 (2016) 0 (1954) 215 0 5 8 10 41 132 167 417 1320
2020-08-05 22:00 6.11 148 4510 (2016) 0 (1954) 215 0 5 8 10 41 132 167 417 1320
2020-08-05 21:30 6.12 150 4510 (2016) 0 (1954) 215 0 5 8 10 41 132 167 417 1320
2020-08-05 21:00 6.12 150 4510 (2016) 0 (1954) 215 0 5 8 10 41 132 167 417 1320
2020-08-05 20:30 6.12 150 4510 (2016) 0 (1954) 215 0 5 8 10 41 132 167 417 1320
2020-08-05 20:00 6.13 153 4510 (2016) 0 (1954) 215 0 5 8 10 41 132 167 417 1320
2020-08-05 19:30 6.14 155 4510 (2016) 0 (1954) 215 0 5 8 10 41 132 167 417 1320
2020-08-05 19:00 6.14 155 4510 (2016) 0 (1954) 215 0 5 8 10 41 132 167 417 1320
2020-08-05 18:30 6.15 158 4510 (2016) 0 (1954) 215 0 5 8 10 41 132 167 417 1320
2020-08-05 18:00 6.14 155 4510 (2016) 0 (1954) 215 0 5 8 10 41 132 167 417 1320
2020-08-05 17:30 6.12 150 4510 (2016) 0 (1954) 215 0 5 8 10 41 132 167 417 1320
2020-08-05 17:00 6.17 163 4510 (2016) 0 (1954) 215 0 5 8 10 41 132 167 417 1320
2020-08-05 16:30 6.18 166 4510 (2016) 0 (1954) 215 0 5 8 10 41 132 167 417 1320
2020-08-05 16:00 6.12 150 4510 (2016) 0 (1954) 215 0 5 8 10 41 132 167 417 1320
2020-08-05 15:30 6.18 166 4510 (2016) 0 (1954) 215 0 5 8 10 41 132 167 417 1320
2020-08-05 15:00 6.19 168 4510 (2016) 0 (1954) 215 0 5 8 10 41 132 167 417 1320
2020-08-05 14:30 6.20 171 4510 (2016) 0 (1954) 215 0 5 8 10 41 132 167 417 1320
2020-08-05 14:00 6.20 171 4510 (2016) 0 (1954) 215 0 5 8 10 41 132 167 417 1320
2020-08-05 13:30 6.21 174 4510 (2016) 0 (1954) 215 0 5 8 10 41 132 167 417 1320
2020-08-05 13:00 6.21 174 4510 (2016) 0 (1954) 215 0 5 8 10 41 132 167 417 1320
2020-08-05 12:30 6.21 174 4510 (2016) 0 (1954) 215 0 5 8 10 41 132 167 417 1320
2020-08-05 12:00 6.21 174 4510 (2016) 0 (1954) 215 0 5 8 10 41 132 167 417 1320
2020-08-05 11:30 6.22 176 4510 (2016) 0 (1954) 215 0 5 8 10 41 132 167 417 1320
2020-08-05 11:00 6.22 176 4510 (2016) 0 (1954) 215 0 5 8 10 41 132 167 417 1320
2020-08-05 10:30 6.22 176 4510 (2016) 0 (1954) 215 0 5 8 10 41 132 167 417 1320
2020-08-05 10:00 6.22 176 4510 (2016) 0 (1954) 215 0 5 8 10 41 132 167 417 1320
2020-08-05 09:30 6.23 179 4510 (2016) 0 (1954) 215 0 5 8 10 41 132 167 417 1320
2020-08-05 09:00 6.24 182 4510 (2016) 0 (1954) 215 0 5 8 10 41 132 167 417 1320
2020-08-05 08:30 6.25 185 4510 (2016) 0 (1954) 215 0 5 8 10 41 132 167 417 1320
2020-08-05 08:00 6.26 188 4510 (2016) 0 (1954) 215 0 5 8 10 41 132 167 417 1320
2020-08-05 07:30 6.27 191 4510 (2016) 0 (1954) 215 0 5 8 10 41 132 167 417 1320
2020-08-05 07:00 6.27 191 4510 (2016) 0 (1954) 215 0 5 8 10 41 132 167 417 1320
2020-08-05 06:30 6.28 194 4510 (2016) 0 (1954) 215 0 5 8 10 41 132 167 417 1320
2020-08-05 06:00 6.28 194 4510 (2016) 0 (1954) 215 0 5 8 10 41 132 167 417 1320
2020-08-05 05:30 6.29 197 4510 (2016) 0 (1954) 215 0 5 8 10 41 132 167 417 1320
2020-08-05 05:00 6.29 197 4510 (2016) 0 (1954) 215 0 5 8 10 41 132 167 417 1320
2020-08-05 04:30 6.30 200 4510 (2016) 0 (1954) 215 0 5 8 10 41 132 167 417 1320
2020-08-05 04:00 6.31 203 4510 (2016) 0 (1954) 215 0 5 8 10 41 132 167 417 1320
2020-08-05 03:30 6.31 203 4510 (2016) 0 (1954) 215 0 5 8 10 41 132 167 417 1320
2020-08-05 03:00 6.32 206 4510 (2016) 0 (1954) 215 0 5 8 10 41 132 167 417 1320
2020-08-05 02:30 6.33 209 4510 (2016) 0 (1954) 215 0 5 8 10 41 132 167 417 1320
2020-08-05 02:00 6.34 212 4510 (2016) 0 (1954) 215 0 5 8 10 41 132 167 417 1320
2020-08-05 01:30 6.34 212 4510 (2016) 0 (1954) 215 0 5 8 10 41 132 167 417 1320
2020-08-05 01:00 6.35 215 4510 (2016) 0 (1954) 215 0 5 8 10 41 132 167 417 1320
2020-08-05 00:30 6.36 218 4510 (2016) 0 (1954) 215 0 5 8 10 41 132 167 417 1320
2020-08-05 00:00 6.36 218 4510 (2016) 0 (1954) 215 0 5 8 10 41 132 167 417 1320
2020-08-04 23:30 6.37 222 5760 (1968) 0 (1954) 199 0 4 8 10 29 96 131 278 728
2020-08-04 23:00 6.38 225 5760 (1968) 0 (1954) 199 0 4 8 10 29 96 131 278 728
2020-08-04 22:30 6.38 225 5760 (1968) 0 (1954) 199 0 4 8 10 29 96 131 278 728
2020-08-04 22:00 6.39 228 5760 (1968) 0 (1954) 199 0 4 8 10 29 96 131 278 728
2020-08-04 21:30 232 5760 (1968) 0 (1954) 199 0 4 8 10 29 96 131 278 728
2020-08-04 21:00 6.41 235 5760 (1968) 0 (1954) 199 0 4 8 10 29 96 131 278 728
2020-08-04 20:30 6.41 235 5760 (1968) 0 (1954) 199 0 4 8 10 29 96 131 278 728
2020-08-04 20:00 6.42 238 5760 (1968) 0 (1954) 199 0 4 8 10 29 96 131 278 728
2020-08-04 19:30 6.43 242 5760 (1968) 0 (1954) 199 0 4 8 10 29 96 131 278 728
2020-08-04 19:00 6.43 242 5760 (1968) 0 (1954) 199 0 4 8 10 29 96 131 278 728
2020-08-04 18:30 6.44 245 5760 (1968) 0 (1954) 199 0 4 8 10 29 96 131 278 728
2020-08-04 18:00 6.45 249 5760 (1968) 0 (1954) 199 0 4 8 10 29 96 131 278 728
2020-08-04 17:30 6.46 252 5760 (1968) 0 (1954) 199 0 4 8 10 29 96 131 278 728
2020-08-04 17:00 6.47 256 5760 (1968) 0 (1954) 199 0 4 8 10 29 96 131 278 728
2020-08-04 16:30 6.48 260 5760 (1968) 0 (1954) 199 0 4 8 10 29 96 131 278 728
2020-08-04 16:00 6.48 260 5760 (1968) 0 (1954) 199 0 4 8 10 29 96 131 278 728
2020-08-04 15:30 6.49 263 5760 (1968) 0 (1954) 199 0 4 8 10 29 96 131 278 728
2020-08-04 15:00 6.50 267 5760 (1968) 0 (1954) 199 0 4 8 10 29 96 131 278 728
2020-08-04 14:30 6.51 270 5760 (1968) 0 (1954) 199 0 4 8 10 29 96 131 278 728
2020-08-04 14:00 6.51 270 5760 (1968) 0 (1954) 199 0 4 8 10 29 96 131 278 728
2020-08-04 13:30 6.52 273 5760 (1968) 0 (1954) 199 0 4 8 10 29 96 131 278 728
2020-08-04 13:00 6.53 276 5760 (1968) 0 (1954) 199 0 4 8 10 29 96 131 278 728
2020-08-04 12:30 6.54 279 5760 (1968) 0 (1954) 199 0 4 8 10 29 96 131 278 728
2020-08-04 12:00 6.55 282 5760 (1968) 0 (1954) 199 0 4 8 10 29 96 131 278 728
2020-08-04 11:30 6.56 285 5760 (1968) 0 (1954) 199 0 4 8 10 29 96 131 278 728
2020-08-04 11:00 6.57 288 5760 (1968) 0 (1954) 199 0 4 8 10 29 96 131 278 728
2020-08-04 10:30 6.57 288 5760 (1968) 0 (1954) 199 0 4 8 10 29 96 131 278 728
2020-08-04 10:00 6.58 291 5760 (1968) 0 (1954) 199 0 4 8 10 29 96 131 278 728
2020-08-04 09:30 6.59 294 5760 (1968) 0 (1954) 199 0 4 8 10 29 96 131 278 728
2020-08-04 09:00 6.60 297 5760 (1968) 0 (1954) 199 0 4 8 10 29 96 131 278 728
2020-08-04 08:30 6.61 301 5760 (1968) 0 (1954) 199 0 4 8 10 29 96 131 278 728
2020-08-04 08:00 6.63 307 5760 (1968) 0 (1954) 199 0 4 8 10 29 96 131 278 728
2020-08-04 07:30 6.64 310 5760 (1968) 0 (1954) 199 0 4 8 10 29 96 131 278 728
2020-08-04 07:00 6.65 313 5760 (1968) 0 (1954) 199 0 4 8 10 29 96 131 278 728
2020-08-04 06:30 6.66 317 5760 (1968) 0 (1954) 199 0 4 8 10 29 96 131 278 728
2020-08-04 06:00 6.67 320 5760 (1968) 0 (1954) 199 0 4 8 10 29 96 131 278 728
2020-08-04 05:30 6.68 323 5760 (1968) 0 (1954) 199 0 4 8 10 29 96 131 278 728
2020-08-04 05:00 6.69 327 5760 (1968) 0 (1954) 199 0 4 8 10 29 96 131 278 728
2020-08-04 04:30 6.70 330 5760 (1968) 0 (1954) 199 0 4 8 10 29 96 131 278 728
2020-08-04 04:00 6.70 330 5760 (1968) 0 (1954) 199 0 4 8 10 29 96 131 278 728
2020-08-04 03:30 6.72 337 5760 (1968) 0 (1954) 199 0 4 8 10 29 96 131 278 728
2020-08-04 03:00 6.73 340 5760 (1968) 0 (1954) 199 0 4 8 10 29 96 131 278 728
2020-08-04 02:30 6.73 340 5760 (1968) 0 (1954) 199 0 4 8 10 29 96 131 278 728
2020-08-04 02:00 6.74 344 5760 (1968) 0 (1954) 199 0 4 8 10 29 96 131 278 728
2020-08-04 01:30 6.75 347 5760 (1968) 0 (1954) 199 0 4 8 10 29 96 131 278 728
2020-08-04 01:00 6.75 347 5760 (1968) 0 (1954) 199 0 4 8 10 29 96 131 278 728
2020-08-04 00:30 6.76 351 5760 (1968) 0 (1954) 199 0 4 8 10 29 96 131 278 728
2020-08-04 00:00 6.75 347 5760 (1968) 0 (1954) 199 0 4 8 10 29 96 131 278 728
2020-08-03 23:30 6.75 347 6150 (2016) 0 (1934) 252 0 4 8 9 34 117 163 340 1090
2020-08-03 23:00 6.74 344 6150 (2016) 0 (1934) 252 0 4 8 9 34 117 163 340 1090
2020-08-03 22:30 6.72 337 6150 (2016) 0 (1934) 252 0 4 8 9 34 117 163 340 1090
2020-08-03 22:00 6.69 327 6150 (2016) 0 (1934) 252 0 4 8 9 34 117 163 340 1090
2020-08-03 21:30 6.65 313 6150 (2016) 0 (1934) 252 0 4 8 9 34 117 163 340 1090
2020-08-03 21:00 6.62 304 6150 (2016) 0 (1934) 252 0 4 8 9 34 117 163 340 1090
2020-08-03 20:30 6.60 297 6150 (2016) 0 (1934) 252 0 4 8 9 34 117 163 340 1090
2020-08-03 20:00 6.58 291 6150 (2016) 0 (1934) 252 0 4 8 9 34 117 163 340 1090
2020-08-03 19:30 6.58 291 6150 (2016) 0 (1934) 252 0 4 8 9 34 117 163 340 1090
2020-08-03 19:00 6.58 291 6150 (2016) 0 (1934) 252 0 4 8 9 34 117 163 340 1090
2020-08-03 18:30 6.59 294 6150 (2016) 0 (1934) 252 0 4 8 9 34 117 163 340 1090
2020-08-03 18:00 6.60 297 6150 (2016) 0 (1934) 252 0 4 8 9 34 117 163 340 1090
2020-08-03 17:30 6.61 301 6150 (2016) 0 (1934) 252 0 4 8 9 34 117 163 340 1090
2020-08-03 17:00 6.61 301 6150 (2016) 0 (1934) 252 0 4 8 9 34 117 163 340 1090
2020-08-03 16:30 6.62 304 6150 (2016) 0 (1934) 252 0 4 8 9 34 117 163 340 1090
2020-08-03 16:00 6.63 307 6150 (2016) 0 (1934) 252 0 4 8 9 34 117 163 340 1090
2020-08-03 15:30 6.63 307 6150 (2016) 0 (1934) 252 0 4 8 9 34 117 163 340 1090
2020-08-03 15:00 6.64 310 6150 (2016) 0 (1934) 252 0 4 8 9 34 117 163 340 1090
2020-08-03 14:30 6.63 307 6150 (2016) 0 (1934) 252 0 4 8 9 34 117 163 340 1090
2020-08-03 14:00 6.65 313 6150 (2016) 0 (1934) 252 0 4 8 9 34 117 163 340 1090
2020-08-03 13:30 6.65 313 6150 (2016) 0 (1934) 252 0 4 8 9 34 117 163 340 1090
2020-08-03 13:00 6.66 317 6150 (2016) 0 (1934) 252 0 4 8 9 34 117 163 340 1090
2020-08-03 12:30 6.66 317 6150 (2016) 0 (1934) 252 0 4 8 9 34 117 163 340 1090
2020-08-03 12:00 6.67 320 6150 (2016) 0 (1934) 252 0 4 8 9 34 117 163 340 1090
2020-08-03 11:30 6.68 323 6150 (2016) 0 (1934) 252 0 4 8 9 34 117 163 340 1090
2020-08-03 11:00 6.68 323 6150 (2016) 0 (1934) 252 0 4 8 9 34 117 163 340 1090
2020-08-03 10:30 6.65 313 6150 (2016) 0 (1934) 252 0 4 8 9 34 117 163 340 1090
2020-08-03 10:00 6.67 320 6150 (2016) 0 (1934) 252 0 4 8 9 34 117 163 340 1090
2020-08-03 09:30 6.68 323 6150 (2016) 0 (1934) 252 0 4 8 9 34 117 163 340 1090
2020-08-03 09:00 6.68 323 6150 (2016) 0 (1934) 252 0 4 8 9 34 117 163 340 1090
2020-08-03 08:30 6.69 327 6150 (2016) 0 (1934) 252 0 4 8 9 34 117 163 340 1090
2020-08-03 08:00 6.70 330 6150 (2016) 0 (1934) 252 0 4 8 9 34 117 163 340 1090
2020-08-03 07:30 6.71 333 6150 (2016) 0 (1934) 252 0 4 8 9 34 117 163 340 1090
2020-08-03 07:00 6.72 337 6150 (2016) 0 (1934) 252 0 4 8 9 34 117 163 340 1090
2020-08-03 06:30 6.73 340 6150 (2016) 0 (1934) 252 0 4 8 9 34 117 163 340 1090
2020-08-03 06:00 6.74 344 6150 (2016) 0 (1934) 252 0 4 8 9 34 117 163 340 1090
2020-08-03 05:30 6.75 347 6150 (2016) 0 (1934) 252 0 4 8 9 34 117 163 340 1090
2020-08-03 05:00 6.77 354 6150 (2016) 0 (1934) 252 0 4 8 9 34 117 163 340 1090
2020-08-03 04:30 6.78 358 6150 (2016) 0 (1934) 252 0 4 8 9 34 117 163 340 1090
2020-08-03 04:00 6.79 361 6150 (2016) 0 (1934) 252 0 4 8 9 34 117 163 340 1090
2020-08-03 03:30 6.80 365 6150 (2016) 0 (1934) 252 0 4 8 9 34 117 163 340 1090
2020-08-03 03:00 6.81 368 6150 (2016) 0 (1934) 252 0 4 8 9 34 117 163 340 1090
2020-08-03 02:30 6.82 372 6150 (2016) 0 (1934) 252 0 4 8 9 34 117 163 340 1090
2020-08-03 02:00 6.83 376 6150 (2016) 0 (1934) 252 0 4 8 9 34 117 163 340 1090
2020-08-03 01:30 6.85 383 6150 (2016) 0 (1934) 252 0 4 8 9 34 117 163 340 1090
2020-08-03 01:00 6.86 387 6150 (2016) 0 (1934) 252 0 4 8 9 34 117 163 340 1090
2020-08-03 00:30 6.87 391 6150 (2016) 0 (1934) 252 0 4 8 9 34 117 163 340 1090
2020-08-03 00:00 6.88 394 6150 (2016) 0 (1934) 252 0 4 8 9 34 117 163 340 1090
2020-08-02 23:30 6.89 398 10100 (1958) 0 (1934) 281 1 4 8 9 31 127 167 688 1150
2020-08-02 23:00 6.90 402 10100 (1958) 0 (1934) 281 1 4 8 9 31 127 167 688 1150
2020-08-02 22:30 6.91 406 10100 (1958) 0 (1934) 281 1 4 8 9 31 127 167 688 1150
2020-08-02 22:00 6.93 414 10100 (1958) 0 (1934) 281 1 4 8 9 31 127 167 688 1150
2020-08-02 21:30 6.94 418 10100 (1958) 0 (1934) 281 1 4 8 9 31 127 167 688 1150
2020-08-02 21:00 6.95 422 10100 (1958) 0 (1934) 281 1 4 8 9 31 127 167 688 1150
2020-08-02 20:30 6.97 429 10100 (1958) 0 (1934) 281 1 4 8 9 31 127 167 688 1150
2020-08-02 20:00 6.98 433 10100 (1958) 0 (1934) 281 1 4 8 9 31 127 167 688 1150
2020-08-02 19:30 6.99 438 10100 (1958) 0 (1934) 281 1 4 8 9 31 127 167 688 1150
2020-08-02 19:00 7.01 446 10100 (1958) 0 (1934) 281 1 4 8 9 31 127 167 688 1150
2020-08-02 18:30 7.03 454 10100 (1958) 0 (1934) 281 1 4 8 9 31 127 167 688 1150
2020-08-02 18:00 7.04 458 10100 (1958) 0 (1934) 281 1 4 8 9 31 127 167 688 1150
2020-08-02 17:30 7.06 467 10100 (1958) 0 (1934) 281 1 4 8 9 31 127 167 688 1150
2020-08-02 17:00 7.07 471 10100 (1958) 0 (1934) 281 1 4 8 9 31 127 167 688 1150
2020-08-02 16:30 7.09 479 10100 (1958) 0 (1934) 281 1 4 8 9 31 127 167 688 1150
2020-08-02 16:00 7.11 487 10100 (1958) 0 (1934) 281 1 4 8 9 31 127 167 688 1150
2020-08-02 15:30 7.12 491 10100 (1958) 0 (1934) 281 1 4 8 9 31 127 167 688 1150
2020-08-02 15:00 7.14 498 10100 (1958) 0 (1934) 281 1 4 8 9 31 127 167 688 1150
2020-08-02 14:30 7.16 506 10100 (1958) 0 (1934) 281 1 4 8 9 31 127 167 688 1150
2020-08-02 14:00 7.17 510 10100 (1958) 0 (1934) 281 1 4 8 9 31 127 167 688 1150
2020-08-02 13:30 7.19 517 10100 (1958) 0 (1934) 281 1 4 8 9 31 127 167 688 1150
2020-08-02 13:00 7.20 521 10100 (1958) 0 (1934) 281 1 4 8 9 31 127 167 688 1150
2020-08-02 12:30 7.21 525 10100 (1958) 0 (1934) 281 1 4 8 9 31 127 167 688 1150
2020-08-02 12:00 7.23 533 10100 (1958) 0 (1934) 281 1 4 8 9 31 127 167 688 1150
2020-08-02 11:30 7.24 536 10100 (1958) 0 (1934) 281 1 4 8 9 31 127 167 688 1150
2020-08-02 11:00 7.26 544 10100 (1958) 0 (1934) 281 1 4 8 9 31 127 167 688 1150
2020-08-02 10:30 7.28 552 10100 (1958) 0 (1934) 281 1 4 8 9 31 127 167 688 1150
2020-08-02 10:00 7.30 560 10100 (1958) 0 (1934) 281 1 4 8 9 31 127 167 688 1150
2020-08-02 09:30 7.31 564 10100 (1958) 0 (1934) 281 1 4 8 9 31 127 167 688 1150
2020-08-02 09:00 7.34 576 10100 (1958) 0 (1934) 281 1 4 8 9 31 127 167 688 1150
2020-08-02 08:30 7.36 585 10100 (1958) 0 (1934) 281 1 4 8 9 31 127 167 688 1150
2020-08-02 08:00 7.39 597 10100 (1958) 0 (1934) 281 1 4 8 9 31 127 167 688 1150
2020-08-02 07:30 7.41 606 10100 (1958) 0 (1934) 281 1 4 8 9 31 127 167 688 1150
2020-08-02 07:00 7.44 618 10100 (1958) 0 (1934) 281 1 4 8 9 31 127 167 688 1150
2020-08-02 06:30 7.46 627 10100 (1958) 0 (1934) 281 1 4 8 9 31 127 167 688 1150
2020-08-02 06:00 7.48 636 10100 (1958) 0 (1934) 281 1 4 8 9 31 127 167 688 1150
2020-08-02 05:30 7.51 649 10100 (1958) 0 (1934) 281 1 4 8 9 31 127 167 688 1150
2020-08-02 05:00 7.53 658 10100 (1958) 0 (1934) 281 1 4 8 9 31 127 167 688 1150
2020-08-02 04:30 7.56 671 10100 (1958) 0 (1934) 281 1 4 8 9 31 127 167 688 1150
2020-08-02 04:00 7.59 685 10100 (1958) 0 (1934) 281 1 4 8 9 31 127 167 688 1150
2020-08-02 03:30 7.61 694 10100 (1958) 0 (1934) 281 1 4 8 9 31 127 167 688 1150
2020-08-02 03:00 7.65 713 10100 (1958) 0 (1934) 281 1 4 8 9 31 127 167 688 1150
2020-08-02 02:30 7.67 722 10100 (1958) 0 (1934) 281 1 4 8 9 31 127 167 688 1150
2020-08-02 02:00 7.70 736 10100 (1958) 0 (1934) 281 1 4 8 9 31 127 167 688 1150
2020-08-02 01:30 7.73 751 10100 (1958) 0 (1934) 281 1 4 8 9 31 127 167 688 1150
2020-08-02 01:00 7.76 766 10100 (1958) 0 (1934) 281 1 4 8 9 31 127 167 688 1150
2020-08-02 00:30 7.79 780 10100 (1958) 0 (1934) 281 1 4 8 9 31 127 167 688 1150
2020-08-02 00:00 7.83 801 10100 (1958) 0 (1934) 281 1 4 8 9 31 127 167 688 1150
2020-08-01 23:30 7.86 816 20900 (1958) 0 (1934) 447 1 5 9 10 31 156 237 391 1460
2020-08-01 23:00 7.90 837 20900 (1958) 0 (1934) 447 1 5 9 10 31 156 237 391 1460
2020-08-01 22:30 7.93 852 20900 (1958) 0 (1934) 447 1 5 9 10 31 156 237 391 1460
2020-08-01 22:00 7.97 874 20900 (1958) 0 (1934) 447 1 5 9 10 31 156 237 391 1460
2020-08-01 21:30 8.00 890 20900 (1958) 0 (1934) 447 1 5 9 10 31 156 237 391 1460
2020-08-01 21:00 8.03 906 20900 (1958) 0 (1934) 447 1 5 9 10 31 156 237 391 1460
2020-08-01 20:30 8.06 923 20900 (1958) 0 (1934) 447 1 5 9 10 31 156 237 391 1460
2020-08-01 20:00 8.10 945 20900 (1958) 0 (1934) 447 1 5 9 10 31 156 237 391 1460
2020-08-01 19:30 8.12 957 20900 (1958) 0 (1934) 447 1 5 9 10 31 156 237 391 1460
2020-08-01 19:00 8.15 974 20900 (1958) 0 (1934) 447 1 5 9 10 31 156 237 391 1460
2020-08-01 18:30 8.16 980 20900 (1958) 0 (1934) 447 1 5 9 10 31 156 237 391 1460
2020-08-01 18:00 8.16 980 20900 (1958) 0 (1934) 447 1 5 9 10 31 156 237 391 1460
2020-08-01 17:30 8.16 980 20900 (1958) 0 (1934) 447 1 5 9 10 31 156 237 391 1460
2020-08-01 17:00 8.15 974 20900 (1958) 0 (1934) 447 1 5 9 10 31 156 237 391 1460
2020-08-01 16:30 8.14 968 20900 (1958) 0 (1934) 447 1 5 9 10 31 156 237 391 1460
2020-08-01 16:00 8.13 963 20900 (1958) 0 (1934) 447 1 5 9 10 31 156 237 391 1460
2020-08-01 15:30 8.11 951 20900 (1958) 0 (1934) 447 1 5 9 10 31 156 237 391 1460
2020-08-01 15:00 8.12 957 20900 (1958) 0 (1934) 447 1 5 9 10 31 156 237 391 1460
2020-08-01 14:30 8.16 980 20900 (1958) 0 (1934) 447 1 5 9 10 31 156 237 391 1460
2020-08-01 14:00 8.19 997 20900 (1958) 0 (1934) 447 1 5 9 10 31 156 237 391 1460
2020-08-01 13:30 8.25 1030 20900 (1958) 0 (1934) 447 1 5 9 10 31 156 237 391 1460
2020-08-01 13:00 8.32 1080 20900 (1958) 0 (1934) 447 1 5 9 10 31 156 237 391 1460
2020-08-01 12:30 8.39 1120 20900 (1958) 0 (1934) 447 1 5 9 10 31 156 237 391 1460
2020-08-01 12:00 8.47 1170 20900 (1958) 0 (1934) 447 1 5 9 10 31 156 237 391 1460
2020-08-01 11:30 8.55 1220 20900 (1958) 0 (1934) 447 1 5 9 10 31 156 237 391 1460
2020-08-01 11:00 8.63 1280 20900 (1958) 0 (1934) 447 1 5 9 10 31 156 237 391 1460
2020-08-01 10:30 8.73 1350 20900 (1958) 0 (1934) 447 1 5 9 10 31 156 237 391 1460
2020-08-01 10:00 8.82 1410 20900 (1958) 0 (1934) 447 1 5 9 10 31 156 237 391 1460
2020-08-01 09:30 8.93 1500 20900 (1958) 0 (1934) 447 1 5 9 10 31 156 237 391 1460
2020-08-01 09:00 9.04 1580 20900 (1958) 0 (1934) 447 1 5 9 10 31 156 237 391 1460
2020-08-01 08:30 9.18 1700 20900 (1958) 0 (1934) 447 1 5 9 10 31 156 237 391 1460
2020-08-01 08:00 9.33 1820 20900 (1958) 0 (1934) 447 1 5 9 10 31 156 237 391 1460
2020-08-01 07:30 9.48 1920 20900 (1958) 0 (1934) 447 1 5 9 10 31 156 237 391 1460
2020-08-01 07:00 9.64 2020 20900 (1958) 0 (1934) 447 1 5 9 10 31 156 237 391 1460
2020-08-01 06:30 9.78 2090 20900 (1958) 0 (1934) 447 1 5 9 10 31 156 237 391 1460
2020-08-01 06:00 9.97 2190 20900 (1958) 0 (1934) 447 1 5 9 10 31 156 237 391 1460
2020-08-01 05:30 10.14 2290 20900 (1958) 0 (1934) 447 1 5 9 10 31 156 237 391 1460
2020-08-01 05:00 10.30 2390 20900 (1958) 0 (1934) 447 1 5 9 10 31 156 237 391 1460
2020-08-01 04:30 10.46 2490 20900 (1958) 0 (1934) 447 1 5 9 10 31 156 237 391 1460
2020-08-01 04:00 10.59 2570 20900 (1958) 0 (1934) 447 1 5 9 10 31 156 237 391 1460
2020-08-01 03:30 10.71 2640 20900 (1958) 0 (1934) 447 1 5 9 10 31 156 237 391 1460
2020-08-01 03:00 10.79 2700 20900 (1958) 0 (1934) 447 1 5 9 10 31 156 237 391 1460
2020-08-01 02:30 10.81 2710 20900 (1958) 0 (1934) 447 1 5 9 10 31 156 237 391 1460
2020-08-01 02:00 10.77 2680 20900 (1958) 0 (1934) 447 1 5 9 10 31 156 237 391 1460
2020-08-01 01:30 2590 20900 (1958) 0 (1934) 447 1 5 9 10 31 156 237 391 1460
2020-08-01 01:00 10.27 2370 20900 (1958) 0 (1934) 447 1 5 9 10 31 156 237 391 1460
2020-08-01 00:30 9.72 2060 20900 (1958) 0 (1934) 447 1 5 9 10 31 156 237 391 1460
2020-08-01 00:00 8.78 1380 20900 (1958) 0 (1934) 447 1 5 9 10 31 156 237 391 1460
2020-07-31 23:30 8.04 912 14400 (2008) 0 (1954) 428 1 5 9 10 33 141 165 510 953
2020-07-31 23:00 8.03 906 14400 (2008) 0 (1954) 428 1 5 9 10 33 141 165 510 953
2020-07-31 22:30 8.08 934 14400 (2008) 0 (1954) 428 1 5 9 10 33 141 165 510 953
2020-07-31 22:00 8.09 940 14400 (2008) 0 (1954) 428 1 5 9 10 33 141 165 510 953
2020-07-31 21:30 8.09 940 14400 (2008) 0 (1954) 428 1 5 9 10 33 141 165 510 953
2020-07-31 21:00 8.10 945 14400 (2008) 0 (1954) 428 1 5 9 10 33 141 165 510 953
2020-07-31 20:30 8.12 957 14400 (2008) 0 (1954) 428 1 5 9 10 33 141 165 510 953
2020-07-31 20:00 8.13 963 14400 (2008) 0 (1954) 428 1 5 9 10 33 141 165 510 953
2020-07-31 19:30 8.13 963 14400 (2008) 0 (1954) 428 1 5 9 10 33 141 165 510 953
2020-07-31 19:00 8.10 945 14400 (2008) 0 (1954) 428 1 5 9 10 33 141 165 510 953
2020-07-31 18:30 8.09 940 14400 (2008) 0 (1954) 428 1 5 9 10 33 141 165 510 953
2020-07-31 18:00 7.99 884 14400 (2008) 0 (1954) 428 1 5 9 10 33 141 165 510 953
2020-07-31 17:30 7.92 847 14400 (2008) 0 (1954) 428 1 5 9 10 33 141 165 510 953
2020-07-31 17:00 7.90 837 14400 (2008) 0 (1954) 428 1 5 9 10 33 141 165 510 953
2020-07-31 16:30 7.90 837 14400 (2008) 0 (1954) 428 1 5 9 10 33 141 165 510 953
2020-07-31 16:00 7.92 847 14400 (2008) 0 (1954) 428 1 5 9 10 33 141 165 510 953
2020-07-31 15:30 7.93 852 14400 (2008) 0 (1954) 428 1 5 9 10 33 141 165 510 953
2020-07-31 15:00 7.98 879 14400 (2008) 0 (1954) 428 1 5 9 10 33 141 165 510 953
2020-07-31 14:30 7.99 884 14400 (2008) 0 (1954) 428 1 5 9 10 33 141 165 510 953
2020-07-31 14:00 8.02 901 14400 (2008) 0 (1954) 428 1 5 9 10 33 141 165 510 953
2020-07-31 13:30 8.06 923 14400 (2008) 0 (1954) 428 1 5 9 10 33 141 165 510 953
2020-07-31 13:00 8.08 934 14400 (2008) 0 (1954) 428 1 5 9 10 33 141 165 510 953
2020-07-31 12:30 8.11 951 14400 (2008) 0 (1954) 428 1 5 9 10 33 141 165 510 953
2020-07-31 12:00 8.12 957 14400 (2008) 0 (1954) 428 1 5 9 10 33 141 165 510 953
2020-07-31 11:30 8.16 980 14400 (2008) 0 (1954) 428 1 5 9 10 33 141 165 510 953
2020-07-31 11:00 8.20 1000 14400 (2008) 0 (1954) 428 1 5 9 10 33 141 165 510 953
2020-07-31 10:30 8.28 1050 14400 (2008) 0 (1954) 428 1 5 9 10 33 141 165 510 953
2020-07-31 10:00 8.35 1090 14400 (2008) 0 (1954) 428 1 5 9 10 33 141 165 510 953
2020-07-31 09:30 8.44 1150 14400 (2008) 0 (1954) 428 1 5 9 10 33 141 165 510 953
2020-07-31 09:00 8.52 1200 14400 (2008) 0 (1954) 428 1 5 9 10 33 141 165 510 953
2020-07-31 08:30 8.61 1260 14400 (2008) 0 (1954) 428 1 5 9 10 33 141 165 510 953
2020-07-31 08:00 8.74 1360 14400 (2008) 0 (1954) 428 1 5 9 10 33 141 165 510 953
2020-07-31 07:30 8.85 1440 14400 (2008) 0 (1954) 428 1 5 9 10 33 141 165 510 953
2020-07-31 07:00 8.99 1540 14400 (2008) 0 (1954) 428 1 5 9 10 33 141 165 510 953
2020-07-31 06:30 9.12 1650 14400 (2008) 0 (1954) 428 1 5 9 10 33 141 165 510 953
2020-07-31 06:00 9.22 1730 14400 (2008) 0 (1954) 428 1 5 9 10 33 141 165 510 953
2020-07-31 05:30 9.31 1800 14400 (2008) 0 (1954) 428 1 5 9 10 33 141 165 510 953
2020-07-31 05:00 9.38 1850 14400 (2008) 0 (1954) 428 1 5 9 10 33 141 165 510 953
2020-07-31 04:30 9.44 1890 14400 (2008) 0 (1954) 428 1 5 9 10 33 141 165 510 953
2020-07-31 04:00 9.44 1890 14400 (2008) 0 (1954) 428 1 5 9 10 33 141 165 510 953
2020-07-31 03:30 9.43 1880 14400 (2008) 0 (1954) 428 1 5 9 10 33 141 165 510 953
2020-07-31 03:00 9.38 1850 14400 (2008) 0 (1954) 428 1 5 9 10 33 141 165 510 953
2020-07-31 02:30 9.32 1810 14400 (2008) 0 (1954) 428 1 5 9 10 33 141 165 510 953
2020-07-31 02:00 9.17 1690 14400 (2008) 0 (1954) 428 1 5 9 10 33 141 165 510 953
2020-07-31 01:30 9.01 1560 14400 (2008) 0 (1954) 428 1 5 9 10 33 141 165 510 953
2020-07-31 01:00 8.75 1360 14400 (2008) 0 (1954) 428 1 5 9 10 33 141 165 510 953
2020-07-31 00:30 8.43 1140 14400 (2008) 0 (1954) 428 1 5 9 10 33 141 165 510 953
2020-07-31 00:00 8.14 968 14400 (2008) 0 (1954) 428 1 5 9 10 33 141 165 510 953
2020-07-30 23:30 7.97 874 6240 (2008) 0 (1954) 297 1 5 10 11 32 135 166 813 2170
2020-07-30 23:00 7.95 863 6240 (2008) 0 (1954) 297 1 5 10 11 32 135 166 813 2170
2020-07-30 22:30 7.95 863 6240 (2008) 0 (1954) 297 1 5 10 11 32 135 166 813 2170
2020-07-30 22:00 7.92 847 6240 (2008) 0 (1954) 297 1 5 10 11 32 135 166 813 2170
2020-07-30 21:30 7.87 821 6240 (2008) 0 (1954) 297 1 5 10 11 32 135 166 813 2170
2020-07-30 21:00 7.79 780 6240 (2008) 0 (1954) 297 1 5 10 11 32 135 166 813 2170
2020-07-30 20:30 7.68 727 6240 (2008) 0 (1954) 297 1 5 10 11 32 135 166 813 2170
2020-07-30 20:00 7.55 667 6240 (2008) 0 (1954) 297 1 5 10 11 32 135 166 813 2170
2020-07-30 19:30 7.44 618 6240 (2008) 0 (1954) 297 1 5 10 11 32 135 166 813 2170
2020-07-30 19:00 7.36 585 6240 (2008) 0 (1954) 297 1 5 10 11 32 135 166 813 2170
2020-07-30 18:30 7.30 560 6240 (2008) 0 (1954) 297 1 5 10 11 32 135 166 813 2170
2020-07-30 18:00 7.26 544 6240 (2008) 0 (1954) 297 1 5 10 11 32 135 166 813 2170
2020-07-30 17:30 7.23 533 6240 (2008) 0 (1954) 297 1 5 10 11 32 135 166 813 2170
2020-07-30 17:00 7.21 525 6240 (2008) 0 (1954) 297 1 5 10 11 32 135 166 813 2170
2020-07-30 16:30 7.20 521 6240 (2008) 0 (1954) 297 1 5 10 11 32 135 166 813 2170
2020-07-30 16:00 7.18 513 6240 (2008) 0 (1954) 297 1 5 10 11 32 135 166 813 2170
2020-07-30 15:30 7.13 495 6240 (2008) 0 (1954) 297 1 5 10 11 32 135 166 813 2170
2020-07-30 15:00 7.14 498 6240 (2008) 0 (1954) 297 1 5 10 11 32 135 166 813 2170
2020-07-30 14:30 7.14 498 6240 (2008) 0 (1954) 297 1 5 10 11 32 135 166 813 2170
2020-07-30 14:00 7.13 495 6240 (2008) 0 (1954) 297 1 5 10 11 32 135 166 813 2170
2020-07-30 13:30 7.10 484 6240 (2008) 0 (1954) 297 1 5 10 11 32 135 166 813 2170
2020-07-30 13:00 7.08 475 6240 (2008) 0 (1954) 297 1 5 10 11 32 135 166 813 2170
2020-07-30 12:30 7.02 450 6240 (2008) 0 (1954) 297 1 5 10 11 32 135 166 813 2170
2020-07-30 12:00 6.94 418 6240 (2008) 0 (1954) 297 1 5 10 11 32 135 166 813 2170
2020-07-30 11:30 6.82 372 6240 (2008) 0 (1954) 297 1 5 10 11 32 135 166 813 2170
2020-07-30 11:00 6.61 301 6240 (2008) 0 (1954) 297 1 5 10 11 32 135 166 813 2170
2020-07-30 10:30 6.38 225 6240 (2008) 0 (1954) 297 1 5 10 11 32 135 166 813 2170
2020-07-30 10:00 6.26 188 6240 (2008) 0 (1954) 297 1 5 10 11 32 135 166 813 2170
2020-07-30 09:30 6.25 185 6240 (2008) 0 (1954) 297 1 5 10 11 32 135 166 813 2170
2020-07-30 09:00 6.25 185 6240 (2008) 0 (1954) 297 1 5 10 11 32 135 166 813 2170
2020-07-30 08:30 6.25 185 6240 (2008) 0 (1954) 297 1 5 10 11 32 135 166 813 2170
2020-07-30 08:00 6.24 182 6240 (2008) 0 (1954) 297 1 5 10 11 32 135 166 813 2170
2020-07-30 07:30 6.24 182 6240 (2008) 0 (1954) 297 1 5 10 11 32 135 166 813 2170
2020-07-30 07:00 6.24 182 6240 (2008) 0 (1954) 297 1 5 10 11 32 135 166 813 2170
2020-07-30 06:30 6.22 176 6240 (2008) 0 (1954) 297 1 5 10 11 32 135 166 813 2170
2020-07-30 06:00 6.20 171 6240 (2008) 0 (1954) 297 1 5 10 11 32 135 166 813 2170
2020-07-30 05:30 6.18 166 6240 (2008) 0 (1954) 297 1 5 10 11 32 135 166 813 2170
2020-07-30 05:00 6.17 163 6240 (2008) 0 (1954) 297 1 5 10 11 32 135 166 813 2170
2020-07-30 04:30 6.13 153 6240 (2008) 0 (1954) 297 1 5 10 11 32 135 166 813 2170
2020-07-30 04:00 6.05 134 6240 (2008) 0 (1954) 297 1 5 10 11 32 135 166 813 2170
2020-07-30 03:30 6.06 136 6240 (2008) 0 (1954) 297 1 5 10 11 32 135 166 813 2170
2020-07-30 03:00 6.05 134 6240 (2008) 0 (1954) 297 1 5 10 11 32 135 166 813 2170
2020-07-30 02:30 6.06 136 6240 (2008) 0 (1954) 297 1 5 10 11 32 135 166 813 2170
2020-07-30 02:00 6.05 134 6240 (2008) 0 (1954) 297 1 5 10 11 32 135 166 813 2170
2020-07-30 01:30 6.06 136 6240 (2008) 0 (1954) 297 1 5 10 11 32 135 166 813 2170
2020-07-30 01:00 6.06 136 6240 (2008) 0 (1954) 297 1 5 10 11 32 135 166 813 2170
2020-07-30 00:30 6.07 138 6240 (2008) 0 (1954) 297 1 5 10 11 32 135 166 813 2170
2020-07-30 00:00 6.08 141 6240 (2008) 0 (1954) 297 1 5 10 11 32 135 166 813 2170
2020-07-29 23:30 6.09 143 10300 (1981) 0 (1954) 468 1 5 10 11 37 146 194 576 2970
2020-07-29 23:00 6.11 148 10300 (1981) 0 (1954) 468 1 5 10 11 37 146 194 576 2970
2020-07-29 22:30 6.13 153 10300 (1981) 0 (1954) 468 1 5 10 11 37 146 194 576 2970
2020-07-29 22:00 6.15 158 10300 (1981) 0 (1954) 468 1 5 10 11 37 146 194 576 2970
2020-07-29 21:30 6.18 166 10300 (1981) 0 (1954) 468 1 5 10 11 37 146 194 576 2970
2020-07-29 21:00 6.22 176 10300 (1981) 0 (1954) 468 1 5 10 11 37 146 194 576 2970
2020-07-29 20:30 6.26 188 10300 (1981) 0 (1954) 468 1 5 10 11 37 146 194 576 2970
2020-07-29 20:00 6.31 203 10300 (1981) 0 (1954) 468 1 5 10 11 37 146 194 576 2970
2020-07-29 19:30 6.33 209 10300 (1981) 0 (1954) 468 1 5 10 11 37 146 194 576 2970
2020-07-29 19:00 6.25 185 10300 (1981) 0 (1954) 468 1 5 10 11 37 146 194 576 2970
2020-07-29 18:30 6.08 141 10300 (1981) 0 (1954) 468 1 5 10 11 37 146 194 576 2970
2020-07-29 18:00 6.04 132 10300 (1981) 0 (1954) 468 1 5 10 11 37 146 194 576 2970
2020-07-29 17:30 6.03 129 10300 (1981) 0 (1954) 468 1 5 10 11 37 146 194 576 2970
2020-07-29 17:00 6.03 129 10300 (1981) 0 (1954) 468 1 5 10 11 37 146 194 576 2970
2020-07-29 16:30 6.00 123 10300 (1981) 0 (1954) 468 1 5 10 11 37 146 194 576 2970
2020-07-29 16:00 5.96 115 10300 (1981) 0 (1954) 468 1 5 10 11 37 146 194 576 2970
2020-07-29 15:30 6.01 125 10300 (1981) 0 (1954) 468 1 5 10 11 37 146 194 576 2970
2020-07-29 15:00 6.03 129 10300 (1981) 0 (1954) 468 1 5 10 11 37 146 194 576 2970
2020-07-29 14:30 6.04 132 10300 (1981) 0 (1954) 468 1 5 10 11 37 146 194 576 2970
2020-07-29 14:00 6.05 134 10300 (1981) 0 (1954) 468 1 5 10 11 37 146 194 576 2970
2020-07-29 13:30 6.05 134 10300 (1981) 0 (1954) 468 1 5 10 11 37 146 194 576 2970
2020-07-29 13:00 6.06 136 10300 (1981) 0 (1954) 468 1 5 10 11 37 146 194 576 2970
2020-07-29 12:30 6.06 136 10300 (1981) 0 (1954) 468 1 5 10 11 37 146 194 576 2970
2020-07-29 12:00 6.07 138 10300 (1981) 0 (1954) 468 1 5 10 11 37 146 194 576 2970
2020-07-29 11:30 6.08 141 10300 (1981) 0 (1954) 468 1 5 10 11 37 146 194 576 2970
2020-07-29 11:00 6.08 141 10300 (1981) 0 (1954) 468 1 5 10 11 37 146 194 576 2970
2020-07-29 10:30 6.09 143 10300 (1981) 0 (1954) 468 1 5 10 11 37 146 194 576 2970
2020-07-29 10:00 6.10 146 10300 (1981) 0 (1954) 468 1 5 10 11 37 146 194 576 2970
2020-07-29 09:30 6.10 146 10300 (1981) 0 (1954) 468 1 5 10 11 37 146 194 576 2970
2020-07-29 09:00 6.11 148 10300 (1981) 0 (1954) 468 1 5 10 11 37 146 194 576 2970
2020-07-29 08:30 6.12 150 10300 (1981) 0 (1954) 468 1 5 10 11 37 146 194 576 2970
2020-07-29 08:00 6.14 155 10300 (1981) 0 (1954) 468 1 5 10 11 37 146 194 576 2970
2020-07-29 07:30 6.15 158 10300 (1981) 0 (1954) 468 1 5 10 11 37 146 194 576 2970
2020-07-29 07:00 6.16 160 10300 (1981) 0 (1954) 468 1 5 10 11 37 146 194 576 2970
2020-07-29 06:30 6.17 163 10300 (1981) 0 (1954) 468 1 5 10 11 37 146 194 576 2970
2020-07-29 06:00 6.18 166 10300 (1981) 0 (1954) 468 1 5 10 11 37 146 194 576 2970
2020-07-29 05:30 6.19 168 10300 (1981) 0 (1954) 468 1 5 10 11 37 146 194 576 2970
2020-07-29 05:00 6.20 171 10300 (1981) 0 (1954) 468 1 5 10 11 37 146 194 576 2970
2020-07-29 04:30 6.21 174 10300 (1981) 0 (1954) 468 1 5 10 11 37 146 194 576 2970
2020-07-29 04:00 6.22 176 10300 (1981) 0 (1954) 468 1 5 10 11 37 146 194 576 2970
2020-07-29 03:30 6.23 179 10300 (1981) 0 (1954) 468 1 5 10 11 37 146 194 576 2970
2020-07-29 03:00 6.24 182 10300 (1981) 0 (1954) 468 1 5 10 11 37 146 194 576 2970
2020-07-29 02:30 6.25 185 10300 (1981) 0 (1954) 468 1 5 10 11 37 146 194 576 2970
2020-07-29 02:00 6.26 188 10300 (1981) 0 (1954) 468 1 5 10 11 37 146 194 576 2970
2020-07-29 01:30 6.27 191 10300 (1981) 0 (1954) 468 1 5 10 11 37 146 194 576 2970
2020-07-29 01:00 6.29 197 10300 (1981) 0 (1954) 468 1 5 10 11 37 146 194 576 2970
2020-07-29 00:30 6.30 200 10300 (1981) 0 (1954) 468 1 5 10 11 37 146 194 576 2970
2020-07-29 00:00 6.31 203 10300 (1981) 0 (1954) 468 1 5 10 11 37 146 194 576 2970
2020-07-28 23:30 6.33 209 19700 (1981) 0 (1934) 578 1 5 11 13 36 129 230 787 1700
2020-07-28 23:00 6.34 212 19700 (1981) 0 (1934) 578 1 5 11 13 36 129 230 787 1700
2020-07-28 22:30 6.35 215 19700 (1981) 0 (1934) 578 1 5 11 13 36 129 230 787 1700
2020-07-28 22:00 6.37 222 19700 (1981) 0 (1934) 578 1 5 11 13 36 129 230 787 1700
2020-07-28 21:30 6.38 225 19700 (1981) 0 (1934) 578 1 5 11 13 36 129 230 787 1700
2020-07-28 21:00 6.40 232 19700 (1981) 0 (1934) 578 1 5 11 13 36 129 230 787 1700
2020-07-28 20:30 6.42 238 19700 (1981) 0 (1934) 578 1 5 11 13 36 129 230 787 1700
2020-07-28 20:00 6.43 242 19700 (1981) 0 (1934) 578 1 5 11 13 36 129 230 787 1700
2020-07-28 19:30 6.45 249 19700 (1981) 0 (1934) 578 1 5 11 13 36 129 230 787 1700
2020-07-28 19:00 6.47 256 19700 (1981) 0 (1934) 578 1 5 11 13 36 129 230 787 1700
2020-07-28 18:30 6.49 263 19700 (1981) 0 (1934) 578 1 5 11 13 36 129 230 787 1700
2020-07-28 18:00 6.52 273 19700 (1981) 0 (1934) 578 1 5 11 13 36 129 230 787 1700
2020-07-28 17:30 6.53 276 19700 (1981) 0 (1934) 578 1 5 11 13 36 129 230 787 1700
2020-07-28 17:00 6.56 285 19700 (1981) 0 (1934) 578 1 5 11 13 36 129 230 787 1700
2020-07-28 16:30 6.58 291 19700 (1981) 0 (1934) 578 1 5 11 13 36 129 230 787 1700
2020-07-28 16:00 6.60 297 19700 (1981) 0 (1934) 578 1 5 11 13 36 129 230 787 1700
2020-07-28 15:30 6.62 304 19700 (1981) 0 (1934) 578 1 5 11 13 36 129 230 787 1700
2020-07-28 15:00 6.65 313 19700 (1981) 0 (1934) 578 1 5 11 13 36 129 230 787 1700
2020-07-28 14:30 6.67 320 19700 (1981) 0 (1934) 578 1 5 11 13 36 129 230 787 1700
2020-07-28 14:00 6.70 330 19700 (1981) 0 (1934) 578 1 5 11 13 36 129 230 787 1700
2020-07-28 13:30 6.72 337 19700 (1981) 0 (1934) 578 1 5 11 13 36 129 230 787 1700
2020-07-28 13:00 6.75 347 19700 (1981) 0 (1934) 578 1 5 11 13 36 129 230 787 1700
2020-07-28 12:30 6.77 354 19700 (1981) 0 (1934) 578 1 5 11 13 36 129 230 787 1700
2020-07-28 12:00 6.79 361 19700 (1981) 0 (1934) 578 1 5 11 13 36 129 230 787 1700
2020-07-28 11:30 6.81 368 19700 (1981) 0 (1934) 578 1 5 11 13 36 129 230 787 1700
2020-07-28 11:00 6.84 379 19700 (1981) 0 (1934) 578 1 5 11 13 36 129 230 787 1700
2020-07-28 10:30 6.86 387 19700 (1981) 0 (1934) 578 1 5 11 13 36 129 230 787 1700
2020-07-28 10:00 6.89 398 19700 (1981) 0 (1934) 578 1 5 11 13 36 129 230 787 1700
2020-07-28 09:30 6.91 406 19700 (1981) 0 (1934) 578 1 5 11 13 36 129 230 787 1700
2020-07-28 09:00 6.93 414 19700 (1981) 0 (1934) 578 1 5 11 13 36 129 230 787 1700
2020-07-28 08:30 6.95 422 19700 (1981) 0 (1934) 578 1 5 11 13 36 129 230 787 1700
2020-07-28 08:00 6.97 429 19700 (1981) 0 (1934) 578 1 5 11 13 36 129 230 787 1700
2020-07-28 07:30 6.98 433 19700 (1981) 0 (1934) 578 1 5 11 13 36 129 230 787 1700
2020-07-28 07:00 6.99 438 19700 (1981) 0 (1934) 578 1 5 11 13 36 129 230 787 1700
2020-07-28 06:30 7.01 446 19700 (1981) 0 (1934) 578 1 5 11 13 36 129 230 787 1700
2020-07-28 06:00 7.03 454 19700 (1981) 0 (1934) 578 1 5 11 13 36 129 230 787 1700
2020-07-28 05:30 7.06 467 19700 (1981) 0 (1934) 578 1 5 11 13 36 129 230 787 1700
2020-07-28 05:00 7.10 484 19700 (1981) 0 (1934) 578 1 5 11 13 36 129 230 787 1700
2020-07-28 04:30 7.15 502 19700 (1981) 0 (1934) 578 1 5 11 13 36 129 230 787 1700
2020-07-28 04:00 7.19 517 19700 (1981) 0 (1934) 578 1 5 11 13 36 129 230 787 1700
2020-07-28 03:30 7.23 533 19700 (1981) 0 (1934) 578 1 5 11 13 36 129 230 787 1700
2020-07-28 03:00 7.27 548 19700 (1981) 0 (1934) 578 1 5 11 13 36 129 230 787 1700
2020-07-28 02:30 7.27 548 19700 (1981) 0 (1934) 578 1 5 11 13 36 129 230 787 1700
2020-07-28 02:00 7.22 529 19700 (1981) 0 (1934) 578 1 5 11 13 36 129 230 787 1700
2020-07-28 01:30 7.07 471 19700 (1981) 0 (1934) 578 1 5 11 13 36 129 230 787 1700
2020-07-28 01:00 6.87 391 19700 (1981) 0 (1934) 578 1 5 11 13 36 129 230 787 1700
2020-07-28 00:30 6.80 365 19700 (1981) 0 (1934) 578 1 5 11 13 36 129 230 787 1700
2020-07-28 00:00 6.83 376 19700 (1981) 0 (1934) 578 1 5 11 13 36 129 230 787 1700
2020-07-27 23:30 6.88 394 13800 (1981) 0 (1936) 435 1 6 12 15 35 140 240 475 2430
2020-07-27 23:00 6.91 406 13800 (1981) 0 (1936) 435 1 6 12 15 35 140 240 475 2430
2020-07-27 22:30 6.94 418 13800 (1981) 0 (1936) 435 1 6 12 15 35 140 240 475 2430
2020-07-27 22:00 6.96 425 13800 (1981) 0 (1936) 435 1 6 12 15 35 140 240 475 2430
2020-07-27 21:30 6.97 429 13800 (1981) 0 (1936) 435 1 6 12 15 35 140 240 475 2430
2020-07-27 21:00 6.96 425 13800 (1981) 0 (1936) 435 1 6 12 15 35 140 240 475 2430
2020-07-27 20:30 6.95 422 13800 (1981) 0 (1936) 435 1 6 12 15 35 140 240 475 2430
2020-07-27 20:00 6.93 414 13800 (1981) 0 (1936) 435 1 6 12 15 35 140 240 475 2430
2020-07-27 19:30 6.94 418 13800 (1981) 0 (1936) 435 1 6 12 15 35 140 240 475 2430
2020-07-27 19:00 6.94 418 13800 (1981) 0 (1936) 435 1 6 12 15 35 140 240 475 2430
2020-07-27 18:30 6.95 422 13800 (1981) 0 (1936) 435 1 6 12 15 35 140 240 475 2430
2020-07-27 18:00 6.92 410 13800 (1981) 0 (1936) 435 1 6 12 15 35 140 240 475 2430
2020-07-27 17:30 6.85 383 13800 (1981) 0 (1936) 435 1 6 12 15 35 140 240 475 2430
2020-07-27 17:00 6.65 313 13800 (1981) 0 (1936) 435 1 6 12 15 35 140 240 475 2430
2020-07-27 16:30 6.37 222 13800 (1981) 0 (1936) 435 1 6 12 15 35 140 240 475 2430
2020-07-27 16:00 6.14 155 13800 (1981) 0 (1936) 435 1 6 12 15 35 140 240 475 2430
2020-07-27 15:30 6.10 146 13800 (1981) 0 (1936) 435 1 6 12 15 35 140 240 475 2430
2020-07-27 15:00 6.11 148 13800 (1981) 0 (1936) 435 1 6 12 15 35 140 240 475 2430
2020-07-27 14:30 6.14 155 13800 (1981) 0 (1936) 435 1 6 12 15 35 140 240 475 2430
2020-07-27 14:00 6.17 163 13800 (1981) 0 (1936) 435 1 6 12 15 35 140 240 475 2430
2020-07-27 13:30 6.19 168 13800 (1981) 0 (1936) 435 1 6 12 15 35 140 240 475 2430
2020-07-27 13:00 6.22 176 13800 (1981) 0 (1936) 435 1 6 12 15 35 140 240 475 2430
2020-07-27 12:30 6.31 203 13800 (1981) 0 (1936) 435 1 6 12 15 35 140 240 475 2430
2020-07-27 12:00 6.37 222 13800 (1981) 0 (1936) 435 1 6 12 15 35 140 240 475 2430
2020-07-27 11:30 6.34 212 13800 (1981) 0 (1936) 435 1 6 12 15 35 140 240 475 2430
2020-07-27 11:00 6.02 127 13800 (1981) 0 (1936) 435 1 6 12 15 35 140 240 475 2430
2020-07-27 10:30 5.89 101 13800 (1981) 0 (1936) 435 1 6 12 15 35 140 240 475 2430
2020-07-27 10:00 5.87 98 13800 (1981) 0 (1936) 435 1 6 12 15 35 140 240 475 2430
2020-07-27 09:30 5.79 84 13800 (1981) 0 (1936) 435 1 6 12 15 35 140 240 475 2430
2020-07-27 09:00 5.74 76 13800 (1981) 0 (1936) 435 1 6 12 15 35 140 240 475 2430
2020-07-27 08:30 5.74 76 13800 (1981) 0 (1936) 435 1 6 12 15 35 140 240 475 2430
2020-07-27 08:00 5.70 70 13800 (1981) 0 (1936) 435 1 6 12 15 35 140 240 475 2430
2020-07-27 07:30 5.74 76 13800 (1981) 0 (1936) 435 1 6 12 15 35 140 240 475 2430
2020-07-27 07:00 5.67 66 13800 (1981) 0 (1936) 435 1 6 12 15 35 140 240 475 2430
2020-07-27 06:30 5.67 66 13800 (1981) 0 (1936) 435 1 6 12 15 35 140 240 475 2430
2020-07-27 06:00 5.68 68 13800 (1981) 0 (1936) 435 1 6 12 15 35 140 240 475 2430
2020-07-27 05:30 5.68 68 13800 (1981) 0 (1936) 435 1 6 12 15 35 140 240 475 2430
2020-07-27 05:00 5.68 68 13800 (1981) 0 (1936) 435 1 6 12 15 35 140 240 475 2430
2020-07-27 04:30 5.68 68 13800 (1981) 0 (1936) 435 1 6 12 15 35 140 240 475 2430
2020-07-27 04:00 5.69 69 13800 (1981) 0 (1936) 435 1 6 12 15 35 140 240 475 2430
2020-07-27 03:30 5.69 69 13800 (1981) 0 (1936) 435 1 6 12 15 35 140 240 475 2430
2020-07-27 03:00 5.69 69 13800 (1981) 0 (1936) 435 1 6 12 15 35 140 240 475 2430
2020-07-27 02:30 5.69 69 13800 (1981) 0 (1936) 435 1 6 12 15 35 140 240 475 2430
2020-07-27 02:00 5.70 70 13800 (1981) 0 (1936) 435 1 6 12 15 35 140 240 475 2430
2020-07-27 01:30 5.70 70 13800 (1981) 0 (1936) 435 1 6 12 15 35 140 240 475 2430
2020-07-27 01:00 5.70 70 13800 (1981) 0 (1936) 435 1 6 12 15 35 140 240 475 2430
2020-07-27 00:30 5.70 70 13800 (1981) 0 (1936) 435 1 6 12 15 35 140 240 475 2430
2020-07-27 00:00 5.70 70 13800 (1981) 0 (1936) 435 1 6 12 15 35 140 240 475 2430
2020-07-26 23:30 5.70 70 17700 (2008) 0 (1934) 656 1 6 12 16 35 195 258 792 3270
2020-07-26 23:00 5.70 70 17700 (2008) 0 (1934) 656 1 6 12 16 35 195 258 792 3270
2020-07-26 22:30 5.71 72 17700 (2008) 0 (1934) 656 1 6 12 16 35 195 258 792 3270
2020-07-26 22:00 5.71 72 17700 (2008) 0 (1934) 656 1 6 12 16 35 195 258 792 3270
2020-07-26 21:30 5.71 72 17700 (2008) 0 (1934) 656 1 6 12 16 35 195 258 792 3270
2020-07-26 21:00 5.71 72 17700 (2008) 0 (1934) 656 1 6 12 16 35 195 258 792 3270
2020-07-26 20:30 5.71 72 17700 (2008) 0 (1934) 656 1 6 12 16 35 195 258 792 3270
2020-07-26 20:00 5.71 72 17700 (2008) 0 (1934) 656 1 6 12 16 35 195 258 792 3270
2020-07-26 19:30 5.72 73 17700 (2008) 0 (1934) 656 1 6 12 16 35 195 258 792 3270
2020-07-26 19:00 5.72 73 17700 (2008) 0 (1934) 656 1 6 12 16 35 195 258 792 3270
2020-07-26 18:30 5.72 73 17700 (2008) 0 (1934) 656 1 6 12 16 35 195 258 792 3270
2020-07-26 18:00 5.69 69 17700 (2008) 0 (1934) 656 1 6 12 16 35 195 258 792 3270
2020-07-26 17:30 5.73 75 17700 (2008) 0 (1934) 656 1 6 12 16 35 195 258 792 3270
2020-07-26 17:00 5.73 75 17700 (2008) 0 (1934) 656 1 6 12 16 35 195 258 792 3270
2020-07-26 16:30 5.73 75 17700 (2008) 0 (1934) 656 1 6 12 16 35 195 258 792 3270
2020-07-26 16:00 5.69 69 17700 (2008) 0 (1934) 656 1 6 12 16 35 195 258 792 3270
2020-07-26 15:30 5.73 75 17700 (2008) 0 (1934) 656 1 6 12 16 35 195 258 792 3270
2020-07-26 15:00 5.73 75 17700 (2008) 0 (1934) 656 1 6 12 16 35 195 258 792 3270
2020-07-26 14:30 5.73 75 17700 (2008) 0 (1934) 656 1 6 12 16 35 195 258 792 3270
2020-07-26 14:00 5.68 68 17700 (2008) 0 (1934) 656 1 6 12 16 35 195 258 792 3270
2020-07-26 13:30 5.71 72 17700 (2008) 0 (1934) 656 1 6 12 16 35 195 258 792 3270
2020-07-26 13:00 5.71 72 17700 (2008) 0 (1934) 656 1 6 12 16 35 195 258 792 3270
2020-07-26 12:30 5.67 66 17700 (2008) 0 (1934) 656 1 6 12 16 35 195 258 792 3270
2020-07-26 12:00 5.68 68 17700 (2008) 0 (1934) 656 1 6 12 16 35 195 258 792 3270
2020-07-26 11:30 5.70 70 17700 (2008) 0 (1934) 656 1 6 12 16 35 195 258 792 3270
2020-07-26 11:00 5.67 66 17700 (2008) 0 (1934) 656 1 6 12 16 35 195 258 792 3270
2020-07-26 10:30 5.65 64 17700 (2008) 0 (1934) 656 1 6 12 16 35 195 258 792 3270
2020-07-26 10:00 5.66 65 17700 (2008) 0 (1934) 656 1 6 12 16 35 195 258 792 3270
2020-07-26 09:30 5.68 68 17700 (2008) 0 (1934) 656 1 6 12 16 35 195 258 792 3270
2020-07-26 09:00 5.68 68 17700 (2008) 0 (1934) 656 1 6 12 16 35 195 258 792 3270
2020-07-26 08:30 5.63 61 17700 (2008) 0 (1934) 656 1 6 12 16 35 195 258 792 3270
2020-07-26 08:00 5.68 68 17700 (2008) 0 (1934) 656 1 6 12 16 35 195 258 792 3270
2020-07-26 07:30 5.68 68 17700 (2008) 0 (1934) 656 1 6 12 16 35 195 258 792 3270
2020-07-26 07:00 5.68 68 17700 (2008) 0 (1934) 656 1 6 12 16 35 195 258 792 3270
2020-07-26 06:30 5.68 68 17700 (2008) 0 (1934) 656 1 6 12 16 35 195 258 792 3270
2020-07-26 06:00 5.68 68 17700 (2008) 0 (1934) 656 1 6 12 16 35 195 258 792 3270
2020-07-26 05:30 5.68 68 17700 (2008) 0 (1934) 656 1 6 12 16 35 195 258 792 3270
2020-07-26 05:00 5.68 68 17700 (2008) 0 (1934) 656 1 6 12 16 35 195 258 792 3270
2020-07-26 04:30 5.68 68 17700 (2008) 0 (1934) 656 1 6 12 16 35 195 258 792 3270
2020-07-26 04:00 5.68 68 17700 (2008) 0 (1934) 656 1 6 12 16 35 195 258 792 3270
2020-07-26 03:30 5.68 68 17700 (2008) 0 (1934) 656 1 6 12 16 35 195 258 792 3270
2020-07-26 03:00 5.69 69 17700 (2008) 0 (1934) 656 1 6 12 16 35 195 258 792 3270
2020-07-26 02:30 5.69 69 17700 (2008) 0 (1934) 656 1 6 12 16 35 195 258 792 3270
2020-07-26 02:00 5.69 69 17700 (2008) 0 (1934) 656 1 6 12 16 35 195 258 792 3270
2020-07-26 01:30 5.69 69 17700 (2008) 0 (1934) 656 1 6 12 16 35 195 258 792 3270
2020-07-26 01:00 5.70 70 17700 (2008) 0 (1934) 656 1 6 12 16 35 195 258 792 3270
2020-07-26 00:30 5.70 70 17700 (2008) 0 (1934) 656 1 6 12 16 35 195 258 792 3270
2020-07-26 00:00 5.70 70 17700 (2008) 0 (1934) 656 1 6 12 16 35 195 258 792 3270
2020-07-25 23:30 5.71 72 10000 (1981) 0 (1954) 509 1 7 11 14 37 159 381 874 3090
2020-07-25 23:00 5.71 72 10000 (1981) 0 (1954) 509 1 7 11 14 37 159 381 874 3090
2020-07-25 22:30 5.72 73 10000 (1981) 0 (1954) 509 1 7 11 14 37 159 381 874 3090
2020-07-25 22:00 5.72 73 10000 (1981) 0 (1954) 509 1 7 11 14 37 159 381 874 3090
2020-07-25 21:30 5.72 73 10000 (1981) 0 (1954) 509 1 7 11 14 37 159 381 874 3090
2020-07-25 21:00 5.72 73 10000 (1981) 0 (1954) 509 1 7 11 14 37 159 381 874 3090
2020-07-25 20:30 5.72 73 10000 (1981) 0 (1954) 509 1 7 11 14 37 159 381 874 3090
2020-07-25 20:00 5.73 75 10000 (1981) 0 (1954) 509 1 7 11 14 37 159 381 874 3090
2020-07-25 19:30 5.73 75 10000 (1981) 0 (1954) 509 1 7 11 14 37 159 381 874 3090
2020-07-25 19:00 5.74 76 10000 (1981) 0 (1954) 509 1 7 11 14 37 159 381 874 3090
2020-07-25 18:30 5.74 76 10000 (1981) 0 (1954) 509 1 7 11 14 37 159 381 874 3090
2020-07-25 18:00 5.75 78 10000 (1981) 0 (1954) 509 1 7 11 14 37 159 381 874 3090
2020-07-25 17:30 5.75 78 10000 (1981) 0 (1954) 509 1 7 11 14 37 159 381 874 3090
2020-07-25 17:00 5.75 78 10000 (1981) 0 (1954) 509 1 7 11 14 37 159 381 874 3090
2020-07-25 16:30 5.76 79 10000 (1981) 0 (1954) 509 1 7 11 14 37 159 381 874 3090
2020-07-25 16:00 5.76 79 10000 (1981) 0 (1954) 509 1 7 11 14 37 159 381 874 3090
2020-07-25 15:30 5.76 79 10000 (1981) 0 (1954) 509 1 7 11 14 37 159 381 874 3090
2020-07-25 15:00 5.71 72 10000 (1981) 0 (1954) 509 1 7 11 14 37 159 381 874 3090
2020-07-25 14:30 5.77 81 10000 (1981) 0 (1954) 509 1 7 11 14 37 159 381 874 3090
2020-07-25 14:00 5.72 73 10000 (1981) 0 (1954) 509 1 7 11 14 37 159 381 874 3090
2020-07-25 13:30 5.77 81 10000 (1981) 0 (1954) 509 1 7 11 14 37 159 381 874 3090
2020-07-25 13:00 5.77 81 10000 (1981) 0 (1954) 509 1 7 11 14 37 159 381 874 3090
2020-07-25 12:30 5.77 81 10000 (1981) 0 (1954) 509 1 7 11 14 37 159 381 874 3090
2020-07-25 12:00 5.77 81 10000 (1981) 0 (1954) 509 1 7 11 14 37 159 381 874 3090
2020-07-25 11:30 5.77 81 10000 (1981) 0 (1954) 509 1 7 11 14 37 159 381 874 3090
2020-07-25 11:00 5.77 81 10000 (1981) 0 (1954) 509 1 7 11 14 37 159 381 874 3090
2020-07-25 10:30 5.78 82 10000 (1981) 0 (1954) 509 1 7 11 14 37 159 381 874 3090
2020-07-25 10:00 5.78 82 10000 (1981) 0 (1954) 509 1 7 11 14 37 159 381 874 3090
2020-07-25 09:30 5.78 82 10000 (1981) 0 (1954) 509 1 7 11 14 37 159 381 874 3090
2020-07-25 09:00 5.78 82 10000 (1981) 0 (1954) 509 1 7 11 14 37 159 381 874 3090
2020-07-25 08:30 5.79 84 10000 (1981) 0 (1954) 509 1 7 11 14 37 159 381 874 3090
2020-07-25 08:00 5.79 84 10000 (1981) 0 (1954) 509 1 7 11 14 37 159 381 874 3090
2020-07-25 07:30 5.80 86 10000 (1981) 0 (1954) 509 1 7 11 14 37 159 381 874 3090
2020-07-25 07:00 5.80 86 10000 (1981) 0 (1954) 509 1 7 11 14 37 159 381 874 3090
2020-07-25 06:30 5.80 86 10000 (1981) 0 (1954) 509 1 7 11 14 37 159 381 874 3090
2020-07-25 06:00 5.81 87 10000 (1981) 0 (1954) 509 1 7 11 14 37 159 381 874 3090
2020-07-25 05:30 5.81 87 10000 (1981) 0 (1954) 509 1 7 11 14 37 159 381 874 3090
2020-07-25 05:00 5.81 87 10000 (1981) 0 (1954) 509 1 7 11 14 37 159 381 874 3090
2020-07-25 04:30 5.82 89 10000 (1981) 0 (1954) 509 1 7 11 14 37 159 381 874 3090
2020-07-25 04:00 5.82 89 10000 (1981) 0 (1954) 509 1 7 11 14 37 159 381 874 3090
2020-07-25 03:30 5.83 91 10000 (1981) 0 (1954) 509 1 7 11 14 37 159 381 874 3090
2020-07-25 03:00 5.83 91 10000 (1981) 0 (1954) 509 1 7 11 14 37 159 381 874 3090
2020-07-25 02:30 5.83 91 10000 (1981) 0 (1954) 509 1 7 11 14 37 159 381 874 3090
2020-07-25 02:00 5.83 91 10000 (1981) 0 (1954) 509 1 7 11 14 37 159 381 874 3090
2020-07-25 01:30 5.84 92 10000 (1981) 0 (1954) 509 1 7 11 14 37 159 381 874 3090
2020-07-25 01:00 5.84 92 10000 (1981) 0 (1954) 509 1 7 11 14 37 159 381 874 3090
2020-07-25 00:30 5.85 94 10000 (1981) 0 (1954) 509 1 7 11 14 37 159 381 874 3090
2020-07-25 00:00 5.85 94 10000 (1981) 0 (1954) 509 1 7 11 14 37 159 381 874 3090
2020-07-24 23:30 5.86 96 19600 (1981) 0 (1954) 554 1 7 12 14 45 195 322 951 3110
2020-07-24 23:00 5.86 96 19600 (1981) 0 (1954) 554 1 7 12 14 45 195 322 951 3110
2020-07-24 22:30 5.87 98 19600 (1981) 0 (1954) 554 1 7 12 14 45 195 322 951 3110
2020-07-24 22:00 5.87 98 19600 (1981) 0 (1954) 554 1 7 12 14 45 195 322 951 3110
2020-07-24 21:30 5.87 98 19600 (1981) 0 (1954) 554 1 7 12 14 45 195 322 951 3110
2020-07-24 21:00 5.88 99 19600 (1981) 0 (1954) 554 1 7 12 14 45 195 322 951 3110
2020-07-24 20:30 5.88 99 19600 (1981) 0 (1954) 554 1 7 12 14 45 195 322 951 3110
2020-07-24 20:00 5.89 101 19600 (1981) 0 (1954) 554 1 7 12 14 45 195 322 951 3110
2020-07-24 19:30 5.89 101 19600 (1981) 0 (1954) 554 1 7 12 14 45 195 322 951 3110
2020-07-24 19:00 5.90 103 19600 (1981) 0 (1954) 554 1 7 12 14 45 195 322 951 3110
2020-07-24 18:30 5.90 103 19600 (1981) 0 (1954) 554 1 7 12 14 45 195 322 951 3110
2020-07-24 18:00 5.91 105 19600 (1981) 0 (1954) 554 1 7 12 14 45 195 322 951 3110
2020-07-24 17:30 5.91 105 19600 (1981) 0 (1954) 554 1 7 12 14 45 195 322 951 3110
2020-07-24 17:00 5.90 103 19600 (1981) 0 (1954) 554 1 7 12 14 45 195 322 951 3110
2020-07-24 16:30 5.93 109 19600 (1981) 0 (1954) 554 1 7 12 14 45 195 322 951 3110
2020-07-24 16:00 5.94 111 19600 (1981) 0 (1954) 554 1 7 12 14 45 195 322 951 3110
2020-07-24 15:30 5.94 111 19600 (1981) 0 (1954) 554 1 7 12 14 45 195 322 951 3110
2020-07-24 15:00 5.90 103 19600 (1981) 0 (1954) 554 1 7 12 14 45 195 322 951 3110
2020-07-24 14:30 5.91 105 19600 (1981) 0 (1954) 554 1 7 12 14 45 195 322 951 3110
2020-07-24 14:00 5.95 113 19600 (1981) 0 (1954) 554 1 7 12 14 45 195 322 951 3110
2020-07-24 13:30 5.92 107 19600 (1981) 0 (1954) 554 1 7 12 14 45 195 322 951 3110
2020-07-24 13:00 5.91 105 19600 (1981) 0 (1954) 554 1 7 12 14 45 195 322 951 3110
2020-07-24 12:30 5.97 117 19600 (1981) 0 (1954) 554 1 7 12 14 45 195 322 951 3110
2020-07-24 12:00 5.97 117 19600 (1981) 0 (1954) 554 1 7 12 14 45 195 322 951 3110
2020-07-24 11:30 5.97 117 19600 (1981) 0 (1954) 554 1 7 12 14 45 195 322 951 3110
2020-07-24 11:00 5.97 117 19600 (1981) 0 (1954) 554 1 7 12 14 45 195 322 951 3110
2020-07-24 10:30 5.98 119 19600 (1981) 0 (1954) 554 1 7 12 14 45 195 322 951 3110
2020-07-24 10:00 5.98 119 19600 (1981) 0 (1954) 554 1 7 12 14 45 195 322 951 3110
2020-07-24 09:30 5.99 121 19600 (1981) 0 (1954) 554 1 7 12 14 45 195 322 951 3110
2020-07-24 09:00 5.99 121 19600 (1981) 0 (1954) 554 1 7 12 14 45 195 322 951 3110
2020-07-24 08:30 6.00 123 19600 (1981) 0 (1954) 554 1 7 12 14 45 195 322 951 3110
2020-07-24 08:00 6.02 127 19600 (1981) 0 (1954) 554 1 7 12 14 45 195 322 951 3110
2020-07-24 07:30 6.02 127 19600 (1981) 0 (1954) 554 1 7 12 14 45 195 322 951 3110
2020-07-24 07:00 6.03 129 19600 (1981) 0 (1954) 554 1 7 12 14 45 195 322 951 3110
2020-07-24 06:30 6.04 132 19600 (1981) 0 (1954) 554 1 7 12 14 45 195 322 951 3110
2020-07-24 06:00 6.04 132 19600 (1981) 0 (1954) 554 1 7 12 14 45 195 322 951 3110
2020-07-24 05:30 6.05 134 19600 (1981) 0 (1954) 554 1 7 12 14 45 195 322 951 3110
2020-07-24 05:00 6.05 134 19600 (1981) 0 (1954) 554 1 7 12 14 45 195 322 951 3110
2020-07-24 04:30 6.06 136 19600 (1981) 0 (1954) 554 1 7 12 14 45 195 322 951 3110
2020-07-24 04:00 6.07 138 19600 (1981) 0 (1954) 554 1 7 12 14 45 195 322 951 3110
2020-07-24 03:30 6.07 138 19600 (1981) 0 (1954) 554 1 7 12 14 45 195 322 951 3110
2020-07-24 03:00 6.08 141 19600 (1981) 0 (1954) 554 1 7 12 14 45 195 322 951 3110
2020-07-24 02:30 6.09 143 19600 (1981) 0 (1954) 554 1 7 12 14 45 195 322 951 3110
2020-07-24 02:00 6.09 143 19600 (1981) 0 (1954) 554 1 7 12 14 45 195 322 951 3110
2020-07-24 01:30 6.10 146 19600 (1981) 0 (1954) 554 1 7 12 14 45 195 322 951 3110
2020-07-24 01:00 6.11 148 19600 (1981) 0 (1954) 554 1 7 12 14 45 195 322 951 3110
2020-07-24 00:30 6.12 150 19600 (1981) 0 (1954) 554 1 7 12 14 45 195 322 951 3110
2020-07-24 00:00 6.13 153 19600 (1981) 0 (1954) 554 1 7 12 14 45 195 322 951 3110
2020-07-23 23:30 6.14 155 10600 (1981) 0 (1934) 456 1 7 13 17 57 234 305 999 3070
2020-07-23 23:00 6.14 155 10600 (1981) 0 (1934) 456 1 7 13 17 57 234 305 999 3070
2020-07-23 22:30 6.15 158 10600 (1981) 0 (1934) 456 1 7 13 17 57 234 305 999 3070
2020-07-23 22:00 6.16 160 10600 (1981) 0 (1934) 456 1 7 13 17 57 234 305 999 3070
2020-07-23 21:30 6.16 160 10600 (1981) 0 (1934) 456 1 7 13 17 57 234 305 999 3070
2020-07-23 21:00 6.17 163 10600 (1981) 0 (1934) 456 1 7 13 17 57 234 305 999 3070
2020-07-23 20:30 6.18 166 10600 (1981) 0 (1934) 456 1 7 13 17 57 234 305 999 3070
2020-07-23 20:00 6.19 168 10600 (1981) 0 (1934) 456 1 7 13 17 57 234 305 999 3070
2020-07-23 19:30 6.20 171 10600 (1981) 0 (1934) 456 1 7 13 17 57 234 305 999 3070
2020-07-23 19:00 6.21 174 10600 (1981) 0 (1934) 456 1 7 13 17 57 234 305 999 3070
2020-07-23 18:30 6.21 174 10600 (1981) 0 (1934) 456 1 7 13 17 57 234 305 999 3070
2020-07-23 18:00 6.22 176 10600 (1981) 0 (1934) 456 1 7 13 17 57 234 305 999 3070
2020-07-23 17:30 6.23 179 10600 (1981) 0 (1934) 456 1 7 13 17 57 234 305 999 3070
2020-07-23 17:00 6.24 182 10600 (1981) 0 (1934) 456 1 7 13 17 57 234 305 999 3070
2020-07-23 16:30 6.23 179 10600 (1981) 0 (1934) 456 1 7 13 17 57 234 305 999 3070
2020-07-23 16:00 6.22 176 10600 (1981) 0 (1934) 456 1 7 13 17 57 234 305 999 3070
2020-07-23 15:30 6.25 185 10600 (1981) 0 (1934) 456 1 7 13 17 57 234 305 999 3070
2020-07-23 15:00 6.26 188 10600 (1981) 0 (1934) 456 1 7 13 17 57 234 305 999 3070
2020-07-23 14:30 6.22 176 10600 (1981) 0 (1934) 456 1 7 13 17 57 234 305 999 3070
2020-07-23 14:00 6.25 185 10600 (1981) 0 (1934) 456 1 7 13 17 57 234 305 999 3070
2020-07-23 13:30 6.24 182 10600 (1981) 0 (1934) 456 1 7 13 17 57 234 305 999 3070
2020-07-23 13:00 6.25 185 10600 (1981) 0 (1934) 456 1 7 13 17 57 234 305 999 3070
2020-07-23 12:30 6.24 182 10600 (1981) 0 (1934) 456 1 7 13 17 57 234 305 999 3070
2020-07-23 12:00 6.24 182 10600 (1981) 0 (1934) 456 1 7 13 17 57 234 305 999 3070
2020-07-23 11:30 6.24 182 10600 (1981) 0 (1934) 456 1 7 13 17 57 234 305 999 3070
2020-07-23 11:00 6.23 179 10600 (1981) 0 (1934) 456 1 7 13 17 57 234 305 999 3070
2020-07-23 10:30 6.24 182 10600 (1981) 0 (1934) 456 1 7 13 17 57 234 305 999 3070
2020-07-23 10:00 6.24 182 10600 (1981) 0 (1934) 456 1 7 13 17 57 234 305 999 3070
2020-07-23 09:30 6.24 182 10600 (1981) 0 (1934) 456 1 7 13 17 57 234 305 999 3070
2020-07-23 09:00 6.25 185 10600 (1981) 0 (1934) 456 1 7 13 17 57 234 305 999 3070
2020-07-23 08:30 6.26 188 10600 (1981) 0 (1934) 456 1 7 13 17 57 234 305 999 3070
2020-07-23 08:00 6.27 191 10600 (1981) 0 (1934) 456 1 7 13 17 57 234 305 999 3070
2020-07-23 07:30 6.29 197 10600 (1981) 0 (1934) 456 1 7 13 17 57 234 305 999 3070
2020-07-23 07:00 6.29 197 10600 (1981) 0 (1934) 456 1 7 13 17 57 234 305 999 3070
2020-07-23 06:30 6.30 200 10600 (1981) 0 (1934) 456 1 7 13 17 57 234 305 999 3070
2020-07-23 06:00 6.31 203 10600 (1981) 0 (1934) 456 1 7 13 17 57 234 305 999 3070
2020-07-23 05:30 6.33 209 10600 (1981) 0 (1934) 456 1 7 13 17 57 234 305 999 3070
2020-07-23 05:00 6.33 209 10600 (1981) 0 (1934) 456 1 7 13 17 57 234 305 999 3070
2020-07-23 04:30 6.34 212 10600 (1981) 0 (1934) 456 1 7 13 17 57 234 305 999 3070
2020-07-23 04:00 6.35 215 10600 (1981) 0 (1934) 456 1 7 13 17 57 234 305 999 3070
2020-07-23 03:30 6.35 215 10600 (1981) 0 (1934) 456 1 7 13 17 57 234 305 999 3070
2020-07-23 03:00 6.36 218 10600 (1981) 0 (1934) 456 1 7 13 17 57 234 305 999 3070
2020-07-23 02:30 6.35 215 10600 (1981) 0 (1934) 456 1 7 13 17 57 234 305 999 3070
2020-07-23 02:00 6.35 215 10600 (1981) 0 (1934) 456 1 7 13 17 57 234 305 999 3070
2020-07-23 01:30 6.35 215 10600 (1981) 0 (1934) 456 1 7 13 17 57 234 305 999 3070
2020-07-23 01:00 6.34 212 10600 (1981) 0 (1934) 456 1 7 13 17 57 234 305 999 3070
2020-07-23 00:30 6.34 212 10600 (1981) 0 (1934) 456 1 7 13 17 57 234 305 999 3070
2020-07-23 00:00 6.34 212 10600 (1981) 0 (1934) 456 1 7 13 17 57 234 305 999 3070
2020-07-22 23:30 6.33 209 7170 (1935) 0 (1934) 402 1 6 15 19 46 248 358 1470 2780
2020-07-22 23:00 6.34 212 7170 (1935) 0 (1934) 402 1 6 15 19 46 248 358 1470 2780
2020-07-22 22:30 6.33 209 7170 (1935) 0 (1934) 402 1 6 15 19 46 248 358 1470 2780
2020-07-22 22:00 6.34 212 7170 (1935) 0 (1934) 402 1 6 15 19 46 248 358 1470 2780
2020-07-22 21:30 6.33 209 7170 (1935) 0 (1934) 402 1 6 15 19 46 248 358 1470 2780
2020-07-22 21:00 6.32 206 7170 (1935) 0 (1934) 402 1 6 15 19 46 248 358 1470 2780
2020-07-22 20:30 6.31 203 7170 (1935) 0 (1934) 402 1 6 15 19 46 248 358 1470 2780
2020-07-22 20:00 6.30 200 7170 (1935) 0 (1934) 402 1 6 15 19 46 248 358 1470 2780
2020-07-22 19:30 6.28 194 7170 (1935) 0 (1934) 402 1 6 15 19 46 248 358 1470 2780
2020-07-22 19:00 6.22 176 7170 (1935) 0 (1934) 402 1 6 15 19 46 248 358 1470 2780
2020-07-22 18:30 6.24 182 7170 (1935) 0 (1934) 402 1 6 15 19 46 248 358 1470 2780
2020-07-22 18:00 6.22 176 7170 (1935) 0 (1934) 402 1 6 15 19 46 248 358 1470 2780
2020-07-22 17:30 6.21 174 7170 (1935) 0 (1934) 402 1 6 15 19 46 248 358 1470 2780
2020-07-22 17:00 6.21 174 7170 (1935) 0 (1934) 402 1 6 15 19 46 248 358 1470 2780
2020-07-22 16:30 6.22 176 7170 (1935) 0 (1934) 402 1 6 15 19 46 248 358 1470 2780
2020-07-22 16:00 6.22 176 7170 (1935) 0 (1934) 402 1 6 15 19 46 248 358 1470 2780
2020-07-22 15:30 6.23 179 7170 (1935) 0 (1934) 402 1 6 15 19 46 248 358 1470 2780
2020-07-22 15:00 6.23 179 7170 (1935) 0 (1934) 402 1 6 15 19 46 248 358 1470 2780
2020-07-22 14:30 6.22 176 7170 (1935) 0 (1934) 402 1 6 15 19 46 248 358 1470 2780
2020-07-22 14:00 6.18 166 7170 (1935) 0 (1934) 402 1 6 15 19 46 248 358 1470 2780
2020-07-22 13:30 6.10 146 7170 (1935) 0 (1934) 402 1 6 15 19 46 248 358 1470 2780
2020-07-22 13:00 6.02 127 7170 (1935) 0 (1934) 402 1 6 15 19 46 248 358 1470 2780
2020-07-22 12:30 5.89 101 7170 (1935) 0 (1934) 402 1 6 15 19 46 248 358 1470 2780
2020-07-22 12:00 5.78 82 7170 (1935) 0 (1934) 402 1 6 15 19 46 248 358 1470 2780
2020-07-22 11:30 5.73 75 7170 (1935) 0 (1934) 402 1 6 15 19 46 248 358 1470 2780
2020-07-22 11:00 5.71 72 7170 (1935) 0 (1934) 402 1 6 15 19 46 248 358 1470 2780
2020-07-22 10:30 5.71 72 7170 (1935) 0 (1934) 402 1 6 15 19 46 248 358 1470 2780
2020-07-22 10:00 5.70 70 7170 (1935) 0 (1934) 402 1 6 15 19 46 248 358 1470 2780
2020-07-22 09:30 5.70 70 7170 (1935) 0 (1934) 402 1 6 15 19 46 248 358 1470 2780
2020-07-22 09:00 5.70 70 7170 (1935) 0 (1934) 402 1 6 15 19 46 248 358 1470 2780
2020-07-22 08:30 5.69 69 7170 (1935) 0 (1934) 402 1 6 15 19 46 248 358 1470 2780
2020-07-22 08:00 5.69 69 7170 (1935) 0 (1934) 402 1 6 15 19 46 248 358 1470 2780
2020-07-22 07:30 5.65 64 7170 (1935) 0 (1934) 402 1 6 15 19 46 248 358 1470 2780
2020-07-22 07:00 5.68 68 7170 (1935) 0 (1934) 402 1 6 15 19 46 248 358 1470 2780
2020-07-22 06:30 5.68 68 7170 (1935) 0 (1934) 402 1 6 15 19 46 248 358 1470 2780
2020-07-22 06:00 5.68 68 7170 (1935) 0 (1934) 402 1 6 15 19 46 248 358 1470 2780
2020-07-22 05:30 5.68 68 7170 (1935) 0 (1934) 402 1 6 15 19 46 248 358 1470 2780
2020-07-22 05:00 5.67 66 7170 (1935) 0 (1934) 402 1 6 15 19 46 248 358 1470 2780
2020-07-22 04:30 5.67 66 7170 (1935) 0 (1934) 402 1 6 15 19 46 248 358 1470 2780
2020-07-22 04:00 5.67 66 7170 (1935) 0 (1934) 402 1 6 15 19 46 248 358 1470 2780
2020-07-22 03:30 5.67 66 7170 (1935) 0 (1934) 402 1 6 15 19 46 248 358 1470 2780
2020-07-22 03:00 5.66 65 7170 (1935) 0 (1934) 402 1 6 15 19 46 248 358 1470 2780
2020-07-22 02:30 5.66 65 7170 (1935) 0 (1934) 402 1 6 15 19 46 248 358 1470 2780
2020-07-22 02:00 5.66 65 7170 (1935) 0 (1934) 402 1 6 15 19 46 248 358 1470 2780
2020-07-22 01:30 5.65 64 7170 (1935) 0 (1934) 402 1 6 15 19 46 248 358 1470 2780
2020-07-22 01:00 5.65 64 7170 (1935) 0 (1934) 402 1 6 15 19 46 248 358 1470 2780
2020-07-22 00:30 5.65 64 7170 (1935) 0 (1934) 402 1 6 15 19 46 248 358 1470 2780
2020-07-22 00:00 5.65 64 7170 (1935) 0 (1934) 402 1 6 15 19 46 248 358 1470 2780
2020-07-21 23:30 5.65 64 18100 (1949) 0 (1934) 894 2 6 15 17 46 201 334 2290 6190
2020-07-21 23:00 5.65 64 18100 (1949) 0 (1934) 894 2 6 15 17 46 201 334 2290 6190
2020-07-21 22:30 5.65 64 18100 (1949) 0 (1934) 894 2 6 15 17 46 201 334 2290 6190
2020-07-21 22:00 5.65 64 18100 (1949) 0 (1934) 894 2 6 15 17 46 201 334 2290 6190
2020-07-21 21:30 5.64 62 18100 (1949) 0 (1934) 894 2 6 15 17 46 201 334 2290 6190
2020-07-21 21:00 5.64 62 18100 (1949) 0 (1934) 894 2 6 15 17 46 201 334 2290 6190
2020-07-21 20:30 5.64 62 18100 (1949) 0 (1934) 894 2 6 15 17 46 201 334 2290 6190
2020-07-21 20:00 5.64 62 18100 (1949) 0 (1934) 894 2 6 15 17 46 201 334 2290 6190
2020-07-21 19:30 5.64 62 18100 (1949) 0 (1934) 894 2 6 15 17 46 201 334 2290 6190
2020-07-21 19:00 5.58 55 18100 (1949) 0 (1934) 894 2 6 15 17 46 201 334 2290 6190
2020-07-21 18:30 5.60 57 18100 (1949) 0 (1934) 894 2 6 15 17 46 201 334 2290 6190
2020-07-21 18:00 5.56 53 18100 (1949) 0 (1934) 894 2 6 15 17 46 201 334 2290 6190
2020-07-21 17:30 5.54 50 18100 (1949) 0 (1934) 894 2 6 15 17 46 201 334 2290 6190
2020-07-21 17:00 5.59 56 18100 (1949) 0 (1934) 894 2 6 15 17 46 201 334 2290 6190
2020-07-21 16:30 5.55 52 18100 (1949) 0 (1934) 894 2 6 15 17 46 201 334 2290 6190
2020-07-21 16:00 5.53 49 18100 (1949) 0 (1934) 894 2 6 15 17 46 201 334 2290 6190
2020-07-21 15:30 5.53 49 18100 (1949) 0 (1934) 894 2 6 15 17 46 201 334 2290 6190
2020-07-21 15:00 5.56 53 18100 (1949) 0 (1934) 894 2 6 15 17 46 201 334 2290 6190
2020-07-21 14:30 5.54 50 18100 (1949) 0 (1934) 894 2 6 15 17 46 201 334 2290 6190
2020-07-21 14:00 5.56 53 18100 (1949) 0 (1934) 894 2 6 15 17 46 201 334 2290 6190
2020-07-21 13:30 5.56 53 18100 (1949) 0 (1934) 894 2 6 15 17 46 201 334 2290 6190
2020-07-21 13:00 5.57 54 18100 (1949) 0 (1934) 894 2 6 15 17 46 201 334 2290 6190
2020-07-21 12:30 5.56 53 18100 (1949) 0 (1934) 894 2 6 15 17 46 201 334 2290 6190
2020-07-21 12:00 5.58 55 18100 (1949) 0 (1934) 894 2 6 15 17 46 201 334 2290 6190
2020-07-21 11:30 5.57 54 18100 (1949) 0 (1934) 894 2 6 15 17 46 201 334 2290 6190
2020-07-21 11:00 5.58 55 18100 (1949) 0 (1934) 894 2 6 15 17 46 201 334 2290 6190
2020-07-21 10:30 5.58 55 18100 (1949) 0 (1934) 894 2 6 15 17 46 201 334 2290 6190
2020-07-21 10:00 5.58 55 18100 (1949) 0 (1934) 894 2 6 15 17 46 201 334 2290 6190
2020-07-21 09:30 5.59 56 18100 (1949) 0 (1934) 894 2 6 15 17 46 201 334 2290 6190
2020-07-21 09:00 5.60 57 18100 (1949) 0 (1934) 894 2 6 15 17 46 201 334 2290 6190
2020-07-21 08:30 5.61 59 18100 (1949) 0 (1934) 894 2 6 15 17 46 201 334 2290 6190
2020-07-21 08:00 5.61 59 18100 (1949) 0 (1934) 894 2 6 15 17 46 201 334 2290 6190
2020-07-21 07:30 5.62 60 18100 (1949) 0 (1934) 894 2 6 15 17 46 201 334 2290 6190
2020-07-21 07:00 5.57 54 18100 (1949) 0 (1934) 894 2 6 15 17 46 201 334 2290 6190
2020-07-21 06:30 5.55 52 18100 (1949) 0 (1934) 894 2 6 15 17 46 201 334 2290 6190
2020-07-21 06:00 5.56 53 18100 (1949) 0 (1934) 894 2 6 15 17 46 201 334 2290 6190
2020-07-21 05:30 5.56 53 18100 (1949) 0 (1934) 894 2 6 15 17 46 201 334 2290 6190
2020-07-21 05:00 5.56 53 18100 (1949) 0 (1934) 894 2 6 15 17 46 201 334 2290 6190
2020-07-21 04:30 5.56 53 18100 (1949) 0 (1934) 894 2 6 15 17 46 201 334 2290 6190
2020-07-21 04:00 5.56 53 18100 (1949) 0 (1934) 894 2 6 15 17 46 201 334 2290 6190
2020-07-21 03:30 5.56 53 18100 (1949) 0 (1934) 894 2 6 15 17 46 201 334 2290 6190
2020-07-21 03:00 5.56 53 18100 (1949) 0 (1934) 894 2 6 15 17 46 201 334 2290 6190
2020-07-21 02:30 5.56 53 18100 (1949) 0 (1934) 894 2 6 15 17 46 201 334 2290 6190
2020-07-21 02:00 5.56 53 18100 (1949) 0 (1934) 894 2 6 15 17 46 201 334 2290 6190
2020-07-21 01:30 5.56 53 18100 (1949) 0 (1934) 894 2 6 15 17 46 201 334 2290 6190
2020-07-21 01:00 5.56 53 18100 (1949) 0 (1934) 894 2 6 15 17 46 201 334 2290 6190
2020-07-21 00:30 5.57 54 18100 (1949) 0 (1934) 894 2 6 15 17 46 201 334 2290 6190
2020-07-21 00:00 5.57 54 18100 (1949) 0 (1934) 894 2 6 15 17 46 201 334 2290 6190
2020-07-20 23:30 5.57 54 19000 (1958) 0 (1954) 907 2 5 12 16 47 300 496 1430 5820
2020-07-20 23:00 5.57 54 19000 (1958) 0 (1954) 907 2 5 12 16 47 300 496 1430 5820
2020-07-20 22:30 5.57 54 19000 (1958) 0 (1954) 907 2 5 12 16 47 300 496 1430 5820
2020-07-20 22:00 5.57 54 19000 (1958) 0 (1954) 907 2 5 12 16 47 300 496 1430 5820
2020-07-20 21:30 5.57 54 19000 (1958) 0 (1954) 907 2 5 12 16 47 300 496 1430 5820
2020-07-20 21:00 5.57 54 19000 (1958) 0 (1954) 907 2 5 12 16 47 300 496 1430 5820
2020-07-20 20:30 5.57 54 19000 (1958) 0 (1954) 907 2 5 12 16 47 300 496 1430 5820
2020-07-20 20:00 5.57 54 19000 (1958) 0 (1954) 907 2 5 12 16 47 300 496 1430 5820
2020-07-20 19:30 5.57 54 19000 (1958) 0 (1954) 907 2 5 12 16 47 300 496 1430 5820
2020-07-20 19:00 5.57 54 19000 (1958) 0 (1954) 907 2 5 12 16 47 300 496 1430 5820
2020-07-20 18:30 5.57 54 19000 (1958) 0 (1954) 907 2 5 12 16 47 300 496 1430 5820
2020-07-20 18:00 5.57 54 19000 (1958) 0 (1954) 907 2 5 12 16 47 300 496 1430 5820
2020-07-20 17:30 5.58 55 19000 (1958) 0 (1954) 907 2 5 12 16 47 300 496 1430 5820
2020-07-20 17:00 5.57 54 19000 (1958) 0 (1954) 907 2 5 12 16 47 300 496 1430 5820
2020-07-20 16:30 5.58 55 19000 (1958) 0 (1954) 907 2 5 12 16 47 300 496 1430 5820
2020-07-20 16:00 5.51 47 19000 (1958) 0 (1954) 907 2 5 12 16 47 300 496 1430 5820
2020-07-20 15:30 5.56 53 19000 (1958) 0 (1954) 907 2 5 12 16 47 300 496 1430 5820
2020-07-20 15:00 5.55 52 19000 (1958) 0 (1954) 907 2 5 12 16 47 300 496 1430 5820
2020-07-20 14:30 5.52 48 19000 (1958) 0 (1954) 907 2 5 12 16 47 300 496 1430 5820
2020-07-20 14:00 5.55 52 19000 (1958) 0 (1954) 907 2 5 12 16 47 300 496 1430 5820
2020-07-20 13:30 5.52 48 19000 (1958) 0 (1954) 907 2 5 12 16 47 300 496 1430 5820
2020-07-20 13:00 5.57 54 19000 (1958) 0 (1954) 907 2 5 12 16 47 300 496 1430 5820
2020-07-20 12:30 5.57 54 19000 (1958) 0 (1954) 907 2 5 12 16 47 300 496 1430 5820
2020-07-20 12:00 5.56 53 19000 (1958) 0 (1954) 907 2 5 12 16 47 300 496 1430 5820
2020-07-20 11:30 5.55 52 19000 (1958) 0 (1954) 907 2 5 12 16 47 300 496 1430 5820
2020-07-20 11:00 5.51 47 19000 (1958) 0 (1954) 907 2 5 12 16 47 300 496 1430 5820
2020-07-20 10:30 5.52 48 19000 (1958) 0 (1954) 907 2 5 12 16 47 300 496 1430 5820
2020-07-20 10:00 5.55 52 19000 (1958) 0 (1954) 907 2 5 12 16 47 300 496 1430 5820
2020-07-20 09:30 5.55 52 19000 (1958) 0 (1954) 907 2 5 12 16 47 300 496 1430 5820
2020-07-20 09:00 5.55 52 19000 (1958) 0 (1954) 907 2 5 12 16 47 300 496 1430 5820
2020-07-20 08:30 5.55 52 19000 (1958) 0 (1954) 907 2 5 12 16 47 300 496 1430 5820
2020-07-20 08:00 5.55 52 19000 (1958) 0 (1954) 907 2 5 12 16 47 300 496 1430 5820
2020-07-20 07:30 5.56 53 19000 (1958) 0 (1954) 907 2 5 12 16 47 300 496 1430 5820
2020-07-20 07:00 5.56 53 19000 (1958) 0 (1954) 907 2 5 12 16 47 300 496 1430 5820
2020-07-20 06:30 5.56 53 19000 (1958) 0 (1954) 907 2 5 12 16 47 300 496 1430 5820
2020-07-20 06:00 5.56 53 19000 (1958) 0 (1954) 907 2 5 12 16 47 300 496 1430 5820
2020-07-20 05:30 5.56 53 19000 (1958) 0 (1954) 907 2 5 12 16 47 300 496 1430 5820
2020-07-20 05:00 5.56 53 19000 (1958) 0 (1954) 907 2 5 12 16 47 300 496 1430 5820
2020-07-20 04:30 5.56 53 19000 (1958) 0 (1954) 907 2 5 12 16 47 300 496 1430 5820
2020-07-20 04:00 5.56 53 19000 (1958) 0 (1954) 907 2 5 12 16 47 300 496 1430 5820
2020-07-20 03:30 5.56 53 19000 (1958) 0 (1954) 907 2 5 12 16 47 300 496 1430 5820
2020-07-20 03:00 5.56 53 19000 (1958) 0 (1954) 907 2 5 12 16 47 300 496 1430 5820
2020-07-20 02:30 5.56 53 19000 (1958) 0 (1954) 907 2 5 12 16 47 300 496 1430 5820
2020-07-20 02:00 5.56 53 19000 (1958) 0 (1954) 907 2 5 12 16 47 300 496 1430 5820
2020-07-20 01:30 5.56 53 19000 (1958) 0 (1954) 907 2 5 12 16 47 300 496 1430 5820
2020-07-20 01:00 5.56 53 19000 (1958) 0 (1954) 907 2 5 12 16 47 300 496 1430 5820
2020-07-20 00:30 5.56 53 19000 (1958) 0 (1954) 907 2 5 12 16 47 300 496 1430 5820
2020-07-20 00:00 5.57 54 19000 (1958) 0 (1954) 907 2 5 12 16 47 300 496 1430 5820
2020-07-19 23:30 5.56 53 8100 (1968) 0 (1934) 421 2 6 13 17 50 142 276 1340 1980
2020-07-19 23:00 5.57 54 8100 (1968) 0 (1934) 421 2 6 13 17 50 142 276 1340 1980
2020-07-19 22:30 5.56 53 8100 (1968) 0 (1934) 421 2 6 13 17 50 142 276 1340 1980
2020-07-19 22:00 5.57 54 8100 (1968) 0 (1934) 421 2 6 13 17 50 142 276 1340 1980
2020-07-19 21:30 5.56 53 8100 (1968) 0 (1934) 421 2 6 13 17 50 142 276 1340 1980
2020-07-19 21:00 5.54 50 8100 (1968) 0 (1934) 421 2 6 13 17 50 142 276 1340 1980
2020-07-19 20:30 5.55 52 8100 (1968) 0 (1934) 421 2 6 13 17 50 142 276 1340 1980
2020-07-19 20:00 5.56 53 8100 (1968) 0 (1934) 421 2 6 13 17 50 142 276 1340 1980
2020-07-19 19:30 5.56 53 8100 (1968) 0 (1934) 421 2 6 13 17 50 142 276 1340 1980
2020-07-19 19:00 5.56 53 8100 (1968) 0 (1934) 421 2 6 13 17 50 142 276 1340 1980
2020-07-19 18:30 5.56 53 8100 (1968) 0 (1934) 421 2 6 13 17 50 142 276 1340 1980
2020-07-19 18:00 5.56 53 8100 (1968) 0 (1934) 421 2 6 13 17 50 142 276 1340 1980
2020-07-19 17:30 5.56 53 8100 (1968) 0 (1934) 421 2 6 13 17 50 142 276 1340 1980
2020-07-19 17:00 5.56 53 8100 (1968) 0 (1934) 421 2 6 13 17 50 142 276 1340 1980
2020-07-19 16:30 5.56 53 8100 (1968) 0 (1934) 421 2 6 13 17 50 142 276 1340 1980
2020-07-19 16:00 5.56 53 8100 (1968) 0 (1934) 421 2 6 13 17 50 142 276 1340 1980
2020-07-19 15:30 5.52 48 8100 (1968) 0 (1934) 421 2 6 13 17 50 142 276 1340 1980
2020-07-19 15:00 5.57 54 8100 (1968) 0 (1934) 421 2 6 13 17 50 142 276 1340 1980
2020-07-19 14:30 5.56 53 8100 (1968) 0 (1934) 421 2 6 13 17 50 142 276 1340 1980
2020-07-19 14:00 5.57 54 8100 (1968) 0 (1934) 421 2 6 13 17 50 142 276 1340 1980
2020-07-19 13:30 5.52 48 8100 (1968) 0 (1934) 421 2 6 13 17 50 142 276 1340 1980
2020-07-19 13:00 5.53 49 8100 (1968) 0 (1934) 421 2 6 13 17 50 142 276 1340 1980
2020-07-19 12:30 5.55 52 8100 (1968) 0 (1934) 421 2 6 13 17 50 142 276 1340 1980
2020-07-19 12:00 5.57 54 8100 (1968) 0 (1934) 421 2 6 13 17 50 142 276 1340 1980
2020-07-19 11:30 5.53 49 8100 (1968) 0 (1934) 421 2 6 13 17 50 142 276 1340 1980
2020-07-19 11:00 5.50 46 8100 (1968) 0 (1934) 421 2 6 13 17 50 142 276 1340 1980
2020-07-19 10:30 5.51 47 8100 (1968) 0 (1934) 421 2 6 13 17 50 142 276 1340 1980
2020-07-19 10:00 5.51 47 8100 (1968) 0 (1934) 421 2 6 13 17 50 142 276 1340 1980
2020-07-19 09:30 5.49 45 8100 (1968) 0 (1934) 421 2 6 13 17 50 142 276 1340 1980
2020-07-19 09:00 5.51 47 8100 (1968) 0 (1934) 421 2 6 13 17 50 142 276 1340 1980
2020-07-19 08:30 5.51 47 8100 (1968) 0 (1934) 421 2 6 13 17 50 142 276 1340 1980
2020-07-19 08:00 5.51 47 8100 (1968) 0 (1934) 421 2 6 13 17 50 142 276 1340 1980
2020-07-19 07:30 5.52 48 8100 (1968) 0 (1934) 421 2 6 13 17 50 142 276 1340 1980
2020-07-19 07:00 5.52 48 8100 (1968) 0 (1934) 421 2 6 13 17 50 142 276 1340 1980
2020-07-19 06:30 5.56 53 8100 (1968) 0 (1934) 421 2 6 13 17 50 142 276 1340 1980
2020-07-19 06:00 5.56 53 8100 (1968) 0 (1934) 421 2 6 13 17 50 142 276 1340 1980
2020-07-19 05:30 5.56 53 8100 (1968) 0 (1934) 421 2 6 13 17 50 142 276 1340 1980
2020-07-19 05:00 5.56 53 8100 (1968) 0 (1934) 421 2 6 13 17 50 142 276 1340 1980
2020-07-19 04:30 5.56 53 8100 (1968) 0 (1934) 421 2 6 13 17 50 142 276 1340 1980
2020-07-19 04:00 5.56 53 8100 (1968) 0 (1934) 421 2 6 13 17 50 142 276 1340 1980
2020-07-19 03:30 5.56 53 8100 (1968) 0 (1934) 421 2 6 13 17 50 142 276 1340 1980
2020-07-19 03:00 5.57 54 8100 (1968) 0 (1934) 421 2 6 13 17 50 142 276 1340 1980
2020-07-19 02:30 5.57 54 8100 (1968) 0 (1934) 421 2 6 13 17 50 142 276 1340 1980
2020-07-19 02:00 5.57 54 8100 (1968) 0 (1934) 421 2 6 13 17 50 142 276 1340 1980
2020-07-19 01:30 5.57 54 8100 (1968) 0 (1934) 421 2 6 13 17 50 142 276 1340 1980
2020-07-19 01:00 5.57 54 8100 (1968) 0 (1934) 421 2 6 13 17 50 142 276 1340 1980
2020-07-19 00:30 5.57 54 8100 (1968) 0 (1934) 421 2 6 13 17 50 142 276 1340 1980
2020-07-19 00:00 5.57 54 8100 (1968) 0 (1934) 421 2 6 13 17 50 142 276 1340 1980
2020-07-18 23:30 5.57 54 11400 (1968) 0 (1934) 416 3 6 11 19 53 167 251 393 1920
2020-07-18 23:00 5.57 54 11400 (1968) 0 (1934) 416 3 6 11 19 53 167 251 393 1920
2020-07-18 22:30 5.58 55 11400 (1968) 0 (1934) 416 3 6 11 19 53 167 251 393 1920
2020-07-18 22:00 5.57 54 11400 (1968) 0 (1934) 416 3 6 11 19 53 167 251 393 1920
2020-07-18 21:30 5.57 54 11400 (1968) 0 (1934) 416 3 6 11 19 53 167 251 393 1920
2020-07-18 21:00 5.57 54 11400 (1968) 0 (1934) 416 3 6 11 19 53 167 251 393 1920
2020-07-18 20:30 5.57 54 11400 (1968) 0 (1934) 416 3 6 11 19 53 167 251 393 1920
2020-07-18 20:00 5.58 55 11400 (1968) 0 (1934) 416 3 6 11 19 53 167 251 393 1920
2020-07-18 19:30 5.58 55 11400 (1968) 0 (1934) 416 3 6 11 19 53 167 251 393 1920
2020-07-18 19:00 5.58 55 11400 (1968) 0 (1934) 416 3 6 11 19 53 167 251 393 1920
2020-07-18 18:30 5.58 55 11400 (1968) 0 (1934) 416 3 6 11 19 53 167 251 393 1920
2020-07-18 18:00 5.59 56 11400 (1968) 0 (1934) 416 3 6 11 19 53 167 251 393 1920
2020-07-18 17:30 5.59 56 11400 (1968) 0 (1934) 416 3 6 11 19 53 167 251 393 1920
2020-07-18 17:00 5.59 56 11400 (1968) 0 (1934) 416 3 6 11 19 53 167 251 393 1920
2020-07-18 16:30 5.59 56 11400 (1968) 0 (1934) 416 3 6 11 19 53 167 251 393 1920
2020-07-18 16:00 5.56 53 11400 (1968) 0 (1934) 416 3 6 11 19 53 167 251 393 1920
2020-07-18 15:30 5.59 56 11400 (1968) 0 (1934) 416 3 6 11 19 53 167 251 393 1920
2020-07-18 15:00 5.59 56 11400 (1968) 0 (1934) 416 3 6 11 19 53 167 251 393 1920
2020-07-18 14:30 5.58 55 11400 (1968) 0 (1934) 416 3 6 11 19 53 167 251 393 1920
2020-07-18 14:00 5.59 56 11400 (1968) 0 (1934) 416 3 6 11 19 53 167 251 393 1920
2020-07-18 13:30 5.58 55 11400 (1968) 0 (1934) 416 3 6 11 19 53 167 251 393 1920
2020-07-18 13:00 5.57 54 11400 (1968) 0 (1934) 416 3 6 11 19 53 167 251 393 1920
2020-07-18 12:30 5.60 57 11400 (1968) 0 (1934) 416 3 6 11 19 53 167 251 393 1920
2020-07-18 12:00 55 11400 (1968) 0 (1934) 416 3 6 11 19 53 167 251 393 1920
2020-07-18 11:30 5.58 55 11400 (1968) 0 (1934) 416 3 6 11 19 53 167 251 393 1920
2020-07-18 11:00 5.59 56 11400 (1968) 0 (1934) 416 3 6 11 19 53 167 251 393 1920
2020-07-18 10:30 5.58 55 11400 (1968) 0 (1934) 416 3 6 11 19 53 167 251 393 1920
2020-07-18 10:00 5.55 52 11400 (1968) 0 (1934) 416 3 6 11 19 53 167 251 393 1920
2020-07-18 09:30 5.57 54 11400 (1968) 0 (1934) 416 3 6 11 19 53 167 251 393 1920
2020-07-18 09:00 5.60 57 11400 (1968) 0 (1934) 416 3 6 11 19 53 167 251 393 1920
2020-07-18 08:30 5.60 57 11400 (1968) 0 (1934) 416 3 6 11 19 53 167 251 393 1920
2020-07-18 08:00 5.60 57 11400 (1968) 0 (1934) 416 3 6 11 19 53 167 251 393 1920
2020-07-18 07:30 5.60 57 11400 (1968) 0 (1934) 416 3 6 11 19 53 167 251 393 1920
2020-07-18 07:00 5.60 57 11400 (1968) 0 (1934) 416 3 6 11 19 53 167 251 393 1920
2020-07-18 06:30 5.60 57 11400 (1968) 0 (1934) 416 3 6 11 19 53 167 251 393 1920
2020-07-18 06:00 5.60 57 11400 (1968) 0 (1934) 416 3 6 11 19 53 167 251 393 1920
2020-07-18 05:30 5.60 57 11400 (1968) 0 (1934) 416 3 6 11 19 53 167 251 393 1920
2020-07-18 05:00 5.61 59 11400 (1968) 0 (1934) 416 3 6 11 19 53 167 251 393 1920
2020-07-18 04:30 5.61 59 11400 (1968) 0 (1934) 416 3 6 11 19 53 167 251 393 1920
2020-07-18 04:00 5.61 59 11400 (1968) 0 (1934) 416 3 6 11 19 53 167 251 393 1920
2020-07-18 03:30 5.61 59 11400 (1968) 0 (1934) 416 3 6 11 19 53 167 251 393 1920
2020-07-18 03:00 5.61 59 11400 (1968) 0 (1934) 416 3 6 11 19 53 167 251 393 1920
2020-07-18 02:30 5.61 59 11400 (1968) 0 (1934) 416 3 6 11 19 53 167 251 393 1920
2020-07-18 02:00 5.61 59 11400 (1968) 0 (1934) 416 3 6 11 19 53 167 251 393 1920
2020-07-18 01:30 5.61 59 11400 (1968) 0 (1934) 416 3 6 11 19 53 167 251 393 1920
2020-07-18 01:00 5.61 59 11400 (1968) 0 (1934) 416 3 6 11 19 53 167 251 393 1920
2020-07-18 00:30 5.62 60 11400 (1968) 0 (1934) 416 3 6 11 19 53 167 251 393 1920
2020-07-18 00:00 5.62 60 11400 (1968) 0 (1934) 416 3 6 11 19 53 167 251 393 1920
2020-07-17 23:30 5.62 60 6920 (1993) 0 (1934) 367 4 6 11 17 56 203 313 614 2540
2020-07-17 23:00 5.62 60 6920 (1993) 0 (1934) 367 4 6 11 17 56 203 313 614 2540
2020-07-17 22:30 5.62 60 6920 (1993) 0 (1934) 367 4 6 11 17 56 203 313 614 2540
2020-07-17 22:00 5.61 59 6920 (1993) 0 (1934) 367 4 6 11 17 56 203 313 614 2540
2020-07-17 21:30 5.62 60 6920 (1993) 0 (1934) 367 4 6 11 17 56 203 313 614 2540
2020-07-17 21:00 5.62 60 6920 (1993) 0 (1934) 367 4 6 11 17 56 203 313 614 2540
2020-07-17 20:30 5.62 60 6920 (1993) 0 (1934) 367 4 6 11 17 56 203 313 614 2540
2020-07-17 20:00 5.62 60 6920 (1993) 0 (1934) 367 4 6 11 17 56 203 313 614 2540
2020-07-17 19:30 5.63 61 6920 (1993) 0 (1934) 367 4 6 11 17 56 203 313 614 2540
2020-07-17 19:00 5.63 61 6920 (1993) 0 (1934) 367 4 6 11 17 56 203 313 614 2540
2020-07-17 18:30 5.59 56 6920 (1993) 0 (1934) 367 4 6 11 17 56 203 313 614 2540
2020-07-17 18:00 5.62 60 6920 (1993) 0 (1934) 367 4 6 11 17 56 203 313 614 2540
2020-07-17 17:30 5.63 61 6920 (1993) 0 (1934) 367 4 6 11 17 56 203 313 614 2540
2020-07-17 17:00 5.63 61 6920 (1993) 0 (1934) 367 4 6 11 17 56 203 313 614 2540
2020-07-17 16:30 5.63 61 6920 (1993) 0 (1934) 367 4 6 11 17 56 203 313 614 2540
2020-07-17 16:00 5.63 61 6920 (1993) 0 (1934) 367 4 6 11 17 56 203 313 614 2540
2020-07-17 15:30 5.63 61 6920 (1993) 0 (1934) 367 4 6 11 17 56 203 313 614 2540
2020-07-17 15:00 5.64 62 6920 (1993) 0 (1934) 367 4 6 11 17 56 203 313 614 2540
2020-07-17 14:30 5.64 62 6920 (1993) 0 (1934) 367 4 6 11 17 56 203 313 614 2540
2020-07-17 14:00 5.60 57 6920 (1993) 0 (1934) 367 4 6 11 17 56 203 313 614 2540
2020-07-17 13:30 5.60 57 6920 (1993) 0 (1934) 367 4 6 11 17 56 203 313 614 2540
2020-07-17 13:00 5.62 60 6920 (1993) 0 (1934) 367 4 6 11 17 56 203 313 614 2540
2020-07-17 12:30 5.59 56 6920 (1993) 0 (1934) 367 4 6 11 17 56 203 313 614 2540
2020-07-17 12:00 5.58 55 6920 (1993) 0 (1934) 367 4 6 11 17 56 203 313 614 2540
2020-07-17 11:30 5.58 55 6920 (1993) 0 (1934) 367 4 6 11 17 56 203 313 614 2540
2020-07-17 11:00 5.61 59 6920 (1993) 0 (1934) 367 4 6 11 17 56 203 313 614 2540
2020-07-17 10:30 5.59 56 6920 (1993) 0 (1934) 367 4 6 11 17 56 203 313 614 2540
2020-07-17 10:00 5.64 62 6920 (1993) 0 (1934) 367 4 6 11 17 56 203 313 614 2540
2020-07-17 09:30 5.63 61 6920 (1993) 0 (1934) 367 4 6 11 17 56 203 313 614 2540
2020-07-17 09:00 5.63 61 6920 (1993) 0 (1934) 367 4 6 11 17 56 203 313 614 2540
2020-07-17 08:30 5.64 62 6920 (1993) 0 (1934) 367 4 6 11 17 56 203 313 614 2540
2020-07-17 08:00 5.64 62 6920 (1993) 0 (1934) 367 4 6 11 17 56 203 313 614 2540
2020-07-17 07:30 5.65 64 6920 (1993) 0 (1934) 367 4 6 11 17 56 203 313 614 2540
2020-07-17 07:00 5.65 64 6920 (1993) 0 (1934) 367 4 6 11 17 56 203 313 614 2540
2020-07-17 06:30 5.65 64 6920 (1993) 0 (1934) 367 4 6 11 17 56 203 313 614 2540
2020-07-17 06:00 5.65 64 6920 (1993) 0 (1934) 367 4 6 11 17 56 203 313 614 2540
2020-07-17 05:30 5.65 64 6920 (1993) 0 (1934) 367 4 6 11 17 56 203 313 614 2540
2020-07-17 05:00 5.66 65 6920 (1993) 0 (1934) 367 4 6 11 17 56 203 313 614 2540
2020-07-17 04:30 5.66 65 6920 (1993) 0 (1934) 367 4 6 11 17 56 203 313 614 2540
2020-07-17 04:00 5.66 65 6920 (1993) 0 (1934) 367 4 6 11 17 56 203 313 614 2540
2020-07-17 03:30 5.66 65 6920 (1993) 0 (1934) 367 4 6 11 17 56 203 313 614 2540
2020-07-17 03:00 5.66 65 6920 (1993) 0 (1934) 367 4 6 11 17 56 203 313 614 2540
2020-07-17 02:30 5.66 65 6920 (1993) 0 (1934) 367 4 6 11 17 56 203 313 614 2540
2020-07-17 02:00 5.66 65 6920 (1993) 0 (1934) 367 4 6 11 17 56 203 313 614 2540
2020-07-17 01:30 5.66 65 6920 (1993) 0 (1934) 367 4 6 11 17 56 203 313 614 2540
2020-07-17 01:00 5.66 65 6920 (1993) 0 (1934) 367 4 6 11 17 56 203 313 614 2540
2020-07-17 00:30 5.66 65 6920 (1993) 0 (1934) 367 4 6 11 17 56 203 313 614 2540
2020-07-17 00:00 5.67 66 6920 (1993) 0 (1934) 367 4 6 11 17 56 203 313 614 2540
2020-07-16 23:30 5.66 65 26300 (1993) 0 (1934) 648 4 6 11 17 71 225 377 623 2580
2020-07-16 23:00 5.67 66 26300 (1993) 0 (1934) 648 4 6 11 17 71 225 377 623 2580
2020-07-16 22:30 5.67 66 26300 (1993) 0 (1934) 648 4 6 11 17 71 225 377 623 2580
2020-07-16 22:00 5.67 66 26300 (1993) 0 (1934) 648 4 6 11 17 71 225 377 623 2580
2020-07-16 21:30 5.67 66 26300 (1993) 0 (1934) 648 4 6 11 17 71 225 377 623 2580
2020-07-16 21:00 5.67 66 26300 (1993) 0 (1934) 648 4 6 11 17 71 225 377 623 2580
2020-07-16 20:30 5.68 68 26300 (1993) 0 (1934) 648 4 6 11 17 71 225 377 623 2580
2020-07-16 20:00 5.68 68 26300 (1993) 0 (1934) 648 4 6 11 17 71 225 377 623 2580
2020-07-16 19:30 5.68 68 26300 (1993) 0 (1934) 648 4 6 11 17 71 225 377 623 2580
2020-07-16 19:00 5.68 68 26300 (1993) 0 (1934) 648 4 6 11 17 71 225 377 623 2580
2020-07-16 18:30 5.69 69 26300 (1993) 0 (1934) 648 4 6 11 17 71 225 377 623 2580
2020-07-16 18:00 5.69 69 26300 (1993) 0 (1934) 648 4 6 11 17 71 225 377 623 2580
2020-07-16 17:30 5.67 66 26300 (1993) 0 (1934) 648 4 6 11 17 71 225 377 623 2580
2020-07-16 17:00 5.70 70 26300 (1993) 0 (1934) 648 4 6 11 17 71 225 377 623 2580
2020-07-16 16:30 5.68 68 26300 (1993) 0 (1934) 648 4 6 11 17 71 225 377 623 2580
2020-07-16 16:00 5.65 64 26300 (1993) 0 (1934) 648 4 6 11 17 71 225 377 623 2580
2020-07-16 15:30 5.69 69 26300 (1993) 0 (1934) 648 4 6 11 17 71 225 377 623 2580
2020-07-16 15:00 5.67 66 26300 (1993) 0 (1934) 648 4 6 11 17 71 225 377 623 2580
2020-07-16 14:30 5.71 72 26300 (1993) 0 (1934) 648 4 6 11 17 71 225 377 623 2580
2020-07-16 14:00 5.70 70 26300 (1993) 0 (1934) 648 4 6 11 17 71 225 377 623 2580
2020-07-16 13:30 5.71 72 26300 (1993) 0 (1934) 648 4 6 11 17 71 225 377 623 2580
2020-07-16 13:00 5.71 72 26300 (1993) 0 (1934) 648 4 6 11 17 71 225 377 623 2580
2020-07-16 12:30 5.69 69 26300 (1993) 0 (1934) 648 4 6 11 17 71 225 377 623 2580
2020-07-16 12:00 5.70 70 26300 (1993) 0 (1934) 648 4 6 11 17 71 225 377 623 2580
2020-07-16 11:30 5.70 70 26300 (1993) 0 (1934) 648 4 6 11 17 71 225 377 623 2580
2020-07-16 11:00 5.70 70 26300 (1993) 0 (1934) 648 4 6 11 17 71 225 377 623 2580
2020-07-16 10:30 5.70 70 26300 (1993) 0 (1934) 648 4 6 11 17 71 225 377 623 2580
2020-07-16 10:00 5.70 70 26300 (1993) 0 (1934) 648 4 6 11 17 71 225 377 623 2580
2020-07-16 09:30 5.70 70 26300 (1993) 0 (1934) 648 4 6 11 17 71 225 377 623 2580
2020-07-16 09:00 5.70 70 26300 (1993) 0 (1934) 648 4 6 11 17 71 225 377 623 2580
2020-07-16 08:30 5.70 70 26300 (1993) 0 (1934) 648 4 6 11 17 71 225 377 623 2580
2020-07-16 08:00 5.71 72 26300 (1993) 0 (1934) 648 4 6 11 17 71 225 377 623 2580
2020-07-16 07:30 5.71 72 26300 (1993) 0 (1934) 648 4 6 11 17 71 225 377 623 2580
2020-07-16 07:00 5.71 72 26300 (1993) 0 (1934) 648 4 6 11 17 71 225 377 623 2580
2020-07-16 06:30 5.71 72 26300 (1993) 0 (1934) 648 4 6 11 17 71 225 377 623 2580
2020-07-16 06:00 5.71 26300 (1993) 0 (1934) 648 4 6 11 17 71 225 377 623 2580
2020-07-16 05:30 72 26300 (1993) 0 (1934) 648 4 6 11 17 71 225 377 623 2580
2020-07-16 05:00 5.71 72 26300 (1993) 0 (1934) 648 4 6 11 17 71 225 377 623 2580
2020-07-16 04:30 5.71 72 26300 (1993) 0 (1934) 648 4 6 11 17 71 225 377 623 2580
2020-07-16 04:00 5.71 72 26300 (1993) 0 (1934) 648 4 6 11 17 71 225 377 623 2580
2020-07-16 03:30 5.71 72 26300 (1993) 0 (1934) 648 4 6 11 17 71 225 377 623 2580
2020-07-16 03:00 5.71 72 26300 (1993) 0 (1934) 648 4 6 11 17 71 225 377 623 2580
2020-07-16 02:30 5.71 72 26300 (1993) 0 (1934) 648 4 6 11 17 71 225 377 623 2580
2020-07-16 02:00 5.72 73 26300 (1993) 0 (1934) 648 4 6 11 17 71 225 377 623 2580
2020-07-16 01:30 5.72 73 26300 (1993) 0 (1934) 648 4 6 11 17 71 225 377 623 2580
2020-07-16 01:00 5.72 73 26300 (1993) 0 (1934) 648 4 6 11 17 71 225 377 623 2580
2020-07-16 00:30 5.72 73 26300 (1993) 0 (1934) 648 4 6 11 17 71 225 377 623 2580
2020-07-16 00:00 5.73 75 26300 (1993) 0 (1934) 648 4 6 11 17 71 225 377 623 2580
2020-07-15 23:30 5.67 66 9330 (1993) 0 (1934) 460 5 7 12 19 61 201 346 827 2820
2020-07-15 23:00 5.73 75 9330 (1993) 0 (1934) 460 5 7 12 19 61 201 346 827 2820
2020-07-15 22:30 5.70 70 9330 (1993) 0 (1934) 460 5 7 12 19 61 201 346 827 2820
2020-07-15 22:00 5.74 76 9330 (1993) 0 (1934) 460 5 7 12 19 61 201 346 827 2820
2020-07-15 21:30 5.75 78 9330 (1993) 0 (1934) 460 5 7 12 19 61 201 346 827 2820
2020-07-15 21:00 5.75 9330 (1993) 0 (1934) 460 5 7 12 19 61 201 346 827 2820
2020-07-15 20:30 78 9330 (1993) 0 (1934) 460 5 7 12 19 61 201 346 827 2820
2020-07-15 20:00 5.75 78 9330 (1993) 0 (1934) 460 5 7 12 19 61 201 346 827 2820
2020-07-15 19:30 5.70 70 9330 (1993) 0 (1934) 460 5 7 12 19 61 201 346 827 2820
2020-07-15 19:00 5.73 75 9330 (1993) 0 (1934) 460 5 7 12 19 61 201 346 827 2820
2020-07-15 18:30 5.68 68 9330 (1993) 0 (1934) 460 5 7 12 19 61 201 346 827 2820
2020-07-15 18:00 5.67 66 9330 (1993) 0 (1934) 460 5 7 12 19 61 201 346 827 2820
2020-07-15 17:30 5.64 62 9330 (1993) 0 (1934) 460 5 7 12 19 61 201 346 827 2820
2020-07-15 17:00 5.66 65 9330 (1993) 0 (1934) 460 5 7 12 19 61 201 346 827 2820
2020-07-15 16:30 5.63 61 9330 (1993) 0 (1934) 460 5 7 12 19 61 201 346 827 2820
2020-07-15 16:00 5.66 65 9330 (1993) 0 (1934) 460 5 7 12 19 61 201 346 827 2820
2020-07-15 15:30 5.65 64 9330 (1993) 0 (1934) 460 5 7 12 19 61 201 346 827 2820
2020-07-15 15:00 5.66 65 9330 (1993) 0 (1934) 460 5 7 12 19 61 201 346 827 2820
2020-07-15 14:30 5.66 65 9330 (1993) 0 (1934) 460 5 7 12 19 61 201 346 827 2820
2020-07-15 14:00 5.66 65 9330 (1993) 0 (1934) 460 5 7 12 19 61 201 346 827 2820
2020-07-15 13:30 5.66 65 9330 (1993) 0 (1934) 460 5 7 12 19 61 201 346 827 2820
2020-07-15 13:00 5.66 65 9330 (1993) 0 (1934) 460 5 7 12 19 61 201 346 827 2820
2020-07-15 12:30 5.64 62 9330 (1993) 0 (1934) 460 5 7 12 19 61 201 346 827 2820
2020-07-15 12:00 5.66 65 9330 (1993) 0 (1934) 460 5 7 12 19 61 201 346 827 2820
2020-07-15 11:30 5.60 57 9330 (1993) 0 (1934) 460 5 7 12 19 61 201 346 827 2820
2020-07-15 11:00 5.61 59 9330 (1993) 0 (1934) 460 5 7 12 19 61 201 346 827 2820
2020-07-15 10:30 5.61 59 9330 (1993) 0 (1934) 460 5 7 12 19 61 201 346 827 2820
2020-07-15 10:00 5.65 64 9330 (1993) 0 (1934) 460 5 7 12 19 61 201 346 827 2820
2020-07-15 09:30 5.64 62 9330 (1993) 0 (1934) 460 5 7 12 19 61 201 346 827 2820
2020-07-15 09:00 5.61 59 9330 (1993) 0 (1934) 460 5 7 12 19 61 201 346 827 2820
2020-07-15 08:30 5.62 60 9330 (1993) 0 (1934) 460 5 7 12 19 61 201 346 827 2820
2020-07-15 08:00 5.62 60 9330 (1993) 0 (1934) 460 5 7 12 19 61 201 346 827 2820
2020-07-15 07:30 5.61 59 9330 (1993) 0 (1934) 460 5 7 12 19 61 201 346 827 2820
2020-07-15 07:00 5.62 60 9330 (1993) 0 (1934) 460 5 7 12 19 61 201 346 827 2820
2020-07-15 06:30 5.62 60 9330 (1993) 0 (1934) 460 5 7 12 19 61 201 346 827 2820
2020-07-15 06:00 5.64 62 9330 (1993) 0 (1934) 460 5 7 12 19 61 201 346 827 2820
2020-07-15 05:30 5.64 62 9330 (1993) 0 (1934) 460 5 7 12 19 61 201 346 827 2820
2020-07-15 05:00 5.67 66 9330 (1993) 0 (1934) 460 5 7 12 19 61 201 346 827 2820
2020-07-15 04:30 5.67 66 9330 (1993) 0 (1934) 460 5 7 12 19 61 201 346 827 2820
2020-07-15 04:00 5.67 66 9330 (1993) 0 (1934) 460 5 7 12 19 61 201 346 827 2820
2020-07-15 03:30 5.67 66 9330 (1993) 0 (1934) 460 5 7 12 19 61 201 346 827 2820
2020-07-15 03:00 5.67 66 9330 (1993) 0 (1934) 460 5 7 12 19 61 201 346 827 2820
2020-07-15 02:30 5.67 66 9330 (1993) 0 (1934) 460 5 7 12 19 61 201 346 827 2820
2020-07-15 02:00 5.67 66 9330 (1993) 0 (1934) 460 5 7 12 19 61 201 346 827 2820
2020-07-15 01:30 5.67 66 9330 (1993) 0 (1934) 460 5 7 12 19 61 201 346 827 2820
2020-07-15 01:00 5.68 68 9330 (1993) 0 (1934) 460 5 7 12 19 61 201 346 827 2820
2020-07-15 00:30 5.68 68 9330 (1993) 0 (1934) 460 5 7 12 19 61 201 346 827 2820
2020-07-15 00:00 5.68 68 9330 (1993) 0 (1934) 460 5 7 12 19 61 201 346 827 2820
2020-07-14 23:30 5.68 68 4870 (1955) 0 (1934) 335 5 6 13 18 71 327 447 920 1530
2020-07-14 23:00 5.68 68 4870 (1955) 0 (1934) 335 5 6 13 18 71 327 447 920 1530
2020-07-14 22:30 5.68 68 4870 (1955) 0 (1934) 335 5 6 13 18 71 327 447 920 1530
2020-07-14 22:00 5.68 68 4870 (1955) 0 (1934) 335 5 6 13 18 71 327 447 920 1530
2020-07-14 21:30 5.68 68 4870 (1955) 0 (1934) 335 5 6 13 18 71 327 447 920 1530
2020-07-14 21:00 5.68 68 4870 (1955) 0 (1934) 335 5 6 13 18 71 327 447 920 1530
2020-07-14 20:30 5.69 69 4870 (1955) 0 (1934) 335 5 6 13 18 71 327 447 920 1530
2020-07-14 20:00 5.68 68 4870 (1955) 0 (1934) 335 5 6 13 18 71 327 447 920 1530
2020-07-14 19:30 5.69 69 4870 (1955) 0 (1934) 335 5 6 13 18 71 327 447 920 1530
2020-07-14 19:00 5.67 66 4870 (1955) 0 (1934) 335 5 6 13 18 71 327 447 920 1530
2020-07-14 18:30 5.67 66 4870 (1955) 0 (1934) 335 5 6 13 18 71 327 447 920 1530
2020-07-14 18:00 5.70 70 4870 (1955) 0 (1934) 335 5 6 13 18 71 327 447 920 1530
2020-07-14 17:30 5.70 70 4870 (1955) 0 (1934) 335 5 6 13 18 71 327 447 920 1530
2020-07-14 17:00 5.70 70 4870 (1955) 0 (1934) 335 5 6 13 18 71 327 447 920 1530
2020-07-14 16:30 5.70 70 4870 (1955) 0 (1934) 335 5 6 13 18 71 327 447 920 1530
2020-07-14 16:00 5.71 72 4870 (1955) 0 (1934) 335 5 6 13 18 71 327 447 920 1530
2020-07-14 15:30 5.71 72 4870 (1955) 0 (1934) 335 5 6 13 18 71 327 447 920 1530
2020-07-14 15:00 5.67 66 4870 (1955) 0 (1934) 335 5 6 13 18 71 327 447 920 1530
2020-07-14 14:30 5.68 68 4870 (1955) 0 (1934) 335 5 6 13 18 71 327 447 920 1530
2020-07-14 14:00 5.66 65 4870 (1955) 0 (1934) 335 5 6 13 18 71 327 447 920 1530
2020-07-14 13:30 5.67 66 4870 (1955) 0 (1934) 335 5 6 13 18 71 327 447 920 1530
2020-07-14 13:00 5.71 72 4870 (1955) 0 (1934) 335 5 6 13 18 71 327 447 920 1530
2020-07-14 12:30 5.71 72 4870 (1955) 0 (1934) 335 5 6 13 18 71 327 447 920 1530
2020-07-14 12:00 5.71 72 4870 (1955) 0 (1934) 335 5 6 13 18 71 327 447 920 1530
2020-07-14 11:30 5.65 64 4870 (1955) 0 (1934) 335 5 6 13 18 71 327 447 920 1530
2020-07-14 11:00 5.66 65 4870 (1955) 0 (1934) 335 5 6 13 18 71 327 447 920 1530
2020-07-14 10:30 5.67 66 4870 (1955) 0 (1934) 335 5 6 13 18 71 327 447 920 1530
2020-07-14 10:00 5.68 68 4870 (1955) 0 (1934) 335 5 6 13 18 71 327 447 920 1530
2020-07-14 09:30 5.66 65 4870 (1955) 0 (1934) 335 5 6 13 18 71 327 447 920 1530
2020-07-14 09:00 5.71 72 4870 (1955) 0 (1934) 335 5 6 13 18 71 327 447 920 1530
2020-07-14 08:30 5.71 72 4870 (1955) 0 (1934) 335 5 6 13 18 71 327 447 920 1530
2020-07-14 08:00 5.71 72 4870 (1955) 0 (1934) 335 5 6 13 18 71 327 447 920 1530
2020-07-14 07:30 5.71 72 4870 (1955) 0 (1934) 335 5 6 13 18 71 327 447 920 1530
2020-07-14 07:00 5.72 73 4870 (1955) 0 (1934) 335 5 6 13 18 71 327 447 920 1530
2020-07-14 06:30 5.72 73 4870 (1955) 0 (1934) 335 5 6 13 18 71 327 447 920 1530
2020-07-14 06:00 5.72 73 4870 (1955) 0 (1934) 335 5 6 13 18 71 327 447 920 1530
2020-07-14 05:30 5.72 73 4870 (1955) 0 (1934) 335 5 6 13 18 71 327 447 920 1530
2020-07-14 05:00 5.73 75 4870 (1955) 0 (1934) 335 5 6 13 18 71 327 447 920 1530
2020-07-14 04:30 5.73 75 4870 (1955) 0 (1934) 335 5 6 13 18 71 327 447 920 1530
2020-07-14 04:00 5.73 75 4870 (1955) 0 (1934) 335 5 6 13 18 71 327 447 920 1530
2020-07-14 03:30 5.73 75 4870 (1955) 0 (1934) 335 5 6 13 18 71 327 447 920 1530
2020-07-14 03:00 5.74 76 4870 (1955) 0 (1934) 335 5 6 13 18 71 327 447 920 1530
2020-07-14 02:30 5.74 76 4870 (1955) 0 (1934) 335 5 6 13 18 71 327 447 920 1530
2020-07-14 02:00 5.73 75 4870 (1955) 0 (1934) 335 5 6 13 18 71 327 447 920 1530
2020-07-14 01:30 5.73 75 4870 (1955) 0 (1934) 335 5 6 13 18 71 327 447 920 1530
2020-07-14 01:00 5.73 75 4870 (1955) 0 (1934) 335 5 6 13 18 71 327 447 920 1530
2020-07-14 00:30 5.73 75 4870 (1955) 0 (1934) 335 5 6 13 18 71 327 447 920 1530
2020-07-14 00:00 5.74 76 4870 (1955) 0 (1934) 335 5 6 13 18 71 327 447 920 1530
2020-07-13 23:30 5.74 76 4160 (1935) 0 (1934) 291 6 7 14 20 70 309 397 918 1440
2020-07-13 23:00 5.74 76 4160 (1935) 0 (1934) 291 6 7 14 20 70 309 397 918 1440
2020-07-13 22:30 5.74 76 4160 (1935) 0 (1934) 291 6 7 14 20 70 309 397 918 1440
2020-07-13 22:00 5.74 76 4160 (1935) 0 (1934) 291 6 7 14 20 70 309 397 918 1440
2020-07-13 21:30 5.74 76 4160 (1935) 0 (1934) 291 6 7 14 20 70 309 397 918 1440
2020-07-13 21:00 5.74 76 4160 (1935) 0 (1934) 291 6 7 14 20 70 309 397 918 1440
2020-07-13 20:30 5.75 78 4160 (1935) 0 (1934) 291 6 7 14 20 70 309 397 918 1440
2020-07-13 20:00 5.75 78 4160 (1935) 0 (1934) 291 6 7 14 20 70 309 397 918 1440
2020-07-13 19:30 5.75 78 4160 (1935) 0 (1934) 291 6 7 14 20 70 309 397 918 1440
2020-07-13 19:00 5.75 78 4160 (1935) 0 (1934) 291 6 7 14 20 70 309 397 918 1440
2020-07-13 18:30 5.73 75 4160 (1935) 0 (1934) 291 6 7 14 20 70 309 397 918 1440
2020-07-13 18:00 5.76 79 4160 (1935) 0 (1934) 291 6 7 14 20 70 309 397 918 1440
2020-07-13 17:30 5.76 79 4160 (1935) 0 (1934) 291 6 7 14 20 70 309 397 918 1440
2020-07-13 17:00 5.77 81 4160 (1935) 0 (1934) 291 6 7 14 20 70 309 397 918 1440
2020-07-13 16:30 5.77 81 4160 (1935) 0 (1934) 291 6 7 14 20 70 309 397 918 1440
2020-07-13 16:00 5.77 81 4160 (1935) 0 (1934) 291 6 7 14 20 70 309 397 918 1440
2020-07-13 15:30 5.76 79 4160 (1935) 0 (1934) 291 6 7 14 20 70 309 397 918 1440
2020-07-13 15:00 5.78 82 4160 (1935) 0 (1934) 291 6 7 14 20 70 309 397 918 1440
2020-07-13 14:30 5.78 82 4160 (1935) 0 (1934) 291 6 7 14 20 70 309 397 918 1440
2020-07-13 14:00 5.77 81 4160 (1935) 0 (1934) 291 6 7 14 20 70 309 397 918 1440
2020-07-13 13:30 5.75 78 4160 (1935) 0 (1934) 291 6 7 14 20 70 309 397 918 1440
2020-07-13 13:00 5.77 81 4160 (1935) 0 (1934) 291 6 7 14 20 70 309 397 918 1440
2020-07-13 12:30 5.78 82 4160 (1935) 0 (1934) 291 6 7 14 20 70 309 397 918 1440
2020-07-13 12:00 5.72 73 4160 (1935) 0 (1934) 291 6 7 14 20 70 309 397 918 1440
2020-07-13 11:30 5.71 72 4160 (1935) 0 (1934) 291 6 7 14 20 70 309 397 918 1440
2020-07-13 11:00 5.71 72 4160 (1935) 0 (1934) 291 6 7 14 20 70 309 397 918 1440
2020-07-13 10:30 5.77 81 4160 (1935) 0 (1934) 291 6 7 14 20 70 309 397 918 1440
2020-07-13 10:00 5.77 81 4160 (1935) 0 (1934) 291 6 7 14 20 70 309 397 918 1440
2020-07-13 09:30 5.77 81 4160 (1935) 0 (1934) 291 6 7 14 20 70 309 397 918 1440
2020-07-13 09:00 5.77 81 4160 (1935) 0 (1934) 291 6 7 14 20 70 309 397 918 1440
2020-07-13 08:30 5.73 75 4160 (1935) 0 (1934) 291 6 7 14 20 70 309 397 918 1440
2020-07-13 08:00 5.78 82 4160 (1935) 0 (1934) 291 6 7 14 20 70 309 397 918 1440
2020-07-13 07:30 5.78 82 4160 (1935) 0 (1934) 291 6 7 14 20 70 309 397 918 1440
2020-07-13 07:00 5.79 84 4160 (1935) 0 (1934) 291 6 7 14 20 70 309 397 918 1440
2020-07-13 06:30 5.78 82 4160 (1935) 0 (1934) 291 6 7 14 20 70 309 397 918 1440
2020-07-13 06:00 5.79 84 4160 (1935) 0 (1934) 291 6 7 14 20 70 309 397 918 1440
2020-07-13 05:30 5.79 84 4160 (1935) 0 (1934) 291 6 7 14 20 70 309 397 918 1440
2020-07-13 05:00 5.79 84 4160 (1935) 0 (1934) 291 6 7 14 20 70 309 397 918 1440
2020-07-13 04:30 5.79 84 4160 (1935) 0 (1934) 291 6 7 14 20 70 309 397 918 1440
2020-07-13 04:00 5.79 84 4160 (1935) 0 (1934) 291 6 7 14 20 70 309 397 918 1440
2020-07-13 03:30 5.79 84 4160 (1935) 0 (1934) 291 6 7 14 20 70 309 397 918 1440
2020-07-13 03:00 5.80 86 4160 (1935) 0 (1934) 291 6 7 14 20 70 309 397 918 1440
2020-07-13 02:30 5.79 84 4160 (1935) 0 (1934) 291 6 7 14 20 70 309 397 918 1440
2020-07-13 02:00 5.80 86 4160 (1935) 0 (1934) 291 6 7 14 20 70 309 397 918 1440
2020-07-13 01:30 5.80 86 4160 (1935) 0 (1934) 291 6 7 14 20 70 309 397 918 1440
2020-07-13 01:00 5.80 86 4160 (1935) 0 (1934) 291 6 7 14 20 70 309 397 918 1440
2020-07-13 00:30 5.80 86 4160 (1935) 0 (1934) 291 6 7 14 20 70 309 397 918 1440
2020-07-13 00:00 5.80 86 4160 (1935) 0 (1934) 291 6 7 14 20 70 309 397 918 1440
2020-07-12 23:30 5.81 87 12300 (1991) 0 (1934) 484 5 7 15 24 77 298 478 950 2860
2020-07-12 23:00 5.81 87 12300 (1991) 0 (1934) 484 5 7 15 24 77 298 478 950 2860
2020-07-12 22:30 5.81 87 12300 (1991) 0 (1934) 484 5 7 15 24 77 298 478 950 2860
2020-07-12 22:00 5.81 87 12300 (1991) 0 (1934) 484 5 7 15 24 77 298 478 950 2860
2020-07-12 21:30 5.81 87 12300 (1991) 0 (1934) 484 5 7 15 24 77 298 478 950 2860
2020-07-12 21:00 5.81 87 12300 (1991) 0 (1934) 484 5 7 15 24 77 298 478 950 2860
2020-07-12 20:30 5.81 87 12300 (1991) 0 (1934) 484 5 7 15 24 77 298 478 950 2860
2020-07-12 20:00 5.82 89 12300 (1991) 0 (1934) 484 5 7 15 24 77 298 478 950 2860
2020-07-12 19:30 5.82 89 12300 (1991) 0 (1934) 484 5 7 15 24 77 298 478 950 2860
2020-07-12 19:00 5.82 89 12300 (1991) 0 (1934) 484 5 7 15 24 77 298 478 950 2860
2020-07-12 18:30 5.83 91 12300 (1991) 0 (1934) 484 5 7 15 24 77 298 478 950 2860
2020-07-12 18:00 5.83 91 12300 (1991) 0 (1934) 484 5 7 15 24 77 298 478 950 2860
2020-07-12 17:30 5.79 84 12300 (1991) 0 (1934) 484 5 7 15 24 77 298 478 950 2860
2020-07-12 17:00 5.84 92 12300 (1991) 0 (1934) 484 5 7 15 24 77 298 478 950 2860
2020-07-12 16:30 5.84 92 12300 (1991) 0 (1934) 484 5 7 15 24 77 298 478 950 2860
2020-07-12 16:00 5.84 92 12300 (1991) 0 (1934) 484 5 7 15 24 77 298 478 950 2860
2020-07-12 15:30 5.85 94 12300 (1991) 0 (1934) 484 5 7 15 24 77 298 478 950 2860
2020-07-12 15:00 5.85 94 12300 (1991) 0 (1934) 484 5 7 15 24 77 298 478 950 2860
2020-07-12 14:30 5.85 94 12300 (1991) 0 (1934) 484 5 7 15 24 77 298 478 950 2860
2020-07-12 14:00 5.85 94 12300 (1991) 0 (1934) 484 5 7 15 24 77 298 478 950 2860
2020-07-12 13:30 5.83 91 12300 (1991) 0 (1934) 484 5 7 15 24 77 298 478 950 2860
2020-07-12 13:00 5.86 96 12300 (1991) 0 (1934) 484 5 7 15 24 77 298 478 950 2860
2020-07-12 12:30 5.85 94 12300 (1991) 0 (1934) 484 5 7 15 24 77 298 478 950 2860
2020-07-12 12:00 5.85 94 12300 (1991) 0 (1934) 484 5 7 15 24 77 298 478 950 2860
2020-07-12 11:30 5.85 94 12300 (1991) 0 (1934) 484 5 7 15 24 77 298 478 950 2860
2020-07-12 11:00 5.85 94 12300 (1991) 0 (1934) 484 5 7 15 24 77 298 478 950 2860
2020-07-12 10:30 5.81 87 12300 (1991) 0 (1934) 484 5 7 15 24 77 298 478 950 2860
2020-07-12 10:00 5.82 89 12300 (1991) 0 (1934) 484 5 7 15 24 77 298 478 950 2860
2020-07-12 09:30 5.83 91 12300 (1991) 0 (1934) 484 5 7 15 24 77 298 478 950 2860
2020-07-12 09:00 5.79 84 12300 (1991) 0 (1934) 484 5 7 15 24 77 298 478 950 2860
2020-07-12 08:30 5.84 92 12300 (1991) 0 (1934) 484 5 7 15 24 77 298 478 950 2860
2020-07-12 08:00 5.83 91 12300 (1991) 0 (1934) 484 5 7 15 24 77 298 478 950 2860
2020-07-12 07:30 5.87 98 12300 (1991) 0 (1934) 484 5 7 15 24 77 298 478 950 2860
2020-07-12 07:00 5.87 98 12300 (1991) 0 (1934) 484 5 7 15 24 77 298 478 950 2860
2020-07-12 06:30 5.87 98 12300 (1991) 0 (1934) 484 5 7 15 24 77 298 478 950 2860
2020-07-12 06:00 5.87 98 12300 (1991) 0 (1934) 484 5 7 15 24 77 298 478 950 2860
2020-07-12 05:30 5.87 98 12300 (1991) 0 (1934) 484 5 7 15 24 77 298 478 950 2860
2020-07-12 05:00 5.88 99 12300 (1991) 0 (1934) 484 5 7 15 24 77 298 478 950 2860
2020-07-12 04:30 5.88 99 12300 (1991) 0 (1934) 484 5 7 15 24 77 298 478 950 2860
2020-07-12 04:00 5.88 99 12300 (1991) 0 (1934) 484 5 7 15 24 77 298 478 950 2860
2020-07-12 03:30 5.88 99 12300 (1991) 0 (1934) 484 5 7 15 24 77 298 478 950 2860
2020-07-12 03:00 5.88 99 12300 (1991) 0 (1934) 484 5 7 15 24 77 298 478 950 2860
2020-07-12 02:30 5.88 99 12300 (1991) 0 (1934) 484 5 7 15 24 77 298 478 950 2860
2020-07-12 02:00 5.88 99 12300 (1991) 0 (1934) 484 5 7 15 24 77 298 478 950 2860
2020-07-12 01:30 5.89 101 12300 (1991) 0 (1934) 484 5 7 15 24 77 298 478 950 2860
2020-07-12 01:00 5.89 101 12300 (1991) 0 (1934) 484 5 7 15 24 77 298 478 950 2860
2020-07-12 00:30 5.89 101 12300 (1991) 0 (1934) 484 5 7 15 24 77 298 478 950 2860
2020-07-12 00:00 5.89 101 12300 (1991) 0 (1934) 484 5 7 15 24 77 298 478 950 2860
2020-07-11 23:30 5.88 99 25000 (1991) 1 (1934) 799 5 8 16 22 70 229 371 1310 2480
2020-07-11 23:00 5.90 103 25000 (1991) 1 (1934) 799 5 8 16 22 70 229 371 1310 2480
2020-07-11 22:30 5.90 103 25000 (1991) 1 (1934) 799 5 8 16 22 70 229 371 1310 2480
2020-07-11 22:00 5.90 103 25000 (1991) 1 (1934) 799 5 8 16 22 70 229 371 1310 2480
2020-07-11 21:30 5.90 103 25000 (1991) 1 (1934) 799 5 8 16 22 70 229 371 1310 2480
2020-07-11 21:00 5.90 103 25000 (1991) 1 (1934) 799 5 8 16 22 70 229 371 1310 2480
2020-07-11 20:30 5.90 103 25000 (1991) 1 (1934) 799 5 8 16 22 70 229 371 1310 2480
2020-07-11 20:00 5.91 105 25000 (1991) 1 (1934) 799 5 8 16 22 70 229 371 1310 2480
2020-07-11 19:30 5.91 105 25000 (1991) 1 (1934) 799 5 8 16 22 70 229 371 1310 2480
2020-07-11 19:00 5.91 105 25000 (1991) 1 (1934) 799 5 8 16 22 70 229 371 1310 2480
2020-07-11 18:30 5.92 107 25000 (1991) 1 (1934) 799 5 8 16 22 70 229 371 1310 2480
2020-07-11 18:00 5.92 107 25000 (1991) 1 (1934) 799 5 8 16 22 70 229 371 1310 2480
2020-07-11 17:30 5.88 99 25000 (1991) 1 (1934) 799 5 8 16 22 70 229 371 1310 2480
2020-07-11 17:00 5.87 98 25000 (1991) 1 (1934) 799 5 8 16 22 70 229 371 1310 2480
2020-07-11 16:30 5.89 101 25000 (1991) 1 (1934) 799 5 8 16 22 70 229 371 1310 2480
2020-07-11 16:00 5.87 98 25000 (1991) 1 (1934) 799 5 8 16 22 70 229 371 1310 2480
2020-07-11 15:30 5.89 101 25000 (1991) 1 (1934) 799 5 8 16 22 70 229 371 1310 2480
2020-07-11 15:00 5.89 101 25000 (1991) 1 (1934) 799 5 8 16 22 70 229 371 1310 2480
2020-07-11 14:30 5.91 105 25000 (1991) 1 (1934) 799 5 8 16 22 70 229 371 1310 2480
2020-07-11 14:00 5.89 101 25000 (1991) 1 (1934) 799 5 8 16 22 70 229 371 1310 2480
2020-07-11 13:30 5.92 107 25000 (1991) 1 (1934) 799 5 8 16 22 70 229 371 1310 2480
2020-07-11 13:00 5.89 101 25000 (1991) 1 (1934) 799 5 8 16 22 70 229 371 1310 2480
2020-07-11 12:30 5.90 103 25000 (1991) 1 (1934) 799 5 8 16 22 70 229 371 1310 2480
2020-07-11 12:00 5.91 105 25000 (1991) 1 (1934) 799 5 8 16 22 70 229 371 1310 2480
2020-07-11 11:30 5.90 103 25000 (1991) 1 (1934) 799 5 8 16 22 70 229 371 1310 2480
2020-07-11 11:00 5.95 113 25000 (1991) 1 (1934) 799 5 8 16 22 70 229 371 1310 2480
2020-07-11 10:30 5.95 113 25000 (1991) 1 (1934) 799 5 8 16 22 70 229 371 1310 2480
2020-07-11 10:00 5.95 113 25000 (1991) 1 (1934) 799 5 8 16 22 70 229 371 1310 2480
2020-07-11 09:30 5.95 113 25000 (1991) 1 (1934) 799 5 8 16 22 70 229 371 1310 2480
2020-07-11 09:00 5.95 113 25000 (1991) 1 (1934) 799 5 8 16 22 70 229 371 1310 2480
2020-07-11 08:30 5.96 115 25000 (1991) 1 (1934) 799 5 8 16 22 70 229 371 1310 2480
2020-07-11 08:00 5.97 117 25000 (1991) 1 (1934) 799 5 8 16 22 70 229 371 1310 2480
2020-07-11 07:30 5.97 117 25000 (1991) 1 (1934) 799 5 8 16 22 70 229 371 1310 2480
2020-07-11 07:00 5.98 119 25000 (1991) 1 (1934) 799 5 8 16 22 70 229 371 1310 2480
2020-07-11 06:30 5.98 119 25000 (1991) 1 (1934) 799 5 8 16 22 70 229 371 1310 2480
2020-07-11 06:00 5.98 119 25000 (1991) 1 (1934) 799 5 8 16 22 70 229 371 1310 2480
2020-07-11 05:30 5.98 119 25000 (1991) 1 (1934) 799 5 8 16 22 70 229 371 1310 2480
2020-07-11 05:00 5.98 119 25000 (1991) 1 (1934) 799 5 8 16 22 70 229 371 1310 2480
2020-07-11 04:30 5.99 121 25000 (1991) 1 (1934) 799 5 8 16 22 70 229 371 1310 2480
2020-07-11 04:00 5.99 121 25000 (1991) 1 (1934) 799 5 8 16 22 70 229 371 1310 2480
2020-07-11 03:30 6.00 123 25000 (1991) 1 (1934) 799 5 8 16 22 70 229 371 1310 2480
2020-07-11 03:00 6.00 123 25000 (1991) 1 (1934) 799 5 8 16 22 70 229 371 1310 2480
2020-07-11 02:30 6.00 123 25000 (1991) 1 (1934) 799 5 8 16 22 70 229 371 1310 2480
2020-07-11 02:00 6.00 123 25000 (1991) 1 (1934) 799 5 8 16 22 70 229 371 1310 2480
2020-07-11 01:30 6.01 125 25000 (1991) 1 (1934) 799 5 8 16 22 70 229 371 1310 2480
2020-07-11 01:00 6.01 125 25000 (1991) 1 (1934) 799 5 8 16 22 70 229 371 1310 2480
2020-07-11 00:30 6.01 125 25000 (1991) 1 (1934) 799 5 8 16 22 70 229 371 1310 2480
2020-07-11 00:00 6.02 127 25000 (1991) 1 (1934) 799 5 8 16 22 70 229 371 1310 2480
2020-07-10 23:30 6.02 127 17400 (1969) 1 (1934) 835 5 9 15 20 68 249 321 1530 4940
2020-07-10 23:00 6.02 127 17400 (1969) 1 (1934) 835 5 9 15 20 68 249 321 1530 4940
2020-07-10 22:30 6.03 129 17400 (1969) 1 (1934) 835 5 9 15 20 68 249 321 1530 4940
2020-07-10 22:00 6.03 129 17400 (1969) 1 (1934) 835 5 9 15 20 68 249 321 1530 4940
2020-07-10 21:30 6.03 129 17400 (1969) 1 (1934) 835 5 9 15 20 68 249 321 1530 4940
2020-07-10 21:00 6.03 129 17400 (1969) 1 (1934) 835 5 9 15 20 68 249 321 1530 4940
2020-07-10 20:30 6.03 129 17400 (1969) 1 (1934) 835 5 9 15 20 68 249 321 1530 4940
2020-07-10 20:00 6.04 132 17400 (1969) 1 (1934) 835 5 9 15 20 68 249 321 1530 4940
2020-07-10 19:30 6.04 132 17400 (1969) 1 (1934) 835 5 9 15 20 68 249 321 1530 4940
2020-07-10 19:00 6.04 132 17400 (1969) 1 (1934) 835 5 9 15 20 68 249 321 1530 4940
2020-07-10 18:30 6.05 134 17400 (1969) 1 (1934) 835 5 9 15 20 68 249 321 1530 4940
2020-07-10 18:00 6.05 134 17400 (1969) 1 (1934) 835 5 9 15 20 68 249 321 1530 4940
2020-07-10 17:30 6.05 134 17400 (1969) 1 (1934) 835 5 9 15 20 68 249 321 1530 4940
2020-07-10 17:00 6.03 129 17400 (1969) 1 (1934) 835 5 9 15 20 68 249 321 1530 4940
2020-07-10 16:30 6.07 138 17400 (1969) 1 (1934) 835 5 9 15 20 68 249 321 1530 4940
2020-07-10 16:00 6.07 138 17400 (1969) 1 (1934) 835 5 9 15 20 68 249 321 1530 4940
2020-07-10 15:30 6.08 141 17400 (1969) 1 (1934) 835 5 9 15 20 68 249 321 1530 4940
2020-07-10 15:00 6.06 136 17400 (1969) 1 (1934) 835 5 9 15 20 68 249 321 1530 4940
2020-07-10 14:30 6.09 143 17400 (1969) 1 (1934) 835 5 9 15 20 68 249 321 1530 4940
2020-07-10 14:00 6.09 143 17400 (1969) 1 (1934) 835 5 9 15 20 68 249 321 1530 4940
2020-07-10 13:30 6.09 143 17400 (1969) 1 (1934) 835 5 9 15 20 68 249 321 1530 4940
2020-07-10 13:00 6.05 134 17400 (1969) 1 (1934) 835 5 9 15 20 68 249 321 1530 4940
2020-07-10 12:30 6.07 138 17400 (1969) 1 (1934) 835 5 9 15 20 68 249 321 1530 4940
2020-07-10 12:00 6.08 141 17400 (1969) 1 (1934) 835 5 9 15 20 68 249 321 1530 4940
2020-07-10 11:30 6.05 134 17400 (1969) 1 (1934) 835 5 9 15 20 68 249 321 1530 4940
2020-07-10 11:00 6.08 141 17400 (1969) 1 (1934) 835 5 9 15 20 68 249 321 1530 4940
2020-07-10 10:30 6.08 141 17400 (1969) 1 (1934) 835 5 9 15 20 68 249 321 1530 4940
2020-07-10 10:00 6.07 138 17400 (1969) 1 (1934) 835 5 9 15 20 68 249 321 1530 4940
2020-07-10 09:30 6.07 138 17400 (1969) 1 (1934) 835 5 9 15 20 68 249 321 1530 4940
2020-07-10 09:00 6.06 136 17400 (1969) 1 (1934) 835 5 9 15 20 68 249 321 1530 4940
2020-07-10 08:30 6.06 136 17400 (1969) 1 (1934) 835 5 9 15 20 68 249 321 1530 4940
2020-07-10 08:00 6.06 17400 (1969) 1 (1934) 835 5 9 15 20 68 249 321 1530 4940
2020-07-10 07:30 6.06 136 17400 (1969) 1 (1934) 835 5 9 15 20 68 249 321 1530 4940
2020-07-10 07:00 6.05 134 17400 (1969) 1 (1934) 835 5 9 15 20 68 249 321 1530 4940
2020-07-10 06:30 6.05 134 17400 (1969) 1 (1934) 835 5 9 15 20 68 249 321 1530 4940
2020-07-10 06:00 6.05 134 17400 (1969) 1 (1934) 835 5 9 15 20 68 249 321 1530 4940
2020-07-10 05:30 6.04 132 17400 (1969) 1 (1934) 835 5 9 15 20 68 249 321 1530 4940
2020-07-10 05:00 6.04 17400 (1969) 1 (1934) 835 5 9 15 20 68 249 321 1530 4940
2020-07-10 04:30 6.04 132 17400 (1969) 1 (1934) 835 5 9 15 20 68 249 321 1530 4940
2020-07-10 04:00 6.04 132 17400 (1969) 1 (1934) 835 5 9 15 20 68 249 321 1530 4940
2020-07-10 03:30 6.03 129 17400 (1969) 1 (1934) 835 5 9 15 20 68 249 321 1530 4940
2020-07-10 03:00 6.04 132 17400 (1969) 1 (1934) 835 5 9 15 20 68 249 321 1530 4940
2020-07-10 02:30 6.05 134 17400 (1969) 1 (1934) 835 5 9 15 20 68 249 321 1530 4940
2020-07-10 02:00 6.05 134 17400 (1969) 1 (1934) 835 5 9 15 20 68 249 321 1530 4940
2020-07-10 01:30 6.05 134 17400 (1969) 1 (1934) 835 5 9 15 20 68 249 321 1530 4940
2020-07-10 01:00 6.06 136 17400 (1969) 1 (1934) 835 5 9 15 20 68 249 321 1530 4940
2020-07-10 00:30 6.06 136 17400 (1969) 1 (1934) 835 5 9 15 20 68 249 321 1530 4940
2020-07-10 00:00 6.03 129 17400 (1969) 1 (1934) 835 5 9 15 20 68 249 321 1530 4940
2020-07-09 23:30 6.03 129 16100 (2015) 0 (1934) 661 5 10 14 19 67 230 297 952 4730
2020-07-09 23:00 6.06 136 16100 (2015) 0 (1934) 661 5 10 14 19 67 230 297 952 4730
2020-07-09 22:30 6.07 138 16100 (2015) 0 (1934) 661 5 10 14 19 67 230 297 952 4730
2020-07-09 22:00 6.07 138 16100 (2015) 0 (1934) 661 5 10 14 19 67 230 297 952 4730
2020-07-09 21:30 6.07 138 16100 (2015) 0 (1934) 661 5 10 14 19 67 230 297 952 4730
2020-07-09 21:00 6.08 141 16100 (2015) 0 (1934) 661 5 10 14 19 67 230 297 952 4730
2020-07-09 20:30 6.08 141 16100 (2015) 0 (1934) 661 5 10 14 19 67 230 297 952 4730
2020-07-09 20:00 6.08 141 16100 (2015) 0 (1934) 661 5 10 14 19 67 230 297 952 4730
2020-07-09 19:30 6.08 141 16100 (2015) 0 (1934) 661 5 10 14 19 67 230 297 952 4730
2020-07-09 19:00 6.09 143 16100 (2015) 0 (1934) 661 5 10 14 19 67 230 297 952 4730
2020-07-09 18:30 6.09 143 16100 (2015) 0 (1934) 661 5 10 14 19 67 230 297 952 4730
2020-07-09 18:00 6.10 146 16100 (2015) 0 (1934) 661 5 10 14 19 67 230 297 952 4730
2020-07-09 17:30 6.10 146 16100 (2015) 0 (1934) 661 5 10 14 19 67 230 297 952 4730
2020-07-09 17:00 6.11 148 16100 (2015) 0 (1934) 661 5 10 14 19 67 230 297 952 4730
2020-07-09 16:30 6.11 148 16100 (2015) 0 (1934) 661 5 10 14 19 67 230 297 952 4730
2020-07-09 16:00 6.11 148 16100 (2015) 0 (1934) 661 5 10 14 19 67 230 297 952 4730
2020-07-09 15:30 6.12 150 16100 (2015) 0 (1934) 661 5 10 14 19 67 230 297 952 4730
2020-07-09 15:00 6.12 150 16100 (2015) 0 (1934) 661 5 10 14 19 67 230 297 952 4730
2020-07-09 14:30 6.13 153 16100 (2015) 0 (1934) 661 5 10 14 19 67 230 297 952 4730
2020-07-09 14:00 6.13 153 16100 (2015) 0 (1934) 661 5 10 14 19 67 230 297 952 4730
2020-07-09 13:30 153 16100 (2015) 0 (1934) 661 5 10 14 19 67 230 297 952 4730
2020-07-09 13:00 6.13 153 16100 (2015) 0 (1934) 661 5 10 14 19 67 230 297 952 4730
2020-07-09 12:30 6.13 153 16100 (2015) 0 (1934) 661 5 10 14 19 67 230 297 952 4730
2020-07-09 12:00 6.13 153 16100 (2015) 0 (1934) 661 5 10 14 19 67 230 297 952 4730
2020-07-09 11:30 6.14 155 16100 (2015) 0 (1934) 661 5 10 14 19 67 230 297 952 4730
2020-07-09 11:00 6.14 155 16100 (2015) 0 (1934) 661 5 10 14 19 67 230 297 952 4730
2020-07-09 10:30 6.14 155 16100 (2015) 0 (1934) 661 5 10 14 19 67 230 297 952 4730
2020-07-09 10:00 6.14 155 16100 (2015) 0 (1934) 661 5 10 14 19 67 230 297 952 4730
2020-07-09 09:30 6.14 155 16100 (2015) 0 (1934) 661 5 10 14 19 67 230 297 952 4730
2020-07-09 09:00 6.15 158 16100 (2015) 0 (1934) 661 5 10 14 19 67 230 297 952 4730
2020-07-09 08:30 6.15 158 16100 (2015) 0 (1934) 661 5 10 14 19 67 230 297 952 4730
2020-07-09 08:00 158 16100 (2015) 0 (1934) 661 5 10 14 19 67 230 297 952 4730
2020-07-09 07:30 6.16 160 16100 (2015) 0 (1934) 661 5 10 14 19 67 230 297 952 4730
2020-07-09 07:00 6.16 160 16100 (2015) 0 (1934) 661 5 10 14 19 67 230 297 952 4730
2020-07-09 06:30 6.16 160 16100 (2015) 0 (1934) 661 5 10 14 19 67 230 297 952 4730
2020-07-09 06:00 6.17 163 16100 (2015) 0 (1934) 661 5 10 14 19 67 230 297 952 4730
2020-07-09 05:30 6.17 163 16100 (2015) 0 (1934) 661 5 10 14 19 67 230 297 952 4730
2020-07-09 05:00 6.17 163 16100 (2015) 0 (1934) 661 5 10 14 19 67 230 297 952 4730
2020-07-09 04:30 6.18 166 16100 (2015) 0 (1934) 661 5 10 14 19 67 230 297 952 4730
2020-07-09 04:00 6.18 166 16100 (2015) 0 (1934) 661 5 10 14 19 67 230 297 952 4730
2020-07-09 03:30 6.18 166 16100 (2015) 0 (1934) 661 5 10 14 19 67 230 297 952 4730
2020-07-09 03:00 6.18 166 16100 (2015) 0 (1934) 661 5 10 14 19 67 230 297 952 4730
2020-07-09 02:30 6.19 168 16100 (2015) 0 (1934) 661 5 10 14 19 67 230 297 952 4730
2020-07-09 02:00 6.19 168 16100 (2015) 0 (1934) 661 5 10 14 19 67 230 297 952 4730
2020-07-09 01:30 6.20 171 16100 (2015) 0 (1934) 661 5 10 14 19 67 230 297 952 4730
2020-07-09 01:00 171 16100 (2015) 0 (1934) 661 5 10 14 19 67 230 297 952 4730
2020-07-09 00:30 6.20 171 16100 (2015) 0 (1934) 661 5 10 14 19 67 230 297 952 4730
2020-07-09 00:00 6.20 171 16100 (2015) 0 (1934) 661 5 10 14 19 67 230 297 952 4730
2020-07-08 23:30 6.21 174 23400 (1993) 1 (1934) 716 5 9 16 19 69 221 335 640 3090
2020-07-08 23:00 6.21 174 23400 (1993) 1 (1934) 716 5 9 16 19 69 221 335 640 3090
2020-07-08 22:30 6.22 176 23400 (1993) 1 (1934) 716 5 9 16 19 69 221 335 640 3090
2020-07-08 22:00 6.22 176 23400 (1993) 1 (1934) 716 5 9 16 19 69 221 335 640 3090
2020-07-08 21:30 6.22 176 23400 (1993) 1 (1934) 716 5 9 16 19 69 221 335 640 3090
2020-07-08 21:00 6.23 179 23400 (1993) 1 (1934) 716 5 9 16 19 69 221 335 640 3090
2020-07-08 20:30 6.23 179 23400 (1993) 1 (1934) 716 5 9 16 19 69 221 335 640 3090
2020-07-08 20:00 6.24 182 23400 (1993) 1 (1934) 716 5 9 16 19 69 221 335 640 3090
2020-07-08 19:30 6.24 182 23400 (1993) 1 (1934) 716 5 9 16 19 69 221 335 640 3090
2020-07-08 19:00 6.24 182 23400 (1993) 1 (1934) 716 5 9 16 19 69 221 335 640 3090
2020-07-08 18:30 6.25 185 23400 (1993) 1 (1934) 716 5 9 16 19 69 221 335 640 3090
2020-07-08 18:00 6.25 185 23400 (1993) 1 (1934) 716 5 9 16 19 69 221 335 640 3090
2020-07-08 17:30 6.25 185 23400 (1993) 1 (1934) 716 5 9 16 19 69 221 335 640 3090
2020-07-08 17:00 6.26 188 23400 (1993) 1 (1934) 716 5 9 16 19 69 221 335 640 3090
2020-07-08 16:30 6.26 188 23400 (1993) 1 (1934) 716 5 9 16 19 69 221 335 640 3090
2020-07-08 16:00 6.27 191 23400 (1993) 1 (1934) 716 5 9 16 19 69 221 335 640 3090
2020-07-08 15:30 6.25 185 23400 (1993) 1 (1934) 716 5 9 16 19 69 221 335 640 3090
2020-07-08 15:00 6.26 188 23400 (1993) 1 (1934) 716 5 9 16 19 69 221 335 640 3090
2020-07-08 14:30 6.27 191 23400 (1993) 1 (1934) 716 5 9 16 19 69 221 335 640 3090
2020-07-08 14:00 6.28 194 23400 (1993) 1 (1934) 716 5 9 16 19 69 221 335 640 3090
2020-07-08 13:30 6.28 194 23400 (1993) 1 (1934) 716 5 9 16 19 69 221 335 640 3090
2020-07-08 13:00 6.28 194 23400 (1993) 1 (1934) 716 5 9 16 19 69 221 335 640 3090
2020-07-08 12:30 6.28 194 23400 (1993) 1 (1934) 716 5 9 16 19 69 221 335 640 3090
2020-07-08 12:00 6.28 194 23400 (1993) 1 (1934) 716 5 9 16 19 69 221 335 640 3090
2020-07-08 11:30 6.28 194 23400 (1993) 1 (1934) 716 5 9 16 19 69 221 335 640 3090
2020-07-08 11:00 6.28 194 23400 (1993) 1 (1934) 716 5 9 16 19 69 221 335 640 3090
2020-07-08 10:30 6.28 194 23400 (1993) 1 (1934) 716 5 9 16 19 69 221 335 640 3090
2020-07-08 10:00 6.28 194 23400 (1993) 1 (1934) 716 5 9 16 19 69 221 335 640 3090
2020-07-08 09:30 6.29 197 23400 (1993) 1 (1934) 716 5 9 16 19 69 221 335 640 3090
2020-07-08 09:00 6.29 197 23400 (1993) 1 (1934) 716 5 9 16 19 69 221 335 640 3090
2020-07-08 08:30 6.29 197 23400 (1993) 1 (1934) 716 5 9 16 19 69 221 335 640 3090
2020-07-08 08:00 6.30 200 23400 (1993) 1 (1934) 716 5 9 16 19 69 221 335 640 3090
2020-07-08 07:30 6.31 203 23400 (1993) 1 (1934) 716 5 9 16 19 69 221 335 640 3090
2020-07-08 07:00 6.31 203 23400 (1993) 1 (1934) 716 5 9 16 19 69 221 335 640 3090
2020-07-08 06:30 6.32 206 23400 (1993) 1 (1934) 716 5 9 16 19 69 221 335 640 3090
2020-07-08 06:00 6.32 206 23400 (1993) 1 (1934) 716 5 9 16 19 69 221 335 640 3090
2020-07-08 05:30 6.33 209 23400 (1993) 1 (1934) 716 5 9 16 19 69 221 335 640 3090
2020-07-08 05:00 6.33 209 23400 (1993) 1 (1934) 716 5 9 16 19 69 221 335 640 3090
2020-07-08 04:30 6.33 209 23400 (1993) 1 (1934) 716 5 9 16 19 69 221 335 640 3090
2020-07-08 04:00 6.33 209 23400 (1993) 1 (1934) 716 5 9 16 19 69 221 335 640 3090
2020-07-08 03:30 6.34 212 23400 (1993) 1 (1934) 716 5 9 16 19 69 221 335 640 3090
2020-07-08 03:00 6.34 212 23400 (1993) 1 (1934) 716 5 9 16 19 69 221 335 640 3090
2020-07-08 02:30 6.35 215 23400 (1993) 1 (1934) 716 5 9 16 19 69 221 335 640 3090
2020-07-08 02:00 6.35 215 23400 (1993) 1 (1934) 716 5 9 16 19 69 221 335 640 3090
2020-07-08 01:30 6.36 218 23400 (1993) 1 (1934) 716 5 9 16 19 69 221 335 640 3090
2020-07-08 01:00 6.36 218 23400 (1993) 1 (1934) 716 5 9 16 19 69 221 335 640 3090
2020-07-08 00:30 6.37 222 23400 (1993) 1 (1934) 716 5 9 16 19 69 221 335 640 3090
2020-07-08 00:00 6.37 222 23400 (1993) 1 (1934) 716 5 9 16 19 69 221 335 640 3090
2020-07-07 23:30 6.38 225 9450 (1969) 1 (1936) 614 5 10 17 22 81 293 533 1130 5630
2020-07-07 23:00 6.38 225 9450 (1969) 1 (1936) 614 5 10 17 22 81 293 533 1130 5630
2020-07-07 22:30 6.39 228 9450 (1969) 1 (1936) 614 5 10 17 22 81 293 533 1130 5630
2020-07-07 22:00 6.39 228 9450 (1969) 1 (1936) 614 5 10 17 22 81 293 533 1130 5630
2020-07-07 21:30 6.40 232 9450 (1969) 1 (1936) 614 5 10 17 22 81 293 533 1130 5630
2020-07-07 21:00 6.40 232 9450 (1969) 1 (1936) 614 5 10 17 22 81 293 533 1130 5630
2020-07-07 20:30 235 9450 (1969) 1 (1936) 614 5 10 17 22 81 293 533 1130 5630
2020-07-07 20:00 6.41 235 9450 (1969) 1 (1936) 614 5 10 17 22 81 293 533 1130 5630
2020-07-07 19:30 6.42 238 9450 (1969) 1 (1936) 614 5 10 17 22 81 293 533 1130 5630
2020-07-07 19:00 6.43 242 9450 (1969) 1 (1936) 614 5 10 17 22 81 293 533 1130 5630
2020-07-07 18:30 6.43 242 9450 (1969) 1 (1936) 614 5 10 17 22 81 293 533 1130 5630
2020-07-07 18:00 6.44 245 9450 (1969) 1 (1936) 614 5 10 17 22 81 293 533 1130 5630
2020-07-07 17:30 6.44 245 9450 (1969) 1 (1936) 614 5 10 17 22 81 293 533 1130 5630
2020-07-07 17:00 6.45 249 9450 (1969) 1 (1936) 614 5 10 17 22 81 293 533 1130 5630
2020-07-07 16:30 6.46 252 9450 (1969) 1 (1936) 614 5 10 17 22 81 293 533 1130 5630
2020-07-07 16:00 6.46 252 9450 (1969) 1 (1936) 614 5 10 17 22 81 293 533 1130 5630
2020-07-07 15:30 6.46 252 9450 (1969) 1 (1936) 614 5 10 17 22 81 293 533 1130 5630
2020-07-07 15:00 6.47 256 9450 (1969) 1 (1936) 614 5 10 17 22 81 293 533 1130 5630
2020-07-07 14:30 6.48 260 9450 (1969) 1 (1936) 614 5 10 17 22 81 293 533 1130 5630
2020-07-07 14:00 6.48 260 9450 (1969) 1 (1936) 614 5 10 17 22 81 293 533 1130 5630
2020-07-07 13:30 6.48 260 9450 (1969) 1 (1936) 614 5 10 17 22 81 293 533 1130 5630
2020-07-07 13:00 6.48 260 9450 (1969) 1 (1936) 614 5 10 17 22 81 293 533 1130 5630
2020-07-07 12:30 6.48 260 9450 (1969) 1 (1936) 614 5 10 17 22 81 293 533 1130 5630
2020-07-07 12:00 6.49 263 9450 (1969) 1 (1936) 614 5 10 17 22 81 293 533 1130 5630
2020-07-07 11:30 6.49 263 9450 (1969) 1 (1936) 614 5 10 17 22 81 293 533 1130 5630
2020-07-07 11:00 6.49 263 9450 (1969) 1 (1936) 614 5 10 17 22 81 293 533 1130 5630
2020-07-07 10:30 6.49 263 9450 (1969) 1 (1936) 614 5 10 17 22 81 293 533 1130 5630
2020-07-07 10:00 6.49 263 9450 (1969) 1 (1936) 614 5 10 17 22 81 293 533 1130 5630
2020-07-07 09:30 6.49 263 9450 (1969) 1 (1936) 614 5 10 17 22 81 293 533 1130 5630
2020-07-07 09:00 6.50 267 9450 (1969) 1 (1936) 614 5 10 17 22 81 293 533 1130 5630
2020-07-07 08:30 6.51 270 9450 (1969) 1 (1936) 614 5 10 17 22 81 293 533 1130 5630
2020-07-07 08:00 6.52 273 9450 (1969) 1 (1936) 614 5 10 17 22 81 293 533 1130 5630
2020-07-07 07:30 6.53 276 9450 (1969) 1 (1936) 614 5 10 17 22 81 293 533 1130 5630
2020-07-07 07:00 6.53 276 9450 (1969) 1 (1936) 614 5 10 17 22 81 293 533 1130 5630
2020-07-07 06:30 6.54 279 9450 (1969) 1 (1936) 614 5 10 17 22 81 293 533 1130 5630
2020-07-07 06:00 6.54 279 9450 (1969) 1 (1936) 614 5 10 17 22 81 293 533 1130 5630
2020-07-07 05:30 6.54 279 9450 (1969) 1 (1936) 614 5 10 17 22 81 293 533 1130 5630
2020-07-07 05:00 6.55 282 9450 (1969) 1 (1936) 614 5 10 17 22 81 293 533 1130 5630
2020-07-07 04:30 6.56 285 9450 (1969) 1 (1936) 614 5 10 17 22 81 293 533 1130 5630
2020-07-07 04:00 6.56 285 9450 (1969) 1 (1936) 614 5 10 17 22 81 293 533 1130 5630
2020-07-07 03:30 6.57 288 9450 (1969) 1 (1936) 614 5 10 17 22 81 293 533 1130 5630
2020-07-07 03:00 6.57 288 9450 (1969) 1 (1936) 614 5 10 17 22 81 293 533 1130 5630
2020-07-07 02:30 6.58 291 9450 (1969) 1 (1936) 614 5 10 17 22 81 293 533 1130 5630
2020-07-07 02:00 6.59 294 9450 (1969) 1 (1936) 614 5 10 17 22 81 293 533 1130 5630
2020-07-07 01:30 6.60 297 9450 (1969) 1 (1936) 614 5 10 17 22 81 293 533 1130 5630
2020-07-07 01:00 6.60 297 9450 (1969) 1 (1936) 614 5 10 17 22 81 293 533 1130 5630
2020-07-07 00:30 6.61 301 9450 (1969) 1 (1936) 614 5 10 17 22 81 293 533 1130 5630
2020-07-07 00:00 6.62 304 9450 (1969) 1 (1936) 614 5 10 17 22 81 293 533 1130 5630
2020-07-06 23:30 6.62 304 5740 (1998) 1 (1934) 450 5 11 19 25 77 329 461 1620 2370
2020-07-06 23:00 6.63 307 5740 (1998) 1 (1934) 450 5 11 19 25 77 329 461 1620 2370
2020-07-06 22:30 6.64 310 5740 (1998) 1 (1934) 450 5 11 19 25 77 329 461 1620 2370
2020-07-06 22:00 6.65 313 5740 (1998) 1 (1934) 450 5 11 19 25 77 329 461 1620 2370
2020-07-06 21:30 6.65 313 5740 (1998) 1 (1934) 450 5 11 19 25 77 329 461 1620 2370
2020-07-06 21:00 6.66 317 5740 (1998) 1 (1934) 450 5 11 19 25 77 329 461 1620 2370
2020-07-06 20:30 6.67 320 5740 (1998) 1 (1934) 450 5 11 19 25 77 329 461 1620 2370
2020-07-06 20:00 6.68 323 5740 (1998) 1 (1934) 450 5 11 19 25 77 329 461 1620 2370
2020-07-06 19:30 6.69 327 5740 (1998) 1 (1934) 450 5 11 19 25 77 329 461 1620 2370
2020-07-06 19:00 6.70 330 5740 (1998) 1 (1934) 450 5 11 19 25 77 329 461 1620 2370
2020-07-06 18:30 6.71 333 5740 (1998) 1 (1934) 450 5 11 19 25 77 329 461 1620 2370
2020-07-06 18:00 6.72 337 5740 (1998) 1 (1934) 450 5 11 19 25 77 329 461 1620 2370
2020-07-06 17:30 6.73 340 5740 (1998) 1 (1934) 450 5 11 19 25 77 329 461 1620 2370
2020-07-06 17:00 6.74 344 5740 (1998) 1 (1934) 450 5 11 19 25 77 329 461 1620 2370
2020-07-06 16:30 6.76 351 5740 (1998) 1 (1934) 450 5 11 19 25 77 329 461 1620 2370
2020-07-06 16:00 6.77 354 5740 (1998) 1 (1934) 450 5 11 19 25 77 329 461 1620 2370
2020-07-06 15:30 6.78 358 5740 (1998) 1 (1934) 450 5 11 19 25 77 329 461 1620 2370
2020-07-06 15:00 6.78 358 5740 (1998) 1 (1934) 450 5 11 19 25 77 329 461 1620 2370
2020-07-06 14:30 6.70 330 5740 (1998) 1 (1934) 450 5 11 19 25 77 329 461 1620 2370
2020-07-06 14:00 6.79 361 5740 (1998) 1 (1934) 450 5 11 19 25 77 329 461 1620 2370
2020-07-06 13:30 6.79 361 5740 (1998) 1 (1934) 450 5 11 19 25 77 329 461 1620 2370
2020-07-06 13:00 6.81 368 5740 (1998) 1 (1934) 450 5 11 19 25 77 329 461 1620 2370
2020-07-06 12:30 6.81 368 5740 (1998) 1 (1934) 450 5 11 19 25 77 329 461 1620 2370
2020-07-06 12:00 6.82 372 5740 (1998) 1 (1934) 450 5 11 19 25 77 329 461 1620 2370
2020-07-06 11:30 6.83 376 5740 (1998) 1 (1934) 450 5 11 19 25 77 329 461 1620 2370
2020-07-06 11:00 6.84 379 5740 (1998) 1 (1934) 450 5 11 19 25 77 329 461 1620 2370
2020-07-06 10:30 6.84 379 5740 (1998) 1 (1934) 450 5 11 19 25 77 329 461 1620 2370
2020-07-06 10:00 6.85 383 5740 (1998) 1 (1934) 450 5 11 19 25 77 329 461 1620 2370
2020-07-06 09:30 6.86 387 5740 (1998) 1 (1934) 450 5 11 19 25 77 329 461 1620 2370
2020-07-06 09:00 6.87 5740 (1998) 1 (1934) 450 5 11 19 25 77 329 461 1620 2370
2020-07-06 08:30 6.89 398 5740 (1998) 1 (1934) 450 5 11 19 25 77 329 461 1620 2370
2020-07-06 08:00 6.90 402 5740 (1998) 1 (1934) 450 5 11 19 25 77 329 461 1620 2370
2020-07-06 07:30 6.91 406 5740 (1998) 1 (1934) 450 5 11 19 25 77 329 461 1620 2370
2020-07-06 07:00 6.92 410 5740 (1998) 1 (1934) 450 5 11 19 25 77 329 461 1620 2370
2020-07-06 06:30 6.93 414 5740 (1998) 1 (1934) 450 5 11 19 25 77 329 461 1620 2370
2020-07-06 06:00 6.95 5740 (1998) 1 (1934) 450 5 11 19 25 77 329 461 1620 2370
2020-07-06 05:30 6.95 422 5740 (1998) 1 (1934) 450 5 11 19 25 77 329 461 1620 2370
2020-07-06 05:00 6.97 5740 (1998) 1 (1934) 450 5 11 19 25 77 329 461 1620 2370
2020-07-06 04:30 6.98 433 5740 (1998) 1 (1934) 450 5 11 19 25 77 329 461 1620 2370
2020-07-06 04:00 6.99 438 5740 (1998) 1 (1934) 450 5 11 19 25 77 329 461 1620 2370
2020-07-06 03:30 7.01 446 5740 (1998) 1 (1934) 450 5 11 19 25 77 329 461 1620 2370
2020-07-06 03:00 7.02 450 5740 (1998) 1 (1934) 450 5 11 19 25 77 329 461 1620 2370
2020-07-06 02:30 7.03 454 5740 (1998) 1 (1934) 450 5 11 19 25 77 329 461 1620 2370
2020-07-06 02:00 7.04 458 5740 (1998) 1 (1934) 450 5 11 19 25 77 329 461 1620 2370
2020-07-06 01:30 7.06 467 5740 (1998) 1 (1934) 450 5 11 19 25 77 329 461 1620 2370
2020-07-06 01:00 7.07 471 5740 (1998) 1 (1934) 450 5 11 19 25 77 329 461 1620 2370
2020-07-06 00:30 7.09 479 5740 (1998) 1 (1934) 450 5 11 19 25 77 329 461 1620 2370
2020-07-06 00:00 7.10 484 5740 (1998) 1 (1934) 450 5 11 19 25 77 329 461 1620 2370
2020-07-05 23:30 7.12 491 18000 (1998) 1 (1934) 875 5 11 21 28 79 343 609 2270 5330
2020-07-05 23:00 7.13 495 18000 (1998) 1 (1934) 875 5 11 21 28 79 343 609 2270 5330
2020-07-05 22:30 7.14 498 18000 (1998) 1 (1934) 875 5 11 21 28 79 343 609 2270 5330
2020-07-05 22:00 7.15 502 18000 (1998) 1 (1934) 875 5 11 21 28 79 343 609 2270 5330
2020-07-05 21:30 7.17 510 18000 (1998) 1 (1934) 875 5 11 21 28 79 343 609 2270 5330
2020-07-05 21:00 7.18 513 18000 (1998) 1 (1934) 875 5 11 21 28 79 343 609 2270 5330
2020-07-05 20:30 7.20 521 18000 (1998) 1 (1934) 875 5 11 21 28 79 343 609 2270 5330
2020-07-05 20:00 7.21 525 18000 (1998) 1 (1934) 875 5 11 21 28 79 343 609 2270 5330
2020-07-05 19:30 7.23 533 18000 (1998) 1 (1934) 875 5 11 21 28 79 343 609 2270 5330
2020-07-05 19:00 7.25 540 18000 (1998) 1 (1934) 875 5 11 21 28 79 343 609 2270 5330
2020-07-05 18:30 7.26 544 18000 (1998) 1 (1934) 875 5 11 21 28 79 343 609 2270 5330
2020-07-05 18:00 7.28 552 18000 (1998) 1 (1934) 875 5 11 21 28 79 343 609 2270 5330
2020-07-05 17:30 7.30 560 18000 (1998) 1 (1934) 875 5 11 21 28 79 343 609 2270 5330
2020-07-05 17:00 7.31 564 18000 (1998) 1 (1934) 875 5 11 21 28 79 343 609 2270 5330
2020-07-05 16:30 7.32 568 18000 (1998) 1 (1934) 875 5 11 21 28 79 343 609 2270 5330
2020-07-05 16:00 7.34 576 18000 (1998) 1 (1934) 875 5 11 21 28 79 343 609 2270 5330
2020-07-05 15:30 7.35 581 18000 (1998) 1 (1934) 875 5 11 21 28 79 343 609 2270 5330
2020-07-05 15:00 7.36 585 18000 (1998) 1 (1934) 875 5 11 21 28 79 343 609 2270 5330
2020-07-05 14:30 7.37 589 18000 (1998) 1 (1934) 875 5 11 21 28 79 343 609 2270 5330
2020-07-05 14:00 7.39 597 18000 (1998) 1 (1934) 875 5 11 21 28 79 343 609 2270 5330
2020-07-05 13:30 7.40 601 18000 (1998) 1 (1934) 875 5 11 21 28 79 343 609 2270 5330
2020-07-05 13:00 7.42 610 18000 (1998) 1 (1934) 875 5 11 21 28 79 343 609 2270 5330
2020-07-05 12:30 7.44 618 18000 (1998) 1 (1934) 875 5 11 21 28 79 343 609 2270 5330
2020-07-05 12:00 7.45 623 18000 (1998) 1 (1934) 875 5 11 21 28 79 343 609 2270 5330
2020-07-05 11:30 7.47 631 18000 (1998) 1 (1934) 875 5 11 21 28 79 343 609 2270 5330
2020-07-05 11:00 7.49 640 18000 (1998) 1 (1934) 875 5 11 21 28 79 343 609 2270 5330
2020-07-05 10:30 7.51 649 18000 (1998) 1 (1934) 875 5 11 21 28 79 343 609 2270 5330
2020-07-05 10:00 7.54 662 18000 (1998) 1 (1934) 875 5 11 21 28 79 343 609 2270 5330
2020-07-05 09:30 7.56 671 18000 (1998) 1 (1934) 875 5 11 21 28 79 343 609 2270 5330
2020-07-05 09:00 7.58 680 18000 (1998) 1 (1934) 875 5 11 21 28 79 343 609 2270 5330
2020-07-05 08:30 7.61 694 18000 (1998) 1 (1934) 875 5 11 21 28 79 343 609 2270 5330
2020-07-05 08:00 7.65 713 18000 (1998) 1 (1934) 875 5 11 21 28 79 343 609 2270 5330
2020-07-05 07:30 7.67 722 18000 (1998) 1 (1934) 875 5 11 21 28 79 343 609 2270 5330
2020-07-05 07:00 7.70 736 18000 (1998) 1 (1934) 875 5 11 21 28 79 343 609 2270 5330
2020-07-05 06:30 7.74 756 18000 (1998) 1 (1934) 875 5 11 21 28 79 343 609 2270 5330
2020-07-05 06:00 7.76 766 18000 (1998) 1 (1934) 875 5 11 21 28 79 343 609 2270 5330
2020-07-05 05:30 7.80 785 18000 (1998) 1 (1934) 875 5 11 21 28 79 343 609 2270 5330
2020-07-05 05:00 7.83 801 18000 (1998) 1 (1934) 875 5 11 21 28 79 343 609 2270 5330
2020-07-05 04:30 7.88 826 18000 (1998) 1 (1934) 875 5 11 21 28 79 343 609 2270 5330
2020-07-05 04:00 7.91 842 18000 (1998) 1 (1934) 875 5 11 21 28 79 343 609 2270 5330
2020-07-05 03:30 7.96 868 18000 (1998) 1 (1934) 875 5 11 21 28 79 343 609 2270 5330
2020-07-05 03:00 7.99 884 18000 (1998) 1 (1934) 875 5 11 21 28 79 343 609 2270 5330
2020-07-05 02:30 8.04 912 18000 (1998) 1 (1934) 875 5 11 21 28 79 343 609 2270 5330
2020-07-05 02:00 8.08 934 18000 (1998) 1 (1934) 875 5 11 21 28 79 343 609 2270 5330
2020-07-05 01:30 8.13 963 18000 (1998) 1 (1934) 875 5 11 21 28 79 343 609 2270 5330
2020-07-05 01:00 8.17 986 18000 (1998) 1 (1934) 875 5 11 21 28 79 343 609 2270 5330
2020-07-05 00:30 8.23 1020 18000 (1998) 1 (1934) 875 5 11 21 28 79 343 609 2270 5330
2020-07-05 00:00 8.29 1060 18000 (1998) 1 (1934) 875 5 11 21 28 79 343 609 2270 5330
2020-07-04 23:30 8.34 1090 35000 (1980) 1 (1934) 952 5 10 24 31 94 314 583 2460 4620
2020-07-04 23:00 8.40 1130 35000 (1980) 1 (1934) 952 5 10 24 31 94 314 583 2460 4620
2020-07-04 22:30 8.47 1170 35000 (1980) 1 (1934) 952 5 10 24 31 94 314 583 2460 4620
2020-07-04 22:00 8.55 1220 35000 (1980) 1 (1934) 952 5 10 24 31 94 314 583 2460 4620
2020-07-04 21:30 8.61 1260 35000 (1980) 1 (1934) 952 5 10 24 31 94 314 583 2460 4620
2020-07-04 21:00 8.71 1330 35000 (1980) 1 (1934) 952 5 10 24 31 94 314 583 2460 4620
2020-07-04 20:30 8.80 1400 35000 (1980) 1 (1934) 952 5 10 24 31 94 314 583 2460 4620
2020-07-04 20:00 8.90 1470 35000 (1980) 1 (1934) 952 5 10 24 31 94 314 583 2460 4620
2020-07-04 19:30 9.03 1570 35000 (1980) 1 (1934) 952 5 10 24 31 94 314 583 2460 4620
2020-07-04 19:00 9.17 1690 35000 (1980) 1 (1934) 952 5 10 24 31 94 314 583 2460 4620
2020-07-04 18:30 9.34 1820 35000 (1980) 1 (1934) 952 5 10 24 31 94 314 583 2460 4620
2020-07-04 18:00 9.54 1960 35000 (1980) 1 (1934) 952 5 10 24 31 94 314 583 2460 4620
2020-07-04 17:30 9.74 2070 35000 (1980) 1 (1934) 952 5 10 24 31 94 314 583 2460 4620
2020-07-04 17:00 9.99 2200 35000 (1980) 1 (1934) 952 5 10 24 31 94 314 583 2460 4620
2020-07-04 16:30 10.26 2360 35000 (1980) 1 (1934) 952 5 10 24 31 94 314 583 2460 4620
2020-07-04 16:00 10.54 2540 35000 (1980) 1 (1934) 952 5 10 24 31 94 314 583 2460 4620
2020-07-04 15:30 10.80 2700 35000 (1980) 1 (1934) 952 5 10 24 31 94 314 583 2460 4620
2020-07-04 15:00 11.06 2870 35000 (1980) 1 (1934) 952 5 10 24 31 94 314 583 2460 4620
2020-07-04 14:30 11.32 3050 35000 (1980) 1 (1934) 952 5 10 24 31 94 314 583 2460 4620
2020-07-04 14:00 11.61 3250 35000 (1980) 1 (1934) 952 5 10 24 31 94 314 583 2460 4620
2020-07-04 13:30 11.89 3440 35000 (1980) 1 (1934) 952 5 10 24 31 94 314 583 2460 4620
2020-07-04 13:00 12.20 3660 35000 (1980) 1 (1934) 952 5 10 24 31 94 314 583 2460 4620
2020-07-04 12:30 12.53 3900 35000 (1980) 1 (1934) 952 5 10 24 31 94 314 583 2460 4620
2020-07-04 12:00 12.88 4170 35000 (1980) 1 (1934) 952 5 10 24 31 94 314 583 2460 4620
2020-07-04 11:30 13.23 4430 35000 (1980) 1 (1934) 952 5 10 24 31 94 314 583 2460 4620
2020-07-04 11:00 13.62 4740 35000 (1980) 1 (1934) 952 5 10 24 31 94 314 583 2460 4620
2020-07-04 10:30 14.01 5050 35000 (1980) 1 (1934) 952 5 10 24 31 94 314 583 2460 4620
2020-07-04 10:00 14.41 5380 35000 (1980) 1 (1934) 952 5 10 24 31 94 314 583 2460 4620
2020-07-04 09:30 14.81 5720 35000 (1980) 1 (1934) 952 5 10 24 31 94 314 583 2460 4620
2020-07-04 09:00 15.24 6080 35000 (1980) 1 (1934) 952 5 10 24 31 94 314 583 2460 4620
2020-07-04 08:30 15.67 6460 35000 (1980) 1 (1934) 952 5 10 24 31 94 314 583 2460 4620
2020-07-04 08:00 16.10 6850 35000 (1980) 1 (1934) 952 5 10 24 31 94 314 583 2460 4620
2020-07-04 07:30 16.53 7240 35000 (1980) 1 (1934) 952 5 10 24 31 94 314 583 2460 4620
2020-07-04 07:00 16.92 7600 35000 (1980) 1 (1934) 952 5 10 24 31 94 314 583 2460 4620
2020-07-04 06:30 17.28 7940 35000 (1980) 1 (1934) 952 5 10 24 31 94 314 583 2460 4620
2020-07-04 06:00 17.59 8240 35000 (1980) 1 (1934) 952 5 10 24 31 94 314 583 2460 4620
2020-07-04 05:30 17.85 8490 35000 (1980) 1 (1934) 952 5 10 24 31 94 314 583 2460 4620
2020-07-04 05:00 18.04 8680 35000 (1980) 1 (1934) 952 5 10 24 31 94 314 583 2460 4620
2020-07-04 04:30 18.18 8820 35000 (1980) 1 (1934) 952 5 10 24 31 94 314 583 2460 4620
2020-07-04 04:00 18.24 8880 35000 (1980) 1 (1934) 952 5 10 24 31 94 314 583 2460 4620
2020-07-04 03:30 18.25 8890 35000 (1980) 1 (1934) 952 5 10 24 31 94 314 583 2460 4620
2020-07-04 03:00 18.18 8820 35000 (1980) 1 (1934) 952 5 10 24 31 94 314 583 2460 4620
2020-07-04 02:30 17.99 8630 35000 (1980) 1 (1934) 952 5 10 24 31 94 314 583 2460 4620
2020-07-04 02:00 17.70 8350 35000 (1980) 1 (1934) 952 5 10 24 31 94 314 583 2460 4620
2020-07-04 01:30 17.25 7910 35000 (1980) 1 (1934) 952 5 10 24 31 94 314 583 2460 4620
2020-07-04 01:00 16.62 7320 35000 (1980) 1 (1934) 952 5 10 24 31 94 314 583 2460 4620
2020-07-04 00:30 15.71 6500 35000 (1980) 1 (1934) 952 5 10 24 31 94 314 583 2460 4620
2020-07-04 00:00 14.54 5490 35000 (1980) 1 (1934) 952 5 10 24 31 94 314 583 2460 4620
2020-07-03 23:30 13.30 4490 13600 (1969) 1 (1934) 571 6 11 25 34 94 255 534 1950 3200
2020-07-03 23:00 12.36 3780 13600 (1969) 1 (1934) 571 6 11 25 34 94 255 534 1950 3200
2020-07-03 22:30 11.34 3060 13600 (1969) 1 (1934) 571 6 11 25 34 94 255 534 1950 3200
2020-07-03 22:00 10.43 2470 13600 (1969) 1 (1934) 571 6 11 25 34 94 255 534 1950 3200
2020-07-03 21:30 9.59 1990 13600 (1969) 1 (1934) 571 6 11 25 34 94 255 534 1950 3200
2020-07-03 21:00 8.45 1160 13600 (1969) 1 (1934) 571 6 11 25 34 94 255 534 1950 3200
2020-07-03 20:30 7.33 572 13600 (1969) 1 (1934) 571 6 11 25 34 94 255 534 1950 3200
2020-07-03 20:00 7.07 471 13600 (1969) 1 (1934) 571 6 11 25 34 94 255 534 1950 3200
2020-07-03 19:30 7.07 471 13600 (1969) 1 (1934) 571 6 11 25 34 94 255 534 1950 3200
2020-07-03 19:00 7.11 487 13600 (1969) 1 (1934) 571 6 11 25 34 94 255 534 1950 3200
2020-07-03 18:30 7.14 498 13600 (1969) 1 (1934) 571 6 11 25 34 94 255 534 1950 3200
2020-07-03 18:00 7.16 506 13600 (1969) 1 (1934) 571 6 11 25 34 94 255 534 1950 3200
2020-07-03 17:30 7.16 506 13600 (1969) 1 (1934) 571 6 11 25 34 94 255 534 1950 3200
2020-07-03 17:00 7.20 521 13600 (1969) 1 (1934) 571 6 11 25 34 94 255 534 1950 3200
2020-07-03 16:30 7.23 533 13600 (1969) 1 (1934) 571 6 11 25 34 94 255 534 1950 3200
2020-07-03 16:00 7.21 525 13600 (1969) 1 (1934) 571 6 11 25 34 94 255 534 1950 3200
2020-07-03 15:30 7.20 521 13600 (1969) 1 (1934) 571 6 11 25 34 94 255 534 1950 3200
2020-07-03 15:00 7.29 556 13600 (1969) 1 (1934) 571 6 11 25 34 94 255 534 1950 3200
2020-07-03 14:30 7.32 568 13600 (1969) 1 (1934) 571 6 11 25 34 94 255 534 1950 3200
2020-07-03 14:00 7.34 576 13600 (1969) 1 (1934) 571 6 11 25 34 94 255 534 1950 3200
2020-07-03 13:30 7.33 572 13600 (1969) 1 (1934) 571 6 11 25 34 94 255 534 1950 3200
2020-07-03 13:00 7.29 556 13600 (1969) 1 (1934) 571 6 11 25 34 94 255 534 1950 3200
2020-07-03 12:30 7.22 529 13600 (1969) 1 (1934) 571 6 11 25 34 94 255 534 1950 3200
2020-07-03 12:00 7.10 484 13600 (1969) 1 (1934) 571 6 11 25 34 94 255 534 1950 3200
2020-07-03 11:30 6.98 433 13600 (1969) 1 (1934) 571 6 11 25 34 94 255 534 1950 3200
2020-07-03 11:00 6.90 402 13600 (1969) 1 (1934) 571 6 11 25 34 94 255 534 1950 3200
2020-07-03 10:30 6.87 391 13600 (1969) 1 (1934) 571 6 11 25 34 94 255 534 1950 3200
2020-07-03 10:00 6.87 391 13600 (1969) 1 (1934) 571 6 11 25 34 94 255 534 1950 3200
2020-07-03 09:30 6.89 398 13600 (1969) 1 (1934) 571 6 11 25 34 94 255 534 1950 3200
2020-07-03 09:00 6.91 406 13600 (1969) 1 (1934) 571 6 11 25 34 94 255 534 1950 3200
2020-07-03 08:30 6.93 414 13600 (1969) 1 (1934) 571 6 11 25 34 94 255 534 1950 3200
2020-07-03 08:00 6.94 418 13600 (1969) 1 (1934) 571 6 11 25 34 94 255 534 1950 3200
2020-07-03 07:30 6.95 422 13600 (1969) 1 (1934) 571 6 11 25 34 94 255 534 1950 3200
2020-07-03 07:00 6.96 425 13600 (1969) 1 (1934) 571 6 11 25 34 94 255 534 1950 3200
2020-07-03 06:30 6.96 425 13600 (1969) 1 (1934) 571 6 11 25 34 94 255 534 1950 3200
2020-07-03 06:00 6.97 429 13600 (1969) 1 (1934) 571 6 11 25 34 94 255 534 1950 3200
2020-07-03 05:30 6.96 425 13600 (1969) 1 (1934) 571 6 11 25 34 94 255 534 1950 3200
2020-07-03 05:00 6.94 418 13600 (1969) 1 (1934) 571 6 11 25 34 94 255 534 1950 3200
2020-07-03 04:30 6.90 402 13600 (1969) 1 (1934) 571 6 11 25 34 94 255 534 1950 3200
2020-07-03 04:00 6.86 387 13600 (1969) 1 (1934) 571 6 11 25 34 94 255 534 1950 3200
2020-07-03 03:30 6.85 383 13600 (1969) 1 (1934) 571 6 11 25 34 94 255 534 1950 3200
2020-07-03 03:00 6.85 383 13600 (1969) 1 (1934) 571 6 11 25 34 94 255 534 1950 3200
2020-07-03 02:30 6.85 383 13600 (1969) 1 (1934) 571 6 11 25 34 94 255 534 1950 3200
2020-07-03 02:00 6.86 387 13600 (1969) 1 (1934) 571 6 11 25 34 94 255 534 1950 3200
2020-07-03 01:30 6.86 387 13600 (1969) 1 (1934) 571 6 11 25 34 94 255 534 1950 3200
2020-07-03 01:00 6.86 387 13600 (1969) 1 (1934) 571 6 11 25 34 94 255 534 1950 3200
2020-07-03 00:30 6.87 391 13600 (1969) 1 (1934) 571 6 11 25 34 94 255 534 1950 3200
2020-07-03 00:00 6.87 391 13600 (1969) 1 (1934) 571 6 11 25 34 94 255 534 1950 3200
2020-07-02 23:30 6.88 394 11900 (1969) 1 (1934) 586 7 11 25 35 80 234 297 1570 4130
2020-07-02 23:00 6.88 394 11900 (1969) 1 (1934) 586 7 11 25 35 80 234 297 1570 4130
2020-07-02 22:30 6.88 394 11900 (1969) 1 (1934) 586 7 11 25 35 80 234 297 1570 4130
2020-07-02 22:00 6.89 398 11900 (1969) 1 (1934) 586 7 11 25 35 80 234 297 1570 4130
2020-07-02 21:30 6.91 406 11900 (1969) 1 (1934) 586 7 11 25 35 80 234 297 1570 4130
2020-07-02 21:00 6.92 410 11900 (1969) 1 (1934) 586 7 11 25 35 80 234 297 1570 4130
2020-07-02 20:30 6.94 418 11900 (1969) 1 (1934) 586 7 11 25 35 80 234 297 1570 4130
2020-07-02 20:00 6.95 422 11900 (1969) 1 (1934) 586 7 11 25 35 80 234 297 1570 4130
2020-07-02 19:30 6.97 429 11900 (1969) 1 (1934) 586 7 11 25 35 80 234 297 1570 4130
2020-07-02 19:00 7.00 442 11900 (1969) 1 (1934) 586 7 11 25 35 80 234 297 1570 4130
2020-07-02 18:30 7.02 450 11900 (1969) 1 (1934) 586 7 11 25 35 80 234 297 1570 4130
2020-07-02 18:00 7.04 458 11900 (1969) 1 (1934) 586 7 11 25 35 80 234 297 1570 4130
2020-07-02 17:30 7.07 471 11900 (1969) 1 (1934) 586 7 11 25 35 80 234 297 1570 4130
2020-07-02 17:00 7.08 475 11900 (1969) 1 (1934) 586 7 11 25 35 80 234 297 1570 4130
2020-07-02 16:30 7.10 484 11900 (1969) 1 (1934) 586 7 11 25 35 80 234 297 1570 4130
2020-07-02 16:00 7.12 491 11900 (1969) 1 (1934) 586 7 11 25 35 80 234 297 1570 4130
2020-07-02 15:30 7.14 498 11900 (1969) 1 (1934) 586 7 11 25 35 80 234 297 1570 4130
2020-07-02 15:00 7.16 506 11900 (1969) 1 (1934) 586 7 11 25 35 80 234 297 1570 4130
2020-07-02 14:30 7.18 513 11900 (1969) 1 (1934) 586 7 11 25 35 80 234 297 1570 4130
2020-07-02 14:00 7.20 521 11900 (1969) 1 (1934) 586 7 11 25 35 80 234 297 1570 4130
2020-07-02 13:30 7.22 529 11900 (1969) 1 (1934) 586 7 11 25 35 80 234 297 1570 4130
2020-07-02 13:00 7.25 540 11900 (1969) 1 (1934) 586 7 11 25 35 80 234 297 1570 4130
2020-07-02 12:30 7.28 552 11900 (1969) 1 (1934) 586 7 11 25 35 80 234 297 1570 4130
2020-07-02 12:00 7.32 568 11900 (1969) 1 (1934) 586 7 11 25 35 80 234 297 1570 4130
2020-07-02 11:30 7.35 581 11900 (1969) 1 (1934) 586 7 11 25 35 80 234 297 1570 4130
2020-07-02 11:00 7.38 593 11900 (1969) 1 (1934) 586 7 11 25 35 80 234 297 1570 4130
2020-07-02 10:30 7.43 614 11900 (1969) 1 (1934) 586 7 11 25 35 80 234 297 1570 4130
2020-07-02 10:00 7.47 631 11900 (1969) 1 (1934) 586 7 11 25 35 80 234 297 1570 4130
2020-07-02 09:30 7.51 649 11900 (1969) 1 (1934) 586 7 11 25 35 80 234 297 1570 4130
2020-07-02 09:00 7.55 667 11900 (1969) 1 (1934) 586 7 11 25 35 80 234 297 1570 4130
2020-07-02 08:30 7.58 680 11900 (1969) 1 (1934) 586 7 11 25 35 80 234 297 1570 4130
2020-07-02 08:00 7.60 689 11900 (1969) 1 (1934) 586 7 11 25 35 80 234 297 1570 4130
2020-07-02 07:30 7.62 699 11900 (1969) 1 (1934) 586 7 11 25 35 80 234 297 1570 4130
2020-07-02 07:00 7.64 708 11900 (1969) 1 (1934) 586 7 11 25 35 80 234 297 1570 4130
2020-07-02 06:30 7.67 722 11900 (1969) 1 (1934) 586 7 11 25 35 80 234 297 1570 4130
2020-07-02 06:00 7.72 746 11900 (1969) 1 (1934) 586 7 11 25 35 80 234 297 1570 4130
2020-07-02 05:30 7.77 770 11900 (1969) 1 (1934) 586 7 11 25 35 80 234 297 1570 4130
2020-07-02 05:00 7.82 795 11900 (1969) 1 (1934) 586 7 11 25 35 80 234 297 1570 4130
2020-07-02 04:30 7.89 831 11900 (1969) 1 (1934) 586 7 11 25 35 80 234 297 1570 4130
2020-07-02 04:00 7.96 868 11900 (1969) 1 (1934) 586 7 11 25 35 80 234 297 1570 4130
2020-07-02 03:30 8.03 906 11900 (1969) 1 (1934) 586 7 11 25 35 80 234 297 1570 4130
2020-07-02 03:00 8.13 963 11900 (1969) 1 (1934) 586 7 11 25 35 80 234 297 1570 4130
2020-07-02 02:30 8.23 1020 11900 (1969) 1 (1934) 586 7 11 25 35 80 234 297 1570 4130
2020-07-02 02:00 8.30 1060 11900 (1969) 1 (1934) 586 7 11 25 35 80 234 297 1570 4130
2020-07-02 01:30 8.40 1130 11900 (1969) 1 (1934) 586 7 11 25 35 80 234 297 1570 4130
2020-07-02 01:00 8.49 1180 11900 (1969) 1 (1934) 586 7 11 25 35 80 234 297 1570 4130
2020-07-02 00:30 8.55 1220 11900 (1969) 1 (1934) 586 7 11 25 35 80 234 297 1570 4130
2020-07-02 00:00 8.62 1270 11900 (1969) 1 (1934) 586 7 11 25 35 80 234 297 1570 4130
2020-07-01 23:30 8.68 1310 14100 (1960) 2 (1934) 699 7 11 20 37 91 257 351 1370 6670
2020-07-01 23:00 8.72 1340 14100 (1960) 2 (1934) 699 7 11 20 37 91 257 351 1370 6670
2020-07-01 22:30 8.70 1330 14100 (1960) 2 (1934) 699 7 11 20 37 91 257 351 1370 6670
2020-07-01 22:00 8.66 1300 14100 (1960) 2 (1934) 699 7 11 20 37 91 257 351 1370 6670
2020-07-01 21:30 8.54 1220 14100 (1960) 2 (1934) 699 7 11 20 37 91 257 351 1370 6670
2020-07-01 21:00 8.38 1110 14100 (1960) 2 (1934) 699 7 11 20 37 91 257 351 1370 6670
2020-07-01 20:30 8.19 997 14100 (1960) 2 (1934) 699 7 11 20 37 91 257 351 1370 6670
2020-07-01 20:00 8.00 890 14100 (1960) 2 (1934) 699 7 11 20 37 91 257 351 1370 6670
2020-07-01 19:30 7.95 863 14100 (1960) 2 (1934) 699 7 11 20 37 91 257 351 1370 6670
2020-07-01 19:00 7.98 879 14100 (1960) 2 (1934) 699 7 11 20 37 91 257 351 1370 6670
2020-07-01 18:30 8.07 929 14100 (1960) 2 (1934) 699 7 11 20 37 91 257 351 1370 6670
2020-07-01 18:00 8.15 974 14100 (1960) 2 (1934) 699 7 11 20 37 91 257 351 1370 6670
2020-07-01 17:30 8.23 1020 14100 (1960) 2 (1934) 699 7 11 20 37 91 257 351 1370 6670
2020-07-01 17:00 8.31 1070 14100 (1960) 2 (1934) 699 7 11 20 37 91 257 351 1370 6670
2020-07-01 16:30 8.35 1090 14100 (1960) 2 (1934) 699 7 11 20 37 91 257 351 1370 6670
2020-07-01 16:00 8.38 1110 14100 (1960) 2 (1934) 699 7 11 20 37 91 257 351 1370 6670
2020-07-01 15:30 8.32 1080 14100 (1960) 2 (1934) 699 7 11 20 37 91 257 351 1370 6670
2020-07-01 15:00 8.12 957 14100 (1960) 2 (1934) 699 7 11 20 37 91 257 351 1370 6670
2020-07-01 14:30 7.75 761 14100 (1960) 2 (1934) 699 7 11 20 37 91 257 351 1370 6670
2020-07-01 14:00 7.25 540 14100 (1960) 2 (1934) 699 7 11 20 37 91 257 351 1370 6670
2020-07-01 13:30 6.96 425 14100 (1960) 2 (1934) 699 7 11 20 37 91 257 351 1370 6670
2020-07-01 13:00 6.92 410 14100 (1960) 2 (1934) 699 7 11 20 37 91 257 351 1370 6670
2020-07-01 12:30 6.91 406 14100 (1960) 2 (1934) 699 7 11 20 37 91 257 351 1370 6670
2020-07-01 12:00 6.90 402 14100 (1960) 2 (1934) 699 7 11 20 37 91 257 351 1370 6670
2020-07-01 11:30 6.87 391 14100 (1960) 2 (1934) 699 7 11 20 37 91 257 351 1370 6670
2020-07-01 11:00 6.84 379 14100 (1960) 2 (1934) 699 7 11 20 37 91 257 351 1370 6670
2020-07-01 10:30 6.82 372 14100 (1960) 2 (1934) 699 7 11 20 37 91 257 351 1370 6670
2020-07-01 10:00 6.74 344 14100 (1960) 2 (1934) 699 7 11 20 37 91 257 351 1370 6670
2020-07-01 09:30 6.78 358 14100 (1960) 2 (1934) 699 7 11 20 37 91 257 351 1370 6670
2020-07-01 09:00 6.79 361 14100 (1960) 2 (1934) 699 7 11 20 37 91 257 351 1370 6670
2020-07-01 08:30 6.80 365 14100 (1960) 2 (1934) 699 7 11 20 37 91 257 351 1370 6670
2020-07-01 08:00 6.82 372 14100 (1960) 2 (1934) 699 7 11 20 37 91 257 351 1370 6670
2020-07-01 07:30 6.84 379 14100 (1960) 2 (1934) 699 7 11 20 37 91 257 351 1370 6670
2020-07-01 07:00 6.86 387 14100 (1960) 2 (1934) 699 7 11 20 37 91 257 351 1370 6670
2020-07-01 06:30 6.89 398 14100 (1960) 2 (1934) 699 7 11 20 37 91 257 351 1370 6670
2020-07-01 06:00 6.91 406 14100 (1960) 2 (1934) 699 7 11 20 37 91 257 351 1370 6670
2020-07-01 05:30 6.94 418 14100 (1960) 2 (1934) 699 7 11 20 37 91 257 351 1370 6670
2020-07-01 05:00 6.97 429 14100 (1960) 2 (1934) 699 7 11 20 37 91 257 351 1370 6670
2020-07-01 04:30 7.00 442 14100 (1960) 2 (1934) 699 7 11 20 37 91 257 351 1370 6670
2020-07-01 04:00 7.04 458 14100 (1960) 2 (1934) 699 7 11 20 37 91 257 351 1370 6670
2020-07-01 03:30 7.07 471 14100 (1960) 2 (1934) 699 7 11 20 37 91 257 351 1370 6670
2020-07-01 03:00 7.10 484 14100 (1960) 2 (1934) 699 7 11 20 37 91 257 351 1370 6670
2020-07-01 02:30 7.14 498 14100 (1960) 2 (1934) 699 7 11 20 37 91 257 351 1370 6670
2020-07-01 02:00 7.18 513 14100 (1960) 2 (1934) 699 7 11 20 37 91 257 351 1370 6670
2020-07-01 01:30 7.21 525 14100 (1960) 2 (1934) 699 7 11 20 37 91 257 351 1370 6670
2020-07-01 01:00 7.25 540 14100 (1960) 2 (1934) 699 7 11 20 37 91 257 351 1370 6670
2020-07-01 00:30 7.28 552 14100 (1960) 2 (1934) 699 7 11 20 37 91 257 351 1370 6670
2020-07-01 00:00 7.31 564 14100 (1960) 2 (1934) 699 7 11 20 37 91 257 351 1370 6670
2020-06-30 23:30 7.33 572 10700 (1998) 2 (1934) 504 7 10 21 27 91 273 343 838 2190
2020-06-30 23:00 7.35 581 10700 (1998) 2 (1934) 504 7 10 21 27 91 273 343 838 2190
2020-06-30 22:30 7.34 576 10700 (1998) 2 (1934) 504 7 10 21 27 91 273 343 838 2190
2020-06-30 22:00 7.30 560 10700 (1998) 2 (1934) 504 7 10 21 27 91 273 343 838 2190
2020-06-30 21:30 7.20 521 10700 (1998) 2 (1934) 504 7 10 21 27 91 273 343 838 2190
2020-06-30 21:00 7.01 446 10700 (1998) 2 (1934) 504 7 10 21 27 91 273 343 838 2190
2020-06-30 20:30 6.74 344 10700 (1998) 2 (1934) 504 7 10 21 27 91 273 343 838 2190
2020-06-30 20:00 6.55 282 10700 (1998) 2 (1934) 504 7 10 21 27 91 273 343 838 2190
2020-06-30 19:30 6.51 270 10700 (1998) 2 (1934) 504 7 10 21 27 91 273 343 838 2190
2020-06-30 19:00 6.49 263 10700 (1998) 2 (1934) 504 7 10 21 27 91 273 343 838 2190
2020-06-30 18:30 6.39 228 10700 (1998) 2 (1934) 504 7 10 21 27 91 273 343 838 2190
2020-06-30 18:00 6.39 228 10700 (1998) 2 (1934) 504 7 10 21 27 91 273 343 838 2190
2020-06-30 17:30 6.38 225 10700 (1998) 2 (1934) 504 7 10 21 27 91 273 343 838 2190
2020-06-30 17:00 6.36 218 10700 (1998) 2 (1934) 504 7 10 21 27 91 273 343 838 2190
2020-06-30 16:30 6.33 209 10700 (1998) 2 (1934) 504 7 10 21 27 91 273 343 838 2190
2020-06-30 16:00 6.26 188 10700 (1998) 2 (1934) 504 7 10 21 27 91 273 343 838 2190
2020-06-30 15:30 6.21 174 10700 (1998) 2 (1934) 504 7 10 21 27 91 273 343 838 2190
2020-06-30 15:00 6.12 150 10700 (1998) 2 (1934) 504 7 10 21 27 91 273 343 838 2190
2020-06-30 14:30 6.13 153 10700 (1998) 2 (1934) 504 7 10 21 27 91 273 343 838 2190
2020-06-30 14:00 6.11 148 10700 (1998) 2 (1934) 504 7 10 21 27 91 273 343 838 2190
2020-06-30 13:30 6.11 148 10700 (1998) 2 (1934) 504 7 10 21 27 91 273 343 838 2190
2020-06-30 13:00 6.10 146 10700 (1998) 2 (1934) 504 7 10 21 27 91 273 343 838 2190
2020-06-30 12:30 6.10 146 10700 (1998) 2 (1934) 504 7 10 21 27 91 273 343 838 2190
2020-06-30 12:00 6.10 146 10700 (1998) 2 (1934) 504 7 10 21 27 91 273 343 838 2190
2020-06-30 11:30 6.10 146 10700 (1998) 2 (1934) 504 7 10 21 27 91 273 343 838 2190
2020-06-30 11:00 6.10 146 10700 (1998) 2 (1934) 504 7 10 21 27 91 273 343 838 2190
2020-06-30 10:30 6.10 146 10700 (1998) 2 (1934) 504 7 10 21 27 91 273 343 838 2190
2020-06-30 10:00 6.10 146 10700 (1998) 2 (1934) 504 7 10 21 27 91 273 343 838 2190
2020-06-30 09:30 6.10 146 10700 (1998) 2 (1934) 504 7 10 21 27 91 273 343 838 2190
2020-06-30 09:00 6.11 148 10700 (1998) 2 (1934) 504 7 10 21 27 91 273 343 838 2190
2020-06-30 08:30 6.09 143 10700 (1998) 2 (1934) 504 7 10 21 27 91 273 343 838 2190
2020-06-30 08:00 6.07 138 10700 (1998) 2 (1934) 504 7 10 21 27 91 273 343 838 2190
2020-06-30 07:30 6.09 143 10700 (1998) 2 (1934) 504 7 10 21 27 91 273 343 838 2190
2020-06-30 07:00 6.05 134 10700 (1998) 2 (1934) 504 7 10 21 27 91 273 343 838 2190
2020-06-30 06:30 6.08 141 10700 (1998) 2 (1934) 504 7 10 21 27 91 273 343 838 2190
2020-06-30 06:00 6.08 141 10700 (1998) 2 (1934) 504 7 10 21 27 91 273 343 838 2190
2020-06-30 05:30 6.08 141 10700 (1998) 2 (1934) 504 7 10 21 27 91 273 343 838 2190
2020-06-30 05:00 6.08 141 10700 (1998) 2 (1934) 504 7 10 21 27 91 273 343 838 2190
2020-06-30 04:30 6.08 141 10700 (1998) 2 (1934) 504 7 10 21 27 91 273 343 838 2190
2020-06-30 04:00 6.09 143 10700 (1998) 2 (1934) 504 7 10 21 27 91 273 343 838 2190
2020-06-30 03:30 6.09 143 10700 (1998) 2 (1934) 504 7 10 21 27 91 273 343 838 2190
2020-06-30 03:00 6.09 143 10700 (1998) 2 (1934) 504 7 10 21 27 91 273 343 838 2190
2020-06-30 02:30 6.09 143 10700 (1998) 2 (1934) 504 7 10 21 27 91 273 343 838 2190
2020-06-30 02:00 6.09 143 10700 (1998) 2 (1934) 504 7 10 21 27 91 273 343 838 2190
2020-06-30 01:30 6.10 146 10700 (1998) 2 (1934) 504 7 10 21 27 91 273 343 838 2190
2020-06-30 01:00 6.10 146 10700 (1998) 2 (1934) 504 7 10 21 27 91 273 343 838 2190
2020-06-30 00:30 6.10 146 10700 (1998) 2 (1934) 504 7 10 21 27 91 273 343 838 2190
2020-06-30 00:00 6.11 148 10700 (1998) 2 (1934) 504 7 10 21 27 91 273 343 838 2190
2020-06-29 23:30 6.11 148 17100 (1969) 2 (1934) 593 7 10 20 25 130 391 568 1020 2040
2020-06-29 23:00 6.12 150 17100 (1969) 2 (1934) 593 7 10 20 25 130 391 568 1020 2040
2020-06-29 22:30 6.12 150 17100 (1969) 2 (1934) 593 7 10 20 25 130 391 568 1020 2040
2020-06-29 22:00 6.13 153 17100 (1969) 2 (1934) 593 7 10 20 25 130 391 568 1020 2040
2020-06-29 21:30 6.13 153 17100 (1969) 2 (1934) 593 7 10 20 25 130 391 568 1020 2040
2020-06-29 21:00 6.13 153 17100 (1969) 2 (1934) 593 7 10 20 25 130 391 568 1020 2040
2020-06-29 20:30 6.14 155 17100 (1969) 2 (1934) 593 7 10 20 25 130 391 568 1020 2040
2020-06-29 20:00 6.15 158 17100 (1969) 2 (1934) 593 7 10 20 25 130 391 568 1020 2040
2020-06-29 19:30 6.15 158 17100 (1969) 2 (1934) 593 7 10 20 25 130 391 568 1020 2040
2020-06-29 19:00 6.16 160 17100 (1969) 2 (1934) 593 7 10 20 25 130 391 568 1020 2040
2020-06-29 18:30 6.16 160 17100 (1969) 2 (1934) 593 7 10 20 25 130 391 568 1020 2040
2020-06-29 18:00 6.17 163 17100 (1969) 2 (1934) 593 7 10 20 25 130 391 568 1020 2040
2020-06-29 17:30 6.18 166 17100 (1969) 2 (1934) 593 7 10 20 25 130 391 568 1020 2040
2020-06-29 17:00 6.18 166 17100 (1969) 2 (1934) 593 7 10 20 25 130 391 568 1020 2040
2020-06-29 16:30 6.19 168 17100 (1969) 2 (1934) 593 7 10 20 25 130 391 568 1020 2040
2020-06-29 16:00 6.20 171 17100 (1969) 2 (1934) 593 7 10 20 25 130 391 568 1020 2040
2020-06-29 15:30 6.21 174 17100 (1969) 2 (1934) 593 7 10 20 25 130 391 568 1020 2040
2020-06-29 15:00 6.22 176 17100 (1969) 2 (1934) 593 7 10 20 25 130 391 568 1020 2040
2020-06-29 14:30 6.23 179 17100 (1969) 2 (1934) 593 7 10 20 25 130 391 568 1020 2040
2020-06-29 14:00 6.23 179 17100 (1969) 2 (1934) 593 7 10 20 25 130 391 568 1020 2040
2020-06-29 13:30 6.25 185 17100 (1969) 2 (1934) 593 7 10 20 25 130 391 568 1020 2040
2020-06-29 13:00 6.26 188 17100 (1969) 2 (1934) 593 7 10 20 25 130 391 568 1020 2040
2020-06-29 12:30 6.26 188 17100 (1969) 2 (1934) 593 7 10 20 25 130 391 568 1020 2040
2020-06-29 12:00 6.27 191 17100 (1969) 2 (1934) 593 7 10 20 25 130 391 568 1020 2040
2020-06-29 11:30 6.28 194 17100 (1969) 2 (1934) 593 7 10 20 25 130 391 568 1020 2040
2020-06-29 11:00 6.28 194 17100 (1969) 2 (1934) 593 7 10 20 25 130 391 568 1020 2040
2020-06-29 10:30 6.29 197 17100 (1969) 2 (1934) 593 7 10 20 25 130 391 568 1020 2040
2020-06-29 10:00 6.30 200 17100 (1969) 2 (1934) 593 7 10 20 25 130 391 568 1020 2040
2020-06-29 09:30 6.31 203 17100 (1969) 2 (1934) 593 7 10 20 25 130 391 568 1020 2040
2020-06-29 09:00 6.32 206 17100 (1969) 2 (1934) 593 7 10 20 25 130 391 568 1020 2040
2020-06-29 08:30 6.33 209 17100 (1969) 2 (1934) 593 7 10 20 25 130 391 568 1020 2040
2020-06-29 08:00 6.33 209 17100 (1969) 2 (1934) 593 7 10 20 25 130 391 568 1020 2040
2020-06-29 07:30 6.34 212 17100 (1969) 2 (1934) 593 7 10 20 25 130 391 568 1020 2040
2020-06-29 07:00 6.35 215 17100 (1969) 2 (1934) 593 7 10 20 25 130 391 568 1020 2040
2020-06-29 06:30 6.36 218 17100 (1969) 2 (1934) 593 7 10 20 25 130 391 568 1020 2040
2020-06-29 06:00 6.37 222 17100 (1969) 2 (1934) 593 7 10 20 25 130 391 568 1020 2040
2020-06-29 05:30 6.37 222 17100 (1969) 2 (1934) 593 7 10 20 25 130 391 568 1020 2040
2020-06-29 05:00 6.38 225 17100 (1969) 2 (1934) 593 7 10 20 25 130 391 568 1020 2040
2020-06-29 04:30 6.39 228 17100 (1969) 2 (1934) 593 7 10 20 25 130 391 568 1020 2040
2020-06-29 04:00 6.40 232 17100 (1969) 2 (1934) 593 7 10 20 25 130 391 568 1020 2040
2020-06-29 03:30 6.41 235 17100 (1969) 2 (1934) 593 7 10 20 25 130 391 568 1020 2040
2020-06-29 03:00 6.42 238 17100 (1969) 2 (1934) 593 7 10 20 25 130 391 568 1020 2040
2020-06-29 02:30 6.42 238 17100 (1969) 2 (1934) 593 7 10 20 25 130 391 568 1020 2040
2020-06-29 02:00 6.43 242 17100 (1969) 2 (1934) 593 7 10 20 25 130 391 568 1020 2040
2020-06-29 01:30 6.43 242 17100 (1969) 2 (1934) 593 7 10 20 25 130 391 568 1020 2040
2020-06-29 01:00 6.43 242 17100 (1969) 2 (1934) 593 7 10 20 25 130 391 568 1020 2040
2020-06-29 00:30 6.43 242 17100 (1969) 2 (1934) 593 7 10 20 25 130 391 568 1020 2040
2020-06-29 00:00 6.43 242 17100 (1969) 2 (1934) 593 7 10 20 25 130 391 568 1020 2040
2020-06-28 23:30 6.45 249 4520 (1940) 2 (1934) 477 7 10 21 32 143 485 572 1240 3090
2020-06-28 23:00 6.46 252 4520 (1940) 2 (1934) 477 7 10 21 32 143 485 572 1240 3090
2020-06-28 22:30 6.48 260 4520 (1940) 2 (1934) 477 7 10 21 32 143 485 572 1240 3090
2020-06-28 22:00 6.49 263 4520 (1940) 2 (1934) 477 7 10 21 32 143 485 572 1240 3090
2020-06-28 21:30 6.50 267 4520 (1940) 2 (1934) 477 7 10 21 32 143 485 572 1240 3090
2020-06-28 21:00 6.52 273 4520 (1940) 2 (1934) 477 7 10 21 32 143 485 572 1240 3090
2020-06-28 20:30 6.53 276 4520 (1940) 2 (1934) 477 7 10 21 32 143 485 572 1240 3090
2020-06-28 20:00 6.54 279 4520 (1940) 2 (1934) 477 7 10 21 32 143 485 572 1240 3090
2020-06-28 19:30 6.55 282 4520 (1940) 2 (1934) 477 7 10 21 32 143 485 572 1240 3090
2020-06-28 19:00 6.57 288 4520 (1940) 2 (1934) 477 7 10 21 32 143 485 572 1240 3090
2020-06-28 18:30 6.58 291 4520 (1940) 2 (1934) 477 7 10 21 32 143 485 572 1240 3090
2020-06-28 18:00 6.59 294 4520 (1940) 2 (1934) 477 7 10 21 32 143 485 572 1240 3090
2020-06-28 17:30 6.60 297 4520 (1940) 2 (1934) 477 7 10 21 32 143 485 572 1240 3090
2020-06-28 17:00 6.60 297 4520 (1940) 2 (1934) 477 7 10 21 32 143 485 572 1240 3090
2020-06-28 16:30 6.60 297 4520 (1940) 2 (1934) 477 7 10 21 32 143 485 572 1240 3090
2020-06-28 16:00 6.60 297 4520 (1940) 2 (1934) 477 7 10 21 32 143 485 572 1240 3090
2020-06-28 15:30 6.60 297 4520 (1940) 2 (1934) 477 7 10 21 32 143 485 572 1240 3090
2020-06-28 15:00 6.61 301 4520 (1940) 2 (1934) 477 7 10 21 32 143 485 572 1240 3090
2020-06-28 14:30 6.62 304 4520 (1940) 2 (1934) 477 7 10 21 32 143 485 572 1240 3090
2020-06-28 14:00 6.62 304 4520 (1940) 2 (1934) 477 7 10 21 32 143 485 572 1240 3090
2020-06-28 13:30 6.63 307 4520 (1940) 2 (1934) 477 7 10 21 32 143 485 572 1240 3090
2020-06-28 13:00 6.63 307 4520 (1940) 2 (1934) 477 7 10 21 32 143 485 572 1240 3090
2020-06-28 12:30 6.62 304 4520 (1940) 2 (1934) 477 7 10 21 32 143 485 572 1240 3090
2020-06-28 12:00 6.59 294 4520 (1940) 2 (1934) 477 7 10 21 32 143 485 572 1240 3090
2020-06-28 11:30 6.56 285 4520 (1940) 2 (1934) 477 7 10 21 32 143 485 572 1240 3090
2020-06-28 11:00 6.52 273 4520 (1940) 2 (1934) 477 7 10 21 32 143 485 572 1240 3090
2020-06-28 10:30 6.44 245 4520 (1940) 2 (1934) 477 7 10 21 32 143 485 572 1240 3090
2020-06-28 10:00 6.44 245 4520 (1940) 2 (1934) 477 7 10 21 32 143 485 572 1240 3090
2020-06-28 09:30 6.42 238 4520 (1940) 2 (1934) 477 7 10 21 32 143 485 572 1240 3090
2020-06-28 09:00 6.42 238 4520 (1940) 2 (1934) 477 7 10 21 32 143 485 572 1240 3090
2020-06-28 08:30 6.44 245 4520 (1940) 2 (1934) 477 7 10 21 32 143 485 572 1240 3090
2020-06-28 08:00 6.47 256 4520 (1940) 2 (1934) 477 7 10 21 32 143 485 572 1240 3090
2020-06-28 07:30 6.46 252 4520 (1940) 2 (1934) 477 7 10 21 32 143 485 572 1240 3090
2020-06-28 07:00 6.40 232 4520 (1940) 2 (1934) 477 7 10 21 32 143 485 572 1240 3090
2020-06-28 06:30 6.42 238 4520 (1940) 2 (1934) 477 7 10 21 32 143 485 572 1240 3090
2020-06-28 06:00 6.44 245 4520 (1940) 2 (1934) 477 7 10 21 32 143 485 572 1240 3090
2020-06-28 05:30 6.45 249 4520 (1940) 2 (1934) 477 7 10 21 32 143 485 572 1240 3090
2020-06-28 05:00 6.47 256 4520 (1940) 2 (1934) 477 7 10 21 32 143 485 572 1240 3090
2020-06-28 04:30 6.48 260 4520 (1940) 2 (1934) 477 7 10 21 32 143 485 572 1240 3090
2020-06-28 04:00 6.46 252 4520 (1940) 2 (1934) 477 7 10 21 32 143 485 572 1240 3090
2020-06-28 03:30 6.40 232 4520 (1940) 2 (1934) 477 7 10 21 32 143 485 572 1240 3090
2020-06-28 03:00 6.33 209 4520 (1940) 2 (1934) 477 7 10 21 32 143 485 572 1240 3090
2020-06-28 02:30 6.26 188 4520 (1940) 2 (1934) 477 7 10 21 32 143 485 572 1240 3090
2020-06-28 02:00 6.24 182 4520 (1940) 2 (1934) 477 7 10 21 32 143 485 572 1240 3090
2020-06-28 01:30 6.23 179 4520 (1940) 2 (1934) 477 7 10 21 32 143 485 572 1240 3090
2020-06-28 01:00 6.23 179 4520 (1940) 2 (1934) 477 7 10 21 32 143 485 572 1240 3090
2020-06-28 00:30 6.25 185 4520 (1940) 2 (1934) 477 7 10 21 32 143 485 572 1240 3090
2020-06-28 00:00 6.29 197 4520 (1940) 2 (1934) 477 7 10 21 32 143 485 572 1240 3090
2020-06-27 23:30 6.35 215 13300 (2015) 3 (1936) 794 7 11 23 26 107 526 637 1960 4580
2020-06-27 23:00 6.43 242 13300 (2015) 3 (1936) 794 7 11 23 26 107 526 637 1960 4580
2020-06-27 22:30 6.56 285 13300 (2015) 3 (1936) 794 7 11 23 26 107 526 637 1960 4580
2020-06-27 22:00 6.72 337 13300 (2015) 3 (1936) 794 7 11 23 26 107 526 637 1960 4580
2020-06-27 21:30 6.76 351 13300 (2015) 3 (1936) 794 7 11 23 26 107 526 637 1960 4580
2020-06-27 21:00 6.34 212 13300 (2015) 3 (1936) 794 7 11 23 26 107 526 637 1960 4580
2020-06-27 20:30 6.02 127 13300 (2015) 3 (1936) 794 7 11 23 26 107 526 637 1960 4580
2020-06-27 20:00 6.03 129 13300 (2015) 3 (1936) 794 7 11 23 26 107 526 637 1960 4580
2020-06-27 19:30 6.04 132 13300 (2015) 3 (1936) 794 7 11 23 26 107 526 637 1960 4580
2020-06-27 19:00 5.97 117 13300 (2015) 3 (1936) 794 7 11 23 26 107 526 637 1960 4580
2020-06-27 18:30 6.02 127 13300 (2015) 3 (1936) 794 7 11 23 26 107 526 637 1960 4580
2020-06-27 18:00 5.99 121 13300 (2015) 3 (1936) 794 7 11 23 26 107 526 637 1960 4580
2020-06-27 17:30 6.00 123 13300 (2015) 3 (1936) 794 7 11 23 26 107 526 637 1960 4580
2020-06-27 17:00 6.00 123 13300 (2015) 3 (1936) 794 7 11 23 26 107 526 637 1960 4580
2020-06-27 16:30 6.00 123 13300 (2015) 3 (1936) 794 7 11 23 26 107 526 637 1960 4580
2020-06-27 16:00 6.00 123 13300 (2015) 3 (1936) 794 7 11 23 26 107 526 637 1960 4580
2020-06-27 15:30 5.97 117 13300 (2015) 3 (1936) 794 7 11 23 26 107 526 637 1960 4580
2020-06-27 15:00 5.96 115 13300 (2015) 3 (1936) 794 7 11 23 26 107 526 637 1960 4580
2020-06-27 14:30 6.00 123 13300 (2015) 3 (1936) 794 7 11 23 26 107 526 637 1960 4580
2020-06-27 14:00 5.98 119 13300 (2015) 3 (1936) 794 7 11 23 26 107 526 637 1960 4580
2020-06-27 13:30 6.02 127 13300 (2015) 3 (1936) 794 7 11 23 26 107 526 637 1960 4580
2020-06-27 13:00 6.01 125 13300 (2015) 3 (1936) 794 7 11 23 26 107 526 637 1960 4580
2020-06-27 12:30 6.00 123 13300 (2015) 3 (1936) 794 7 11 23 26 107 526 637 1960 4580
2020-06-27 12:00 6.02 127 13300 (2015) 3 (1936) 794 7 11 23 26 107 526 637 1960 4580
2020-06-27 11:30 6.00 123 13300 (2015) 3 (1936) 794 7 11 23 26 107 526 637 1960 4580
2020-06-27 11:00 5.97 117 13300 (2015) 3 (1936) 794 7 11 23 26 107 526 637 1960 4580
2020-06-27 10:30 5.99 121 13300 (2015) 3 (1936) 794 7 11 23 26 107 526 637 1960 4580
2020-06-27 10:00 5.97 117 13300 (2015) 3 (1936) 794 7 11 23 26 107 526 637 1960 4580
2020-06-27 09:30 5.98 119 13300 (2015) 3 (1936) 794 7 11 23 26 107 526 637 1960 4580
2020-06-27 09:00 5.97 117 13300 (2015) 3 (1936) 794 7 11 23 26 107 526 637 1960 4580
2020-06-27 08:30 6.03 129 13300 (2015) 3 (1936) 794 7 11 23 26 107 526 637 1960 4580
2020-06-27 08:00 6.04 132 13300 (2015) 3 (1936) 794 7 11 23 26 107 526 637 1960 4580
2020-06-27 07:30 6.04 132 13300 (2015) 3 (1936) 794 7 11 23 26 107 526 637 1960 4580
2020-06-27 07:00 6.04 132 13300 (2015) 3 (1936) 794 7 11 23 26 107 526 637 1960 4580
2020-06-27 06:30 6.04 132 13300 (2015) 3 (1936) 794 7 11 23 26 107 526 637 1960 4580
2020-06-27 06:00 6.05 134 13300 (2015) 3 (1936) 794 7 11 23 26 107 526 637 1960 4580
2020-06-27 05:30 6.05 134 13300 (2015) 3 (1936) 794 7 11 23 26 107 526 637 1960 4580
2020-06-27 05:00 6.05 134 13300 (2015) 3 (1936) 794 7 11 23 26 107 526 637 1960 4580
2020-06-27 04:30 6.06 136 13300 (2015) 3 (1936) 794 7 11 23 26 107 526 637 1960 4580
2020-06-27 04:00 6.06 136 13300 (2015) 3 (1936) 794 7 11 23 26 107 526 637 1960 4580
2020-06-27 03:30 6.06 136 13300 (2015) 3 (1936) 794 7 11 23 26 107 526 637 1960 4580
2020-06-27 03:00 6.07 138 13300 (2015) 3 (1936) 794 7 11 23 26 107 526 637 1960 4580
2020-06-27 02:30 6.07 138 13300 (2015) 3 (1936) 794 7 11 23 26 107 526 637 1960 4580
2020-06-27 02:00 6.07 138 13300 (2015) 3 (1936) 794 7 11 23 26 107 526 637 1960 4580
2020-06-27 01:30 6.07 138 13300 (2015) 3 (1936) 794 7 11 23 26 107 526 637 1960 4580
2020-06-27 01:00 6.08 141 13300 (2015) 3 (1936) 794 7 11 23 26 107 526 637 1960 4580
2020-06-27 00:30 6.08 141 13300 (2015) 3 (1936) 794 7 11 23 26 107 526 637 1960 4580
2020-06-27 00:00 6.08 141 13300 (2015) 3 (1936) 794 7 11 23 26 107 526 637 1960 4580
2020-06-26 23:30 6.09 143 35800 (2015) 3 (1936) 1130 6 11 22 28 101 423 621 1900 6840
2020-06-26 23:00 6.09 143 35800 (2015) 3 (1936) 1130 6 11 22 28 101 423 621 1900 6840
2020-06-26 22:30 6.09 143 35800 (2015) 3 (1936) 1130 6 11 22 28 101 423 621 1900 6840
2020-06-26 22:00 6.09 143 35800 (2015) 3 (1936) 1130 6 11 22 28 101 423 621 1900 6840
2020-06-26 21:30 6.10 146 35800 (2015) 3 (1936) 1130 6 11 22 28 101 423 621 1900 6840
2020-06-26 21:00 6.10 146 35800 (2015) 3 (1936) 1130 6 11 22 28 101 423 621 1900 6840
2020-06-26 20:30 6.10 146 35800 (2015) 3 (1936) 1130 6 11 22 28 101 423 621 1900 6840
2020-06-26 20:00 6.11 148 35800 (2015) 3 (1936) 1130 6 11 22 28 101 423 621 1900 6840
2020-06-26 19:30 6.11 148 35800 (2015) 3 (1936) 1130 6 11 22 28 101 423 621 1900 6840
2020-06-26 19:00 6.12 150 35800 (2015) 3 (1936) 1130 6 11 22 28 101 423 621 1900 6840
2020-06-26 18:30 6.12 150 35800 (2015) 3 (1936) 1130 6 11 22 28 101 423 621 1900 6840
2020-06-26 18:00 6.13 153 35800 (2015) 3 (1936) 1130 6 11 22 28 101 423 621 1900 6840
2020-06-26 17:30 6.13 153 35800 (2015) 3 (1936) 1130 6 11 22 28 101 423 621 1900 6840
2020-06-26 17:00 6.14 155 35800 (2015) 3 (1936) 1130 6 11 22 28 101 423 621 1900 6840
2020-06-26 16:30 6.14 155 35800 (2015) 3 (1936) 1130 6 11 22 28 101 423 621 1900 6840
2020-06-26 16:00 6.10 146 35800 (2015) 3 (1936) 1130 6 11 22 28 101 423 621 1900 6840
2020-06-26 15:30 6.15 158 35800 (2015) 3 (1936) 1130 6 11 22 28 101 423 621 1900 6840
2020-06-26 15:00 6.15 158 35800 (2015) 3 (1936) 1130 6 11 22 28 101 423 621 1900 6840
2020-06-26 14:30 6.16 160 35800 (2015) 3 (1936) 1130 6 11 22 28 101 423 621 1900 6840
2020-06-26 14:00 6.16 160 35800 (2015) 3 (1936) 1130 6 11 22 28 101 423 621 1900 6840
2020-06-26 13:30 6.17 163 35800 (2015) 3 (1936) 1130 6 11 22 28 101 423 621 1900 6840
2020-06-26 13:00 6.17 163 35800 (2015) 3 (1936) 1130 6 11 22 28 101 423 621 1900 6840
2020-06-26 12:30 6.17 163 35800 (2015) 3 (1936) 1130 6 11 22 28 101 423 621 1900 6840
2020-06-26 12:00 6.16 160 35800 (2015) 3 (1936) 1130 6 11 22 28 101 423 621 1900 6840
2020-06-26 11:30 6.17 163 35800 (2015) 3 (1936) 1130 6 11 22 28 101 423 621 1900 6840
2020-06-26 11:00 6.17 163 35800 (2015) 3 (1936) 1130 6 11 22 28 101 423 621 1900 6840
2020-06-26 10:30 6.15 158 35800 (2015) 3 (1936) 1130 6 11 22 28 101 423 621 1900 6840
2020-06-26 10:00 6.18 166 35800 (2015) 3 (1936) 1130 6 11 22 28 101 423 621 1900 6840
2020-06-26 09:30 6.15 158 35800 (2015) 3 (1936) 1130 6 11 22 28 101 423 621 1900 6840
2020-06-26 09:00 6.19 168 35800 (2015) 3 (1936) 1130 6 11 22 28 101 423 621 1900 6840
2020-06-26 08:30 6.19 168 35800 (2015) 3 (1936) 1130 6 11 22 28 101 423 621 1900 6840
2020-06-26 08:00 6.20 171 35800 (2015) 3 (1936) 1130 6 11 22 28 101 423 621 1900 6840
2020-06-26 07:30 6.21 174 35800 (2015) 3 (1936) 1130 6 11 22 28 101 423 621 1900 6840
2020-06-26 07:00 6.21 174 35800 (2015) 3 (1936) 1130 6 11 22 28 101 423 621 1900 6840
2020-06-26 06:30 6.21 174 35800 (2015) 3 (1936) 1130 6 11 22 28 101 423 621 1900 6840
2020-06-26 06:00 6.22 176 35800 (2015) 3 (1936) 1130 6 11 22 28 101 423 621 1900 6840
2020-06-26 05:30 6.22 176 35800 (2015) 3 (1936) 1130 6 11 22 28 101 423 621 1900 6840
2020-06-26 05:00 6.23 179 35800 (2015) 3 (1936) 1130 6 11 22 28 101 423 621 1900 6840
2020-06-26 04:30 6.23 179 35800 (2015) 3 (1936) 1130 6 11 22 28 101 423 621 1900 6840
2020-06-26 04:00 6.23 179 35800 (2015) 3 (1936) 1130 6 11 22 28 101 423 621 1900 6840
2020-06-26 03:30 6.24 182 35800 (2015) 3 (1936) 1130 6 11 22 28 101 423 621 1900 6840
2020-06-26 03:00 6.24 182 35800 (2015) 3 (1936) 1130 6 11 22 28 101 423 621 1900 6840
2020-06-26 02:30 6.25 185 35800 (2015) 3 (1936) 1130 6 11 22 28 101 423 621 1900 6840
2020-06-26 02:00 6.25 185 35800 (2015) 3 (1936) 1130 6 11 22 28 101 423 621 1900 6840
2020-06-26 01:30 6.25 185 35800 (2015) 3 (1936) 1130 6 11 22 28 101 423 621 1900 6840
2020-06-26 01:00 6.26 188 35800 (2015) 3 (1936) 1130 6 11 22 28 101 423 621 1900 6840
2020-06-26 00:30 6.26 188 35800 (2015) 3 (1936) 1130 6 11 22 28 101 423 621 1900 6840
2020-06-26 00:00 6.27 191 35800 (2015) 3 (1936) 1130 6 11 22 28 101 423 621 1900 6840
2020-06-25 23:30 6.28 194 7260 (1969) 4 (1936) 514 8 12 19 31 96 484 680 1390 2370
2020-06-25 23:00 6.28 194 7260 (1969) 4 (1936) 514 8 12 19 31 96 484 680 1390 2370
2020-06-25 22:30 6.29 197 7260 (1969) 4 (1936) 514 8 12 19 31 96 484 680 1390 2370
2020-06-25 22:00 6.29 197 7260 (1969) 4 (1936) 514 8 12 19 31 96 484 680 1390 2370
2020-06-25 21:30 6.30 200 7260 (1969) 4 (1936) 514 8 12 19 31 96 484 680 1390 2370
2020-06-25 21:00 6.30 200 7260 (1969) 4 (1936) 514 8 12 19 31 96 484 680 1390 2370
2020-06-25 20:30 6.31 203 7260 (1969) 4 (1936) 514 8 12 19 31 96 484 680 1390 2370
2020-06-25 20:00 6.31 203 7260 (1969) 4 (1936) 514 8 12 19 31 96 484 680 1390 2370
2020-06-25 19:30 6.32 206 7260 (1969) 4 (1936) 514 8 12 19 31 96 484 680 1390 2370
2020-06-25 19:00 6.33 209 7260 (1969) 4 (1936) 514 8 12 19 31 96 484 680 1390 2370
2020-06-25 18:30 6.34 212 7260 (1969) 4 (1936) 514 8 12 19 31 96 484 680 1390 2370
2020-06-25 18:00 6.34 212 7260 (1969) 4 (1936) 514 8 12 19 31 96 484 680 1390 2370
2020-06-25 17:30 6.35 215 7260 (1969) 4 (1936) 514 8 12 19 31 96 484 680 1390 2370
2020-06-25 17:00 6.36 218 7260 (1969) 4 (1936) 514 8 12 19 31 96 484 680 1390 2370
2020-06-25 16:30 6.37 222 7260 (1969) 4 (1936) 514 8 12 19 31 96 484 680 1390 2370
2020-06-25 16:00 6.37 222 7260 (1969) 4 (1936) 514 8 12 19 31 96 484 680 1390 2370
2020-06-25 15:30 6.38 225 7260 (1969) 4 (1936) 514 8 12 19 31 96 484 680 1390 2370
2020-06-25 15:00 6.39 228 7260 (1969) 4 (1936) 514 8 12 19 31 96 484 680 1390 2370
2020-06-25 14:30 6.39 228 7260 (1969) 4 (1936) 514 8 12 19 31 96 484 680 1390 2370
2020-06-25 14:00 6.40 232 7260 (1969) 4 (1936) 514 8 12 19 31 96 484 680 1390 2370
2020-06-25 13:30 6.40 232 7260 (1969) 4 (1936) 514 8 12 19 31 96 484 680 1390 2370
2020-06-25 13:00 6.41 235 7260 (1969) 4 (1936) 514 8 12 19 31 96 484 680 1390 2370
2020-06-25 12:30 6.41 235 7260 (1969) 4 (1936) 514 8 12 19 31 96 484 680 1390 2370
2020-06-25 12:00 6.42 238 7260 (1969) 4 (1936) 514 8 12 19 31 96 484 680 1390 2370
2020-06-25 11:30 6.42 238 7260 (1969) 4 (1936) 514 8 12 19 31 96 484 680 1390 2370
2020-06-25 11:00 6.41 235 7260 (1969) 4 (1936) 514 8 12 19 31 96 484 680 1390 2370
2020-06-25 10:30 6.43 242 7260 (1969) 4 (1936) 514 8 12 19 31 96 484 680 1390 2370
2020-06-25 10:00 6.44 245 7260 (1969) 4 (1936) 514 8 12 19 31 96 484 680 1390 2370
2020-06-25 09:30 6.45 249 7260 (1969) 4 (1936) 514 8 12 19 31 96 484 680 1390 2370
2020-06-25 09:00 6.46 252 7260 (1969) 4 (1936) 514 8 12 19 31 96 484 680 1390 2370
2020-06-25 08:30 6.47 256 7260 (1969) 4 (1936) 514 8 12 19 31 96 484 680 1390 2370
2020-06-25 08:00 6.48 260 7260 (1969) 4 (1936) 514 8 12 19 31 96 484 680 1390 2370
2020-06-25 07:30 6.49 263 7260 (1969) 4 (1936) 514 8 12 19 31 96 484 680 1390 2370
2020-06-25 07:00 6.50 267 7260 (1969) 4 (1936) 514 8 12 19 31 96 484 680 1390 2370
2020-06-25 06:30 6.50 267 7260 (1969) 4 (1936) 514 8 12 19 31 96 484 680 1390 2370
2020-06-25 06:00 6.51 270 7260 (1969) 4 (1936) 514 8 12 19 31 96 484 680 1390 2370
2020-06-25 05:30 6.52 273 7260 (1969) 4 (1936) 514 8 12 19 31 96 484 680 1390 2370
2020-06-25 05:00 6.53 276 7260 (1969) 4 (1936) 514 8 12 19 31 96 484 680 1390 2370
2020-06-25 04:30 6.54 279 7260 (1969) 4 (1936) 514 8 12 19 31 96 484 680 1390 2370
2020-06-25 04:00 6.55 282 7260 (1969) 4 (1936) 514 8 12 19 31 96 484 680 1390 2370
2020-06-25 03:30 6.56 285 7260 (1969) 4 (1936) 514 8 12 19 31 96 484 680 1390 2370
2020-06-25 03:00 6.56 285 7260 (1969) 4 (1936) 514 8 12 19 31 96 484 680 1390 2370
2020-06-25 02:30 6.57 288 7260 (1969) 4 (1936) 514 8 12 19 31 96 484 680 1390 2370
2020-06-25 02:00 6.58 291 7260 (1969) 4 (1936) 514 8 12 19 31 96 484 680 1390 2370
2020-06-25 01:30 6.59 294 7260 (1969) 4 (1936) 514 8 12 19 31 96 484 680 1390 2370
2020-06-25 01:00 6.60 297 7260 (1969) 4 (1936) 514 8 12 19 31 96 484 680 1390 2370
2020-06-25 00:30 6.61 301 7260 (1969) 4 (1936) 514 8 12 19 31 96 484 680 1390 2370
2020-06-25 00:00 6.62 304 7260 (1969) 4 (1936) 514 8 12 19 31 96 484 680 1390 2370
2020-06-24 23:30 6.63 307 8550 (2000) 4 (1936) 587 9 13 19 28 94 281 580 1590 3710
2020-06-24 23:00 6.64 310 8550 (2000) 4 (1936) 587 9 13 19 28 94 281 580 1590 3710
2020-06-24 22:30 6.65 313 8550 (2000) 4 (1936) 587 9 13 19 28 94 281 580 1590 3710
2020-06-24 22:00 6.66 317 8550 (2000) 4 (1936) 587 9 13 19 28 94 281 580 1590 3710
2020-06-24 21:30 6.67 320 8550 (2000) 4 (1936) 587 9 13 19 28 94 281 580 1590 3710
2020-06-24 21:00 6.68 323 8550 (2000) 4 (1936) 587 9 13 19 28 94 281 580 1590 3710
2020-06-24 20:30 6.70 330 8550 (2000) 4 (1936) 587 9 13 19 28 94 281 580 1590 3710
2020-06-24 20:00 6.71 333 8550 (2000) 4 (1936) 587 9 13 19 28 94 281 580 1590 3710
2020-06-24 19:30 6.72 337 8550 (2000) 4 (1936) 587 9 13 19 28 94 281 580 1590 3710
2020-06-24 19:00 6.74 344 8550 (2000) 4 (1936) 587 9 13 19 28 94 281 580 1590 3710
2020-06-24 18:30 6.75 347 8550 (2000) 4 (1936) 587 9 13 19 28 94 281 580 1590 3710
2020-06-24 18:00 6.77 354 8550 (2000) 4 (1936) 587 9 13 19 28 94 281 580 1590 3710
2020-06-24 17:30 6.78 358 8550 (2000) 4 (1936) 587 9 13 19 28 94 281 580 1590 3710
2020-06-24 17:00 6.79 361 8550 (2000) 4 (1936) 587 9 13 19 28 94 281 580 1590 3710
2020-06-24 16:30 6.81 368 8550 (2000) 4 (1936) 587 9 13 19 28 94 281 580 1590 3710
2020-06-24 16:00 6.82 372 8550 (2000) 4 (1936) 587 9 13 19 28 94 281 580 1590 3710
2020-06-24 15:30 6.84 379 8550 (2000) 4 (1936) 587 9 13 19 28 94 281 580 1590 3710
2020-06-24 15:00 6.85 383 8550 (2000) 4 (1936) 587 9 13 19 28 94 281 580 1590 3710
2020-06-24 14:30 6.86 387 8550 (2000) 4 (1936) 587 9 13 19 28 94 281 580 1590 3710
2020-06-24 14:00 6.88 394 8550 (2000) 4 (1936) 587 9 13 19 28 94 281 580 1590 3710
2020-06-24 13:30 6.89 398 8550 (2000) 4 (1936) 587 9 13 19 28 94 281 580 1590 3710
2020-06-24 13:00 6.91 406 8550 (2000) 4 (1936) 587 9 13 19 28 94 281 580 1590 3710
2020-06-24 12:30 410 8550 (2000) 4 (1936) 587 9 13 19 28 94 281 580 1590 3710
2020-06-24 12:00 6.93 414 8550 (2000) 4 (1936) 587 9 13 19 28 94 281 580 1590 3710
2020-06-24 11:30 6.95 422 8550 (2000) 4 (1936) 587 9 13 19 28 94 281 580 1590 3710
2020-06-24 11:00 6.96 425 8550 (2000) 4 (1936) 587 9 13 19 28 94 281 580 1590 3710
2020-06-24 10:30 6.97 429 8550 (2000) 4 (1936) 587 9 13 19 28 94 281 580 1590 3710
2020-06-24 10:00 6.99 438 8550 (2000) 4 (1936) 587 9 13 19 28 94 281 580 1590 3710
2020-06-24 09:30 7.01 446 8550 (2000) 4 (1936) 587 9 13 19 28 94 281 580 1590 3710
2020-06-24 09:00 7.03 454 8550 (2000) 4 (1936) 587 9 13 19 28 94 281 580 1590 3710
2020-06-24 08:30 7.05 462 8550 (2000) 4 (1936) 587 9 13 19 28 94 281 580 1590 3710
2020-06-24 08:00 7.07 471 8550 (2000) 4 (1936) 587 9 13 19 28 94 281 580 1590 3710
2020-06-24 07:30 7.10 484 8550 (2000) 4 (1936) 587 9 13 19 28 94 281 580 1590 3710
2020-06-24 07:00 7.12 491 8550 (2000) 4 (1936) 587 9 13 19 28 94 281 580 1590 3710
2020-06-24 06:30 7.14 498 8550 (2000) 4 (1936) 587 9 13 19 28 94 281 580 1590 3710
2020-06-24 06:00 7.16 506 8550 (2000) 4 (1936) 587 9 13 19 28 94 281 580 1590 3710
2020-06-24 05:30 7.18 513 8550 (2000) 4 (1936) 587 9 13 19 28 94 281 580 1590 3710
2020-06-24 05:00 7.21 525 8550 (2000) 4 (1936) 587 9 13 19 28 94 281 580 1590 3710
2020-06-24 04:30 7.23 533 8550 (2000) 4 (1936) 587 9 13 19 28 94 281 580 1590 3710
2020-06-24 04:00 7.26 544 8550 (2000) 4 (1936) 587 9 13 19 28 94 281 580 1590 3710
2020-06-24 03:30 7.29 556 8550 (2000) 4 (1936) 587 9 13 19 28 94 281 580 1590 3710
2020-06-24 03:00 7.31 564 8550 (2000) 4 (1936) 587 9 13 19 28 94 281 580 1590 3710
2020-06-24 02:30 7.35 581 8550 (2000) 4 (1936) 587 9 13 19 28 94 281 580 1590 3710
2020-06-24 02:00 7.38 593 8550 (2000) 4 (1936) 587 9 13 19 28 94 281 580 1590 3710
2020-06-24 01:30 7.41 606 8550 (2000) 4 (1936) 587 9 13 19 28 94 281 580 1590 3710
2020-06-24 01:00 7.44 618 8550 (2000) 4 (1936) 587 9 13 19 28 94 281 580 1590 3710
2020-06-24 00:30 7.48 636 8550 (2000) 4 (1936) 587 9 13 19 28 94 281 580 1590 3710
2020-06-24 00:00 7.51 649 8550 (2000) 4 (1936) 587 9 13 19 28 94 281 580 1590 3710
2020-06-23 23:30 7.55 667 15200 (2015) 4 (1936) 775 11 14 22 30 89 258 385 1770 5180
2020-06-23 23:00 7.58 680 15200 (2015) 4 (1936) 775 11 14 22 30 89 258 385 1770 5180
2020-06-23 22:30 7.62 699 15200 (2015) 4 (1936) 775 11 14 22 30 89 258 385 1770 5180
2020-06-23 22:00 7.66 717 15200 (2015) 4 (1936) 775 11 14 22 30 89 258 385 1770 5180
2020-06-23 21:30 7.70 736 15200 (2015) 4 (1936) 775 11 14 22 30 89 258 385 1770 5180
2020-06-23 21:00 7.75 761 15200 (2015) 4 (1936) 775 11 14 22 30 89 258 385 1770 5180
2020-06-23 20:30 7.80 785 15200 (2015) 4 (1936) 775 11 14 22 30 89 258 385 1770 5180
2020-06-23 20:00 7.84 806 15200 (2015) 4 (1936) 775 11 14 22 30 89 258 385 1770 5180
2020-06-23 19:30 7.90 837 15200 (2015) 4 (1936) 775 11 14 22 30 89 258 385 1770 5180
2020-06-23 19:00 7.96 868 15200 (2015) 4 (1936) 775 11 14 22 30 89 258 385 1770 5180
2020-06-23 18:30 8.03 906 15200 (2015) 4 (1936) 775 11 14 22 30 89 258 385 1770 5180
2020-06-23 18:00 8.09 940 15200 (2015) 4 (1936) 775 11 14 22 30 89 258 385 1770 5180
2020-06-23 17:30 8.16 980 15200 (2015) 4 (1936) 775 11 14 22 30 89 258 385 1770 5180
2020-06-23 17:00 8.23 1020 15200 (2015) 4 (1936) 775 11 14 22 30 89 258 385 1770 5180
2020-06-23 16:30 8.31 1070 15200 (2015) 4 (1936) 775 11 14 22 30 89 258 385 1770 5180
2020-06-23 16:00 8.40 1130 15200 (2015) 4 (1936) 775 11 14 22 30 89 258 385 1770 5180
2020-06-23 15:30 8.49 1180 15200 (2015) 4 (1936) 775 11 14 22 30 89 258 385 1770 5180
2020-06-23 15:00 8.59 1250 15200 (2015) 4 (1936) 775 11 14 22 30 89 258 385 1770 5180
2020-06-23 14:30 8.69 1320 15200 (2015) 4 (1936) 775 11 14 22 30 89 258 385 1770 5180
2020-06-23 14:00 8.80 1400 15200 (2015) 4 (1936) 775 11 14 22 30 89 258 385 1770 5180
2020-06-23 13:30 8.89 1470 15200 (2015) 4 (1936) 775 11 14 22 30 89 258 385 1770 5180
2020-06-23 13:00 9.02 1570 15200 (2015) 4 (1936) 775 11 14 22 30 89 258 385 1770 5180
2020-06-23 12:30 9.16 1680 15200 (2015) 4 (1936) 775 11 14 22 30 89 258 385 1770 5180
2020-06-23 12:00 9.31 1800 15200 (2015) 4 (1936) 775 11 14 22 30 89 258 385 1770 5180
2020-06-23 11:30 9.44 1890 15200 (2015) 4 (1936) 775 11 14 22 30 89 258 385 1770 5180
2020-06-23 11:00 9.60 1990 15200 (2015) 4 (1936) 775 11 14 22 30 89 258 385 1770 5180
2020-06-23 10:30 9.75 2080 15200 (2015) 4 (1936) 775 11 14 22 30 89 258 385 1770 5180
2020-06-23 10:00 9.89 2150 15200 (2015) 4 (1936) 775 11 14 22 30 89 258 385 1770 5180
2020-06-23 09:30 10.05 2230 15200 (2015) 4 (1936) 775 11 14 22 30 89 258 385 1770 5180
2020-06-23 09:00 10.18 2310 15200 (2015) 4 (1936) 775 11 14 22 30 89 258 385 1770 5180
2020-06-23 08:30 10.33 2400 15200 (2015) 4 (1936) 775 11 14 22 30 89 258 385 1770 5180
2020-06-23 08:00 10.46 2490 15200 (2015) 4 (1936) 775 11 14 22 30 89 258 385 1770 5180
2020-06-23 07:30 10.59 2570 15200 (2015) 4 (1936) 775 11 14 22 30 89 258 385 1770 5180
2020-06-23 07:00 10.72 2650 15200 (2015) 4 (1936) 775 11 14 22 30 89 258 385 1770 5180
2020-06-23 06:30 10.78 2690 15200 (2015) 4 (1936) 775 11 14 22 30 89 258 385 1770 5180
2020-06-23 06:00 10.84 2730 15200 (2015) 4 (1936) 775 11 14 22 30 89 258 385 1770 5180
2020-06-23 05:30 10.89 2760 15200 (2015) 4 (1936) 775 11 14 22 30 89 258 385 1770 5180
2020-06-23 05:00 10.91 2770 15200 (2015) 4 (1936) 775 11 14 22 30 89 258 385 1770 5180
2020-06-23 04:30 10.95 2800 15200 (2015) 4 (1936) 775 11 14 22 30 89 258 385 1770 5180
2020-06-23 04:00 10.98 2820 15200 (2015) 4 (1936) 775 11 14 22 30 89 258 385 1770 5180
2020-06-23 03:30 11.03 2850 15200 (2015) 4 (1936) 775 11 14 22 30 89 258 385 1770 5180
2020-06-23 03:00 11.05 2870 15200 (2015) 4 (1936) 775 11 14 22 30 89 258 385 1770 5180
2020-06-23 02:30 11.02 2850 15200 (2015) 4 (1936) 775 11 14 22 30 89 258 385 1770 5180
2020-06-23 02:00 11.02 2850 15200 (2015) 4 (1936) 775 11 14 22 30 89 258 385 1770 5180
2020-06-23 01:30 11.02 2850 15200 (2015) 4 (1936) 775 11 14 22 30 89 258 385 1770 5180
2020-06-23 01:00 11.05 2870 15200 (2015) 4 (1936) 775 11 14 22 30 89 258 385 1770 5180
2020-06-23 00:30 11.06 2870 15200 (2015) 4 (1936) 775 11 14 22 30 89 258 385 1770 5180
2020-06-23 00:00 10.95 2800 15200 (2015) 4 (1936) 775 11 14 22 30 89 258 385 1770 5180
2020-06-22 23:30 10.64 2600 47400 (2015) 8 (1936) 1230 11 16 22 30 77 308 500 1990 4700
2020-06-22 23:00 10.05 2230 47400 (2015) 8 (1936) 1230 11 16 22 30 77 308 500 1990 4700
2020-06-22 22:30 9.13 1650 47400 (2015) 8 (1936) 1230 11 16 22 30 77 308 500 1990 4700
2020-06-22 22:00 8.29 1060 47400 (2015) 8 (1936) 1230 11 16 22 30 77 308 500 1990 4700
2020-06-22 21:30 8.07 929 47400 (2015) 8 (1936) 1230 11 16 22 30 77 308 500 1990 4700
2020-06-22 21:00 7.73 751 47400 (2015) 8 (1936) 1230 11 16 22 30 77 308 500 1990 4700
2020-06-22 20:30 7.38 593 47400 (2015) 8 (1936) 1230 11 16 22 30 77 308 500 1990 4700
2020-06-22 20:00 7.24 536 47400 (2015) 8 (1936) 1230 11 16 22 30 77 308 500 1990 4700
2020-06-22 19:30 7.15 502 47400 (2015) 8 (1936) 1230 11 16 22 30 77 308 500 1990 4700
2020-06-22 19:00 6.90 402 47400 (2015) 8 (1936) 1230 11 16 22 30 77 308 500 1990 4700
2020-06-22 18:30 6.34 212 47400 (2015) 8 (1936) 1230 11 16 22 30 77 308 500 1990 4700
2020-06-22 18:00 6.03 129 47400 (2015) 8 (1936) 1230 11 16 22 30 77 308 500 1990 4700
2020-06-22 17:30 5.97 117 47400 (2015) 8 (1936) 1230 11 16 22 30 77 308 500 1990 4700
2020-06-22 17:00 5.92 107 47400 (2015) 8 (1936) 1230 11 16 22 30 77 308 500 1990 4700
2020-06-22 16:30 5.93 109 47400 (2015) 8 (1936) 1230 11 16 22 30 77 308 500 1990 4700
2020-06-22 16:00 5.97 117 47400 (2015) 8 (1936) 1230 11 16 22 30 77 308 500 1990 4700
2020-06-22 15:30 5.97 117 47400 (2015) 8 (1936) 1230 11 16 22 30 77 308 500 1990 4700
2020-06-22 15:00 5.93 109 47400 (2015) 8 (1936) 1230 11 16 22 30 77 308 500 1990 4700
2020-06-22 14:30 5.98 119 47400 (2015) 8 (1936) 1230 11 16 22 30 77 308 500 1990 4700
2020-06-22 14:00 5.93 109 47400 (2015) 8 (1936) 1230 11 16 22 30 77 308 500 1990 4700
2020-06-22 13:30 5.99 121 47400 (2015) 8 (1936) 1230 11 16 22 30 77 308 500 1990 4700
2020-06-22 13:00 5.99 121 47400 (2015) 8 (1936) 1230 11 16 22 30 77 308 500 1990 4700
2020-06-22 12:30 5.95 113 47400 (2015) 8 (1936) 1230 11 16 22 30 77 308 500 1990 4700
2020-06-22 12:00 6.00 123 47400 (2015) 8 (1936) 1230 11 16 22 30 77 308 500 1990 4700
2020-06-22 11:30 6.00 123 47400 (2015) 8 (1936) 1230 11 16 22 30 77 308 500 1990 4700
2020-06-22 11:00 6.00 123 47400 (2015) 8 (1936) 1230 11 16 22 30 77 308 500 1990 4700
2020-06-22 10:30 6.01 125 47400 (2015) 8 (1936) 1230 11 16 22 30 77 308 500 1990 4700
2020-06-22 10:00 6.01 125 47400 (2015) 8 (1936) 1230 11 16 22 30 77 308 500 1990 4700
2020-06-22 09:30 6.01 125 47400 (2015) 8 (1936) 1230 11 16 22 30 77 308 500 1990 4700
2020-06-22 09:00 5.98 119 47400 (2015) 8 (1936) 1230 11 16 22 30 77 308 500 1990 4700
2020-06-22 08:30 6.02 127 47400 (2015) 8 (1936) 1230 11 16 22 30 77 308 500 1990 4700
2020-06-22 08:00 6.03 129 47400 (2015) 8 (1936) 1230 11 16 22 30 77 308 500 1990 4700
2020-06-22 07:30 6.04 132 47400 (2015) 8 (1936) 1230 11 16 22 30 77 308 500 1990 4700
2020-06-22 07:00 6.05 134 47400 (2015) 8 (1936) 1230 11 16 22 30 77 308 500 1990 4700
2020-06-22 06:30 6.05 134 47400 (2015) 8 (1936) 1230 11 16 22 30 77 308 500 1990 4700
2020-06-22 06:00 6.06 136 47400 (2015) 8 (1936) 1230 11 16 22 30 77 308 500 1990 4700
2020-06-22 05:30 6.06 136 47400 (2015) 8 (1936) 1230 11 16 22 30 77 308 500 1990 4700
2020-06-22 05:00 6.07 138 47400 (2015) 8 (1936) 1230 11 16 22 30 77 308 500 1990 4700
2020-06-22 04:30 6.07 138 47400 (2015) 8 (1936) 1230 11 16 22 30 77 308 500 1990 4700
2020-06-22 04:00 6.08 141 47400 (2015) 8 (1936) 1230 11 16 22 30 77 308 500 1990 4700
2020-06-22 03:30 6.08 141 47400 (2015) 8 (1936) 1230 11 16 22 30 77 308 500 1990 4700
2020-06-22 03:00 6.09 143 47400 (2015) 8 (1936) 1230 11 16 22 30 77 308 500 1990 4700
2020-06-22 02:30 6.10 146 47400 (2015) 8 (1936) 1230 11 16 22 30 77 308 500 1990 4700
2020-06-22 02:00 6.10 146 47400 (2015) 8 (1936) 1230 11 16 22 30 77 308 500 1990 4700
2020-06-22 01:30 6.11 148 47400 (2015) 8 (1936) 1230 11 16 22 30 77 308 500 1990 4700
2020-06-22 01:00 6.12 150 47400 (2015) 8 (1936) 1230 11 16 22 30 77 308 500 1990 4700
2020-06-22 00:30 6.12 150 47400 (2015) 8 (1936) 1230 11 16 22 30 77 308 500 1990 4700
2020-06-22 00:00 6.13 153 47400 (2015) 8 (1936) 1230 11 16 22 30 77 308 500 1990 4700
2020-06-21 23:30 6.14 155 29500 (2015) 4 (1936) 1340 13 18 24 30 97 463 678 2500 9290
2020-06-21 23:00 6.15 158 29500 (2015) 4 (1936) 1340 13 18 24 30 97 463 678 2500 9290
2020-06-21 22:30 6.15 158 29500 (2015) 4 (1936) 1340 13 18 24 30 97 463 678 2500 9290
2020-06-21 22:00 6.16 160 29500 (2015) 4 (1936) 1340 13 18 24 30 97 463 678 2500 9290
2020-06-21 21:30 6.17 163 29500 (2015) 4 (1936) 1340 13 18 24 30 97 463 678 2500 9290
2020-06-21 21:00 6.17 163 29500 (2015) 4 (1936) 1340 13 18 24 30 97 463 678 2500 9290
2020-06-21 20:30 6.18 166 29500 (2015) 4 (1936) 1340 13 18 24 30 97 463 678 2500 9290
2020-06-21 20:00 6.19 168 29500 (2015) 4 (1936) 1340 13 18 24 30 97 463 678 2500 9290
2020-06-21 19:30 6.20 171 29500 (2015) 4 (1936) 1340 13 18 24 30 97 463 678 2500 9290
2020-06-21 19:00 6.21 174 29500 (2015) 4 (1936) 1340 13 18 24 30 97 463 678 2500 9290
2020-06-21 18:30 6.23 179 29500 (2015) 4 (1936) 1340 13 18 24 30 97 463 678 2500 9290
2020-06-21 18:00 6.22 176 29500 (2015) 4 (1936) 1340 13 18 24 30 97 463 678 2500 9290
2020-06-21 17:30 6.24 182 29500 (2015) 4 (1936) 1340 13 18 24 30 97 463 678 2500 9290
2020-06-21 17:00 6.26 188 29500 (2015) 4 (1936) 1340 13 18 24 30 97 463 678 2500 9290
2020-06-21 16:30 6.28 194 29500 (2015) 4 (1936) 1340 13 18 24 30 97 463 678 2500 9290
2020-06-21 16:00 6.30 200 29500 (2015) 4 (1936) 1340 13 18 24 30 97 463 678 2500 9290
2020-06-21 15:30 6.31 203 29500 (2015) 4 (1936) 1340 13 18 24 30 97 463 678 2500 9290
2020-06-21 15:00 6.31 203 29500 (2015) 4 (1936) 1340 13 18 24 30 97 463 678 2500 9290
2020-06-21 14:30 6.35 215 29500 (2015) 4 (1936) 1340 13 18 24 30 97 463 678 2500 9290
2020-06-21 14:00 6.38 225 29500 (2015) 4 (1936) 1340 13 18 24 30 97 463 678 2500 9290
2020-06-21 13:30 6.40 232 29500 (2015) 4 (1936) 1340 13 18 24 30 97 463 678 2500 9290
2020-06-21 13:00 6.42 238 29500 (2015) 4 (1936) 1340 13 18 24 30 97 463 678 2500 9290
2020-06-21 12:30 6.45 249 29500 (2015) 4 (1936) 1340 13 18 24 30 97 463 678 2500 9290
2020-06-21 12:00 6.47 256 29500 (2015) 4 (1936) 1340 13 18 24 30 97 463 678 2500 9290
2020-06-21 11:30 6.49 263 29500 (2015) 4 (1936) 1340 13 18 24 30 97 463 678 2500 9290
2020-06-21 11:00 6.52 273 29500 (2015) 4 (1936) 1340 13 18 24 30 97 463 678 2500 9290
2020-06-21 10:30 6.54 279 29500 (2015) 4 (1936) 1340 13 18 24 30 97 463 678 2500 9290
2020-06-21 10:00 6.56 285 29500 (2015) 4 (1936) 1340 13 18 24 30 97 463 678 2500 9290
2020-06-21 09:30 6.57 288 29500 (2015) 4 (1936) 1340 13 18 24 30 97 463 678 2500 9290
2020-06-21 09:00 6.58 291 29500 (2015) 4 (1936) 1340 13 18 24 30 97 463 678 2500 9290
2020-06-21 08:30 6.57 288 29500 (2015) 4 (1936) 1340 13 18 24 30 97 463 678 2500 9290
2020-06-21 08:00 6.54 279 29500 (2015) 4 (1936) 1340 13 18 24 30 97 463 678 2500 9290
2020-06-21 07:30 6.50 267 29500 (2015) 4 (1936) 1340 13 18 24 30 97 463 678 2500 9290
2020-06-21 07:00 6.45 249 29500 (2015) 4 (1936) 1340 13 18 24 30 97 463 678 2500 9290
2020-06-21 06:30 6.41 235 29500 (2015) 4 (1936) 1340 13 18 24 30 97 463 678 2500 9290
2020-06-21 06:00 6.39 228 29500 (2015) 4 (1936) 1340 13 18 24 30 97 463 678 2500 9290
2020-06-21 05:30 6.39 228 29500 (2015) 4 (1936) 1340 13 18 24 30 97 463 678 2500 9290
2020-06-21 05:00 6.40 232 29500 (2015) 4 (1936) 1340 13 18 24 30 97 463 678 2500 9290
2020-06-21 04:30 6.40 232 29500 (2015) 4 (1936) 1340 13 18 24 30 97 463 678 2500 9290
2020-06-21 04:00 6.41 235 29500 (2015) 4 (1936) 1340 13 18 24 30 97 463 678 2500 9290
2020-06-21 03:30 6.41 235 29500 (2015) 4 (1936) 1340 13 18 24 30 97 463 678 2500 9290
2020-06-21 03:00 6.41 235 29500 (2015) 4 (1936) 1340 13 18 24 30 97 463 678 2500 9290
2020-06-21 02:30 6.40 232 29500 (2015) 4 (1936) 1340 13 18 24 30 97 463 678 2500 9290
2020-06-21 02:00 6.38 225 29500 (2015) 4 (1936) 1340 13 18 24 30 97 463 678 2500 9290
2020-06-21 01:30 6.35 215 29500 (2015) 4 (1936) 1340 13 18 24 30 97 463 678 2500 9290
2020-06-21 01:00 6.32 206 29500 (2015) 4 (1936) 1340 13 18 24 30 97 463 678 2500 9290
2020-06-21 00:30 6.27 191 29500 (2015) 4 (1936) 1340 13 18 24 30 97 463 678 2500 9290
2020-06-21 00:00 6.23 179 29500 (2015) 4 (1936) 1340 13 18 24 30 97 463 678 2500 9290
2020-06-20 23:30 6.18 166 32700 (1928) 7 (1936) 925 13 17 27 32 103 333 484 1980 3970
2020-06-20 23:00 6.15 158 32700 (1928) 7 (1936) 925 13 17 27 32 103 333 484 1980 3970
2020-06-20 22:30 6.12 150 32700 (1928) 7 (1936) 925 13 17 27 32 103 333 484 1980 3970
2020-06-20 22:00 6.10 146 32700 (1928) 7 (1936) 925 13 17 27 32 103 333 484 1980 3970
2020-06-20 21:30 6.08 141 32700 (1928) 7 (1936) 925 13 17 27 32 103 333 484 1980 3970
2020-06-20 21:00 6.07 138 32700 (1928) 7 (1936) 925 13 17 27 32 103 333 484 1980 3970
2020-06-20 20:30 6.07 138 32700 (1928) 7 (1936) 925 13 17 27 32 103 333 484 1980 3970
2020-06-20 20:00 6.07 138 32700 (1928) 7 (1936) 925 13 17 27 32 103 333 484 1980 3970
2020-06-20 19:30 6.07 138 32700 (1928) 7 (1936) 925 13 17 27 32 103 333 484 1980 3970
2020-06-20 19:00 6.08 141 32700 (1928) 7 (1936) 925 13 17 27 32 103 333 484 1980 3970
2020-06-20 18:30 6.09 143 32700 (1928) 7 (1936) 925 13 17 27 32 103 333 484 1980 3970
2020-06-20 18:00 6.09 143 32700 (1928) 7 (1936) 925 13 17 27 32 103 333 484 1980 3970
2020-06-20 17:30 6.10 146 32700 (1928) 7 (1936) 925 13 17 27 32 103 333 484 1980 3970
2020-06-20 17:00 6.11 148 32700 (1928) 7 (1936) 925 13 17 27 32 103 333 484 1980 3970
2020-06-20 16:30 6.12 150 32700 (1928) 7 (1936) 925 13 17 27 32 103 333 484 1980 3970
2020-06-20 16:00 6.13 153 32700 (1928) 7 (1936) 925 13 17 27 32 103 333 484 1980 3970
2020-06-20 15:30 6.10 146 32700 (1928) 7 (1936) 925 13 17 27 32 103 333 484 1980 3970
2020-06-20 15:00 6.16 160 32700 (1928) 7 (1936) 925 13 17 27 32 103 333 484 1980 3970
2020-06-20 14:30 6.16 160 32700 (1928) 7 (1936) 925 13 17 27 32 103 333 484 1980 3970
2020-06-20 14:00 6.17 163 32700 (1928) 7 (1936) 925 13 17 27 32 103 333 484 1980 3970
2020-06-20 13:30 6.16 160 32700 (1928) 7 (1936) 925 13 17 27 32 103 333 484 1980 3970
2020-06-20 13:00 6.09 143 32700 (1928) 7 (1936) 925 13 17 27 32 103 333 484 1980 3970
2020-06-20 12:30 6.10 146 32700 (1928) 7 (1936) 925 13 17 27 32 103 333 484 1980 3970
2020-06-20 12:00 6.05 134 32700 (1928) 7 (1936) 925 13 17 27 32 103 333 484 1980 3970
2020-06-20 11:30 6.00 123 32700 (1928) 7 (1936) 925 13 17 27 32 103 333 484 1980 3970
2020-06-20 11:00 5.93 109 32700 (1928) 7 (1936) 925 13 17 27 32 103 333 484 1980 3970
2020-06-20 10:30 5.88 99 32700 (1928) 7 (1936) 925 13 17 27 32 103 333 484 1980 3970
2020-06-20 10:00 5.86 96 32700 (1928) 7 (1936) 925 13 17 27 32 103 333 484 1980 3970
2020-06-20 09:30 5.80 86 32700 (1928) 7 (1936) 925 13 17 27 32 103 333 484 1980 3970
2020-06-20 09:00 5.84 92 32700 (1928) 7 (1936) 925 13 17 27 32 103 333 484 1980 3970
2020-06-20 08:30 5.84 92 32700 (1928) 7 (1936) 925 13 17 27 32 103 333 484 1980 3970
2020-06-20 08:00 5.84 92 32700 (1928) 7 (1936) 925 13 17 27 32 103 333 484 1980 3970
2020-06-20 07:30 5.85 94 32700 (1928) 7 (1936) 925 13 17 27 32 103 333 484 1980 3970
2020-06-20 07:00 5.84 92 32700 (1928) 7 (1936) 925 13 17 27 32 103 333 484 1980 3970
2020-06-20 06:30 5.85 94 32700 (1928) 7 (1936) 925 13 17 27 32 103 333 484 1980 3970
2020-06-20 06:00 5.84 92 32700 (1928) 7 (1936) 925 13 17 27 32 103 333 484 1980 3970
2020-06-20 05:30 5.84 92 32700 (1928) 7 (1936) 925 13 17 27 32 103 333 484 1980 3970
2020-06-20 05:00 5.84 92 32700 (1928) 7 (1936) 925 13 17 27 32 103 333 484 1980 3970
2020-06-20 04:30 5.85 94 32700 (1928) 7 (1936) 925 13 17 27 32 103 333 484 1980 3970
2020-06-20 04:00 5.84 92 32700 (1928) 7 (1936) 925 13 17 27 32 103 333 484 1980 3970
2020-06-20 03:30 5.84 92 32700 (1928) 7 (1936) 925 13 17 27 32 103 333 484 1980 3970
2020-06-20 03:00 5.85 94 32700 (1928) 7 (1936) 925 13 17 27 32 103 333 484 1980 3970
2020-06-20 02:30 5.85 94 32700 (1928) 7 (1936) 925 13 17 27 32 103 333 484 1980 3970
2020-06-20 02:00 5.85 94 32700 (1928) 7 (1936) 925 13 17 27 32 103 333 484 1980 3970
2020-06-20 01:30 5.85 94 32700 (1928) 7 (1936) 925 13 17 27 32 103 333 484 1980 3970
2020-06-20 01:00 5.85 94 32700 (1928) 7 (1936) 925 13 17 27 32 103 333 484 1980 3970
2020-06-20 00:30 5.85 94 32700 (1928) 7 (1936) 925 13 17 27 32 103 333 484 1980 3970
2020-06-20 00:00 5.85 94 32700 (1928) 7 (1936) 925 13 17 27 32 103 333 484 1980 3970
2020-06-19 23:30 5.85 94 35900 (2015) 8 (1936) 729 13 19 30 39 102 341 460